Darstellungsparameter: Aktuell verwendete Einstellungen:
Skalierung der Graphiken ... ?
xyx+y,   Skalierungsfaktor:      Skalierung: Modus: x, Faktor: 1
Darstellungszeitraum ... ?
Vom - - bis: - -   Zeitraum: 13.04.2009 - 12.10.2009
Min/Max/Avg-Anzeige ... ?
Zeige MMA aktuell
Zeige MMA Monat
Zeige MMA alles
Zeige --A aktuell
Zeige --A Monat
Zeige --A alles
Keine MMA-Anzeige
MMA:
Minimum Maximum Average (ber die Originaldaten)
MMA-Basis: 14.04.2020 - 16.05.2020
Quicknavigation für Darstellung... ?
Tage:      1T, 2T, 3T, 5T -1T -2T -3T -5T +1T +2T +3T +5T
Wochen: 1W, 2W, 3W -1W -2W -3W +1W +2W +3W
Monate: 1M, 3M, 6M -1M -3M -6M +1M +3M +6M
Jahre:    1J, 3J, 5J, 10J -1J -3J -5J -10J +1J +3J +5J +10J
Nutze für die Darstellung ... ?
Originaldaten oder Mittelwerte auf ...
Stundenbasis Tagesbasis Wochenbasis
Monatsbasis Jahresbasis      Datenbasis: Original-Daten
Darstellen als:
Statistik (Auto) Statistik J:M      Darstellung:
Zur Graphik,    zurück zur Übersicht aller Sensoren.
 
Tabellarische Datenbersicht: ?
 
<
Sensor: Nr:Datum:Temp:Abs-Feuchte:Windchill:Wind:
Aussen-T/F 1 13-04-2009 00:09:36 15.4 C 9.33 g/m*3 15.4 C 0 km/h
2 13-04-2009 00:21:36 15.3 C 9.27 g/m*3 15.3 C 0 km/h
3 13-04-2009 00:33:36 15 C 9.23 g/m*3 15 C 0 km/h
4 13-04-2009 00:45:36 14.9 C 9.43 g/m*3 14.9 C 0 km/h
5 13-04-2009 00:57:36 14.7 C 9.32 g/m*3 14.7 C 0 km/h
6 13-04-2009 01:09:36 14.7 C 9.44 g/m*3 14.7 C 0 km/h
7 13-04-2009 01:21:36 14.4 C 9.27 g/m*3 14.4 C 0 km/h
8 13-04-2009 01:33:36 14.2 C 9.16 g/m*3 14.2 C 0 km/h
9 13-04-2009 01:45:36 14 C 9.17 g/m*3 14 C 0 km/h
10 13-04-2009 01:57:36 13.8 C 9.17 g/m*3 13.8 C 0 km/h
11 13-04-2009 02:09:36 13.7 C 9.24 g/m*3 13.7 C 0 km/h
12 13-04-2009 02:21:36 13.5 C 9.12 g/m*3 13.5 C 0 km/h
13 13-04-2009 02:33:36 13.4 C 9.07 g/m*3 13.4 C 0 km/h
14 13-04-2009 02:45:37 13.2 C 9.07 g/m*3 13.2 C 0 km/h
15 13-04-2009 02:57:37 13.2 C 9.07 g/m*3 13.2 C 0 km/h
16 13-04-2009 03:09:37 13.1 C 9.13 g/m*3 13.1 C 0 km/h
17 13-04-2009 03:21:37 12.9 C 9.02 g/m*3 12.9 C 0 km/h
18 13-04-2009 03:33:37 12.8 C 9.07 g/m*3 12.8 C 0 km/h
19 13-04-2009 03:45:37 12.7 C 9.02 g/m*3 12.7 C 0 km/h
20 13-04-2009 03:57:37 12.7 C 9.13 g/m*3 12.7 C 0 km/h
21 13-04-2009 04:09:37 12.6 C 9.07 g/m*3 12.6 C 0 km/h
22 13-04-2009 04:21:37 12.5 C 8.91 g/m*3 12.5 C 0 km/h
23 13-04-2009 04:33:37 12.2 C 8.74 g/m*3 12.2 C 0 km/h
24 13-04-2009 04:45:37 12 C 8.74 g/m*3 12 C 0 km/h
25 13-04-2009 04:57:37 12.1 C 8.79 g/m*3 12.1 C 0 km/h
Sensor: Nr:Datum:Temp:Abs-Feuchte:Windchill:Wind:
Aussen-T/F 26 13-04-2009 05:09:37 12.3 C 9.01 g/m*3 12.3 C 0 km/h
27 13-04-2009 05:21:37 12.4 C 8.96 g/m*3 12.4 C 0 km/h
28 13-04-2009 05:33:37 12.4 C 8.85 g/m*3 12.4 C 0 km/h
29 13-04-2009 05:45:37 12.5 C 8.91 g/m*3 12.5 C 0 km/h
30 13-04-2009 05:57:37 12.5 C 8.91 g/m*3 12.5 C 0 km/h
31 13-04-2009 06:09:37 12.5 C 8.91 g/m*3 12.5 C 0 km/h
32 13-04-2009 06:21:37 12.7 C 9.02 g/m*3 12.7 C 0 km/h
33 13-04-2009 06:33:38 12.7 C 8.91 g/m*3 12.7 C 0 km/h
34 13-04-2009 06:45:38 12.8 C 9.07 g/m*3 12.8 C 0 km/h
35 13-04-2009 06:57:38 13 C 9.19 g/m*3 13 C 0 km/h
36 13-04-2009 07:09:38 13.1 C 9.24 g/m*3 13.1 C 0 km/h
37 13-04-2009 07:21:38 13.4 C 9.42 g/m*3 13.4 C 0 km/h
38 13-04-2009 07:33:38 13.6 C 9.53 g/m*3 13.6 C 0 km/h
39 13-04-2009 07:45:38 13.7 C 9.59 g/m*3 13.7 C 0 km/h
40 13-04-2009 07:57:38 13.9 C 9.71 g/m*3 13.9 C 0 km/h
41 13-04-2009 08:09:35 13.9 C 9.71 g/m*3 13.9 C 0 km/h
42 13-04-2009 08:21:35 13.8 C 9.65 g/m*3 13.8 C 0 km/h
43 13-04-2009 08:33:35 13.7 C 9.71 g/m*3 13.7 C 0 km/h
44 13-04-2009 08:45:35 13.3 C 9.59 g/m*3 13.3 C 0 km/h
45 13-04-2009 08:57:35 13.5 C 9.83 g/m*3 13.5 C 0 km/h
46 13-04-2009 09:09:34 13.6 C 9.89 g/m*3 13.6 C 0 km/h
47 13-04-2009 09:21:35 13.7 C 9.95 g/m*3 13.7 C 0 km/h
48 13-04-2009 09:33:34 13.8 C 9.89 g/m*3 13.8 C 0 km/h
49 13-04-2009 09:45:34 14.1 C 9.95 g/m*3 14.1 C 0 km/h
50 13-04-2009 09:57:34 14.3 C 9.95 g/m*3 14.3 C 0 km/h
Sensor: Nr:Datum:Temp:Abs-Feuchte:Windchill:Wind:
Aussen-T/F 51 13-04-2009 10:09:33 14.3 C 9.71 g/m*3 14.3 C 0 km/h
52 13-04-2009 10:21:34 14.4 C 9.77 g/m*3 14.4 C 0 km/h
53 13-04-2009 10:33:33 14.4 C 9.64 g/m*3 14.4 C 0 km/h
54 13-04-2009 10:45:34 14.2 C 9.65 g/m*3 14.2 C 0 km/h
55 13-04-2009 10:57:34 14.3 C 9.71 g/m*3 14.3 C 0 km/h
56 13-04-2009 11:09:33 14.6 C 9.76 g/m*3 14.6 C 0 km/h
57 13-04-2009 11:21:33 14.4 C 9.64 g/m*3 14.4 C 0 km/h
58 13-04-2009 11:33:33 14.5 C 9.7 g/m*3 14.5 C 0 km/h
59 13-04-2009 11:45:33 14.5 C 9.58 g/m*3 14.5 C 0 km/h
60 13-04-2009 11:57:33 15.1 C 9.68 g/m*3 15.1 C 0 km/h
61 13-04-2009 12:09:33 15.3 C 9.53 g/m*3 15.3 C 0 km/h
62 13-04-2009 12:21:32 15.6 C 9.58 g/m*3 15.6 C 0 km/h
63 13-04-2009 12:33:33 15.8 C 9.29 g/m*3 15.8 C 0 km/h
64 13-04-2009 12:45:32 15.9 C 9.21 g/m*3 15.9 C 0 km/h
65 13-04-2009 12:57:32 16.7 C 8.95 g/m*3 16.7 C 0 km/h
66 13-04-2009 13:09:32 16.2 C 8.83 g/m*3 16.2 C 0 km/h
67 13-04-2009 13:21:32 16.4 C 8.79 g/m*3 16.4 C 0 km/h
68 13-04-2009 13:33:32 17.5 C 8.8 g/m*3 17.5 C 0 km/h
69 13-04-2009 13:45:31 18 C 8.6 g/m*3 18 C 0 km/h
70 13-04-2009 13:57:31 17.6 C 8.85 g/m*3 17.6 C 0 km/h
71 13-04-2009 14:09:32 18.3 C 8.6 g/m*3 18.3 C 0 km/h
72 13-04-2009 14:21:31 18.1 C 8.5 g/m*3 18.1 C 0 km/h
73 13-04-2009 14:33:31 18.3 C 8.6 g/m*3 18.3 C 0 km/h
74 13-04-2009 14:45:31 19.2 C 8.41 g/m*3 19.2 C 0 km/h
75 13-04-2009 14:57:31 19.9 C 8.59 g/m*3 19.9 C 0 km/h
Sensor: Nr:Datum:Temp:Abs-Feuchte:Windchill:Wind:
Aussen-T/F 76 13-04-2009 15:09:31 19.8 C 8.54 g/m*3 19.8 C 0 km/h
77 13-04-2009 15:21:31 20 C 8.64 g/m*3 20 C 0 km/h
78 13-04-2009 15:33:31 20.3 C 8.79 g/m*3 20.3 C 0 km/h
79 13-04-2009 15:45:30 19.9 C 8.59 g/m*3 19.9 C 0 km/h
80 13-04-2009 15:57:30 19.7 C 8.66 g/m*3 19.7 C 0 km/h
81 13-04-2009 16:09:31 20.3 C 8.62 g/m*3 20.3 C 0 km/h
82 13-04-2009 16:21:30 20.5 C 8.54 g/m*3 20.5 C 0 km/h
83 13-04-2009 16:33:30 20.3 C 8.44 g/m*3 20.3 C 0 km/h
84 13-04-2009 16:45:29 20.8 C 8.69 g/m*3 20.8 C 0 km/h
85 13-04-2009 16:57:29 21.2 C 8.34 g/m*3 21.2 C 0 km/h
86 13-04-2009 17:09:30 21.1 C 8.48 g/m*3 21.1 C 0 km/h
87 13-04-2009 17:21:30 21 C 8.24 g/m*3 21 C 0 km/h
88 13-04-2009 17:33:29 20.5 C 8.36 g/m*3 20.5 C 0 km/h
89 13-04-2009 17:45:30 20.8 C 8.51 g/m*3 20.8 C 0 km/h
90 13-04-2009 17:57:30 21.1 C 8.29 g/m*3 21.1 C 0 km/h
91 13-04-2009 18:09:29 20.3 C 8.44 g/m*3 20.3 C 0 km/h
92 13-04-2009 18:21:29 20 C 8.3 g/m*3 20 C 0 km/h
93 13-04-2009 18:33:29 19.2 C 8.41 g/m*3 19.2 C 0 km/h
94 13-04-2009 18:45:29 19.4 C 8.68 g/m*3 19.4 C 0 km/h
95 13-04-2009 18:57:30 19.3 C 8.46 g/m*3 19.3 C 0 km/h
96 13-04-2009 19:09:28 19.1 C 8.2 g/m*3 19.1 C 0 km/h
97 13-04-2009 19:21:29 18.9 C 8.42 g/m*3 18.9 C 0 km/h
98 13-04-2009 19:33:29 18.6 C 8.44 g/m*3 18.6 C 0 km/h
99 13-04-2009 19:45:28 18.3 C 8.44 g/m*3 18.3 C 0 km/h
100 13-04-2009 19:57:28 18 C 8.6 g/m*3 18 C 0 km/h
Sensor: Nr:Datum:Temp:Abs-Feuchte:Windchill:Wind:
Aussen-T/F 101 13-04-2009 20:09:28 17.9 C 8.86 g/m*3 17.9 C 0 km/h
102 13-04-2009 20:21:28 17.5 C 8.95 g/m*3 17.5 C 0 km/h
103 13-04-2009 20:33:28 17.1 C 8.73 g/m*3 17.1 C 0 km/h
104 13-04-2009 20:45:27 16.7 C 8.95 g/m*3 16.7 C 0 km/h
105 13-04-2009 20:57:27 16.7 C 8.95 g/m*3 16.7 C 0 km/h
106 13-04-2009 21:09:27 16.4 C 8.93 g/m*3 16.4 C 0 km/h
107 13-04-2009 21:21:28 16.1 C 8.91 g/m*3 16.1 C 0 km/h
108 13-04-2009 21:33:27 15.7 C 8.96 g/m*3 15.7 C 0 km/h
109 13-04-2009 21:45:27 15.4 C 8.93 g/m*3 15.4 C 0 km/h
110 13-04-2009 21:57:27 14.9 C 8.92 g/m*3 14.9 C 0 km/h
111 13-04-2009 22:09:27 14.6 C 9.01 g/m*3 14.6 C 0 km/h
112 13-04-2009 22:21:27 14.5 C 8.95 g/m*3 14.5 C 0 km/h
113 13-04-2009 22:33:27 14.4 C 9.02 g/m*3 14.4 C 0 km/h
114 13-04-2009 22:46:40 14.2 C 8.91 g/m*3 14.2 C 0 km/h
115 13-04-2009 22:58:40 14.1 C 8.98 g/m*3 14.1 C 0 km/h
116 13-04-2009 23:10:40 14.2 C 9.04 g/m*3 14.2 C 0 km/h
117 13-04-2009 23:22:41 14.1 C 8.98 g/m*3 14.1 C 0 km/h
118 13-04-2009 23:34:41 14 C 9.05 g/m*3 14 C 0 km/h
119 13-04-2009 23:46:41 13.9 C 9.11 g/m*3 13.9 C 0 km/h
120 13-04-2009 23:58:41 13.7 C 9 g/m*3 13.7 C 0 km/h
121 14-04-2009 00:10:41 13.7 C 9 g/m*3 13.7 C 0 km/h
122 14-04-2009 00:22:41 13.5 C 8.89 g/m*3 13.5 C 0 km/h
123 14-04-2009 00:34:41 13.3 C 8.66 g/m*3 13.3 C 0 km/h
124 14-04-2009 00:46:41 13.2 C 8.73 g/m*3 13.2 C 0 km/h
125 14-04-2009 00:58:41 13.1 C 8.67 g/m*3 13.1 C 0 km/h
Sensor: Nr:Datum:Temp:Abs-Feuchte:Windchill:Wind:
Aussen-T/F 126 14-04-2009 01:10:41 12.8 C 8.74 g/m*3 12.8 C 0 km/h
127 14-04-2009 01:22:41 12.5 C 8.69 g/m*3 12.5 C 0 km/h
128 14-04-2009 01:34:41 12.3 C 8.58 g/m*3 12.3 C 0 km/h
129 14-04-2009 01:46:41 12.1 C 8.58 g/m*3 12.1 C 0 km/h
130 14-04-2009 01:58:41 11.9 C 8.58 g/m*3 11.9 C 0 km/h
131 14-04-2009 02:10:41 11.8 C 8.63 g/m*3 11.8 C 0 km/h
132 14-04-2009 02:22:41 11.6 C 8.52 g/m*3 11.6 C 0 km/h
133 14-04-2009 02:34:41 11.4 C 8.42 g/m*3 11.4 C 0 km/h
134 14-04-2009 02:46:41 11.3 C 8.47 g/m*3 11.3 C 0 km/h
135 14-04-2009 02:58:41 11.1 C 8.36 g/m*3 11.1 C 0 km/h
136 14-04-2009 03:10:42 11 C 8.31 g/m*3 11 C 0 km/h
137 14-04-2009 03:22:42 10.8 C 8.3 g/m*3 10.8 C 0 km/h
138 14-04-2009 03:34:42 10.7 C 8.25 g/m*3 10.7 C 0 km/h
139 14-04-2009 03:46:42 10.7 C 8.25 g/m*3 10.7 C 0 km/h
140 14-04-2009 03:58:42 10.5 C 8.15 g/m*3 10.5 C 0 km/h
141 14-04-2009 04:10:42 10.4 C 8.1 g/m*3 10.4 C 0 km/h
142 14-04-2009 04:22:42 10.3 C 8.04 g/m*3 10.3 C 0 km/h
143 14-04-2009 04:34:42 10 C 7.99 g/m*3 10 C 0 km/h
144 14-04-2009 04:46:42 9.8 C 7.98 g/m*3 9.8 C 0 km/h
145 14-04-2009 04:58:42 9.7 C 7.93 g/m*3 9.7 C 0 km/h
146 14-04-2009 05:10:42 9.7 C 8.02 g/m*3 9.7 C 0 km/h
147 14-04-2009 05:22:42 9.7 C 8.02 g/m*3 9.7 C 0 km/h
148 14-04-2009 05:34:42 9.7 C 8.02 g/m*3 9.7 C 0 km/h
149 14-04-2009 05:46:42 9.8 C 8.16 g/m*3 9.8 C 0 km/h
150 14-04-2009 05:58:42 9.8 C 8.07 g/m*3 9.8 C 0 km/h
Sensor: Nr:Datum:Temp:Abs-Feuchte:Windchill:Wind:
Aussen-T/F 151 14-04-2009 06:10:42 9.8 C 8.07 g/m*3 9.8 C 0 km/h
152 14-04-2009 06:22:42 9.7 C 8.02 g/m*3 9.7 C 0 km/h
153 14-04-2009 06:34:42 9.8 C 8.07 g/m*3 9.8 C 0 km/h
154 14-04-2009 06:46:42 9.6 C 7.97 g/m*3 9.6 C 0 km/h
155 14-04-2009 06:58:42 9.6 C 7.97 g/m*3 9.6 C 0 km/h
156 14-04-2009 07:10:43 9.7 C 8.02 g/m*3 9.7 C 0 km/h
157 14-04-2009 07:22:43 9.9 C 8.12 g/m*3 9.9 C 0 km/h
158 14-04-2009 07:34:28 9.7 C 7.93 g/m*3 9.7 C 0 km/h
159 14-04-2009 07:46:28 9.3 C 7.73 g/m*3 9.3 C 0 km/h
160 14-04-2009 07:58:28 9.3 C 7.82 g/m*3 9.3 C 0 km/h
161 14-04-2009 08:10:28 9.4 C 7.96 g/m*3 9.4 C 0 km/h
162 14-04-2009 08:22:28 9.7 C 8.11 g/m*3 9.7 C 0 km/h
163 14-04-2009 08:34:27 10.1 C 8.13 g/m*3 10.1 C 0 km/h
164 14-04-2009 08:46:27 9.9 C 8.03 g/m*3 9.9 C 0 km/h
165 14-04-2009 08:58:27 10.1 C 7.94 g/m*3 10.1 C 0 km/h
166 14-04-2009 09:10:27 10.1 C 7.94 g/m*3 10.1 C 0 km/h
167 14-04-2009 09:22:27 10.1 C 7.94 g/m*3 10.1 C 0 km/h
168 14-04-2009 09:34:27 10.2 C 7.99 g/m*3 10.2 C 0 km/h
169 14-04-2009 09:46:27 10.6 C 8.2 g/m*3 10.6 C 0 km/h
170 14-04-2009 09:58:27 11 C 8.21 g/m*3 11 C 0 km/h
171 14-04-2009 10:10:27 11.4 C 8.31 g/m*3 11.4 C 0 km/h
172 14-04-2009 10:22:26 12 C 8.53 g/m*3 12 C 0 km/h
173 14-04-2009 10:34:26 12.4 C 8.41 g/m*3 12.4 C 0 km/h
174 14-04-2009 10:46:27 12.8 C 8.62 g/m*3 12.8 C 0 km/h
175 14-04-2009 10:58:27 13.3 C 8.9 g/m*3 13.3 C 0 km/h
Sensor: Nr:Datum:Temp:Abs-Feuchte:Windchill:Wind:
Aussen-T/F 176 14-04-2009 11:10:26 13.7 C 8.88 g/m*3 13.7 C 0 km/h
177 14-04-2009 11:22:26 13.8 C 8.82 g/m*3 13.8 C 0 km/h
178 14-04-2009 11:34:25 14 C 8.68 g/m*3 14 C 0 km/h
179 14-04-2009 11:46:26 14.3 C 8.72 g/m*3 14.3 C 0 km/h
180 14-04-2009 11:58:27 14.8 C 8.87 g/m*3 14.8 C 0 km/h
181 14-04-2009 12:10:25 15.8 C 8.88 g/m*3 15.8 C 0 km/h
182 14-04-2009 12:22:25 16.6 C 8.48 g/m*3 16.6 C 0 km/h
183 14-04-2009 12:34:26 16.1 C 8.64 g/m*3 16.1 C 0 km/h
184 14-04-2009 12:46:25 16.3 C 8.74 g/m*3 16.3 C 0 km/h
185 14-04-2009 12:58:25 16.7 C 8.81 g/m*3 16.7 C 0 km/h
186 14-04-2009 13:10:25 17.7 C 8.6 g/m*3 17.7 C 0 km/h
187 14-04-2009 13:22:25 18.8 C 8.21 g/m*3 18.8 C 0 km/h
188 14-04-2009 13:34:25 19.6 C 7.93 g/m*3 19.6 C 0 km/h
189 14-04-2009 13:46:24 20.4 C 7.96 g/m*3 20.4 C 0 km/h
190 14-04-2009 13:58:24 21.2 C 7.78 g/m*3 21.2 C 0 km/h
191 14-04-2009 14:10:25 22.2 C 7.66 g/m*3 22.2 C 0 km/h
192 14-04-2009 14:22:24 23.1 C 7.44 g/m*3 23.1 C 0 km/h
193 14-04-2009 14:34:24 23.7 C 7.91 g/m*3 23.7 C 0 km/h
194 14-04-2009 14:46:24 24.5 C 7.61 g/m*3 24.5 C 0 km/h
195 14-04-2009 14:58:24 24.9 C 7.55 g/m*3 24.9 C 0 km/h
196 14-04-2009 15:10:24 25.6 C 7.62 g/m*3 25.6 C 0 km/h
197 14-04-2009 15:22:24 25.6 C 7.14 g/m*3 25.6 C 0 km/h
198 14-04-2009 15:34:23 25.8 C 6.98 g/m*3 25.8 C 0 km/h
199 14-04-2009 15:46:24 26.4 C 6.47 g/m*3 26.4 C 0 km/h
200 14-04-2009 15:58:24 27.2 C 6.77 g/m*3 27.2 C 0 km/h
Sensor: Nr:Datum:Temp:Abs-Feuchte:Windchill:Wind:
Aussen-T/F 201 14-04-2009 16:10:23 26.7 C 5.82 g/m*3 26.7 C 0 km/h
202 14-04-2009 16:22:23 27.3 C 5.49 g/m*3 27.3 C 0 km/h
203 14-04-2009 16:34:23 27.3 C 5.49 g/m*3 27.3 C 0 km/h
204 14-04-2009 16:46:23 27 C 5.4 g/m*3 27 C 0 km/h
205 14-04-2009 16:58:24 28.4 C 5.84 g/m*3 28.4 C 0 km/h
206 14-04-2009 17:10:22 28.4 C 5.56 g/m*3 28.4 C 0 km/h
207 14-04-2009 17:22:22 27.9 C 5.41 g/m*3 27.9 C 0 km/h
208 14-04-2009 17:34:23 27.4 C 5.26 g/m*3 27.4 C 0 km/h
209 14-04-2009 17:46:22 26.6 C 5.03 g/m*3 26.6 C 0 km/h
210 14-04-2009 17:58:22 26.5 C 5.26 g/m*3 26.5 C 0 km/h
211 14-04-2009 18:10:22 27.3 C 5.23 g/m*3 27.3 C 0 km/h
212 14-04-2009 18:22:22 26 C 4.87 g/m*3 26 C 0 km/h
213 14-04-2009 18:34:22 25.1 C 5.32 g/m*3 25.1 C 0 km/h
214 14-04-2009 18:46:21 24.8 C 5.24 g/m*3 24.8 C 0 km/h
215 14-04-2009 18:58:21 24.2 C 5.5 g/m*3 24.2 C 0 km/h
216 14-04-2009 19:10:22 24.7 C 5.88 g/m*3 24.7 C 0 km/h
217 14-04-2009 19:22:21 22.8 C 5.49 g/m*3 22.8 C 0 km/h
218 14-04-2009 19:34:21 22.5 C 5.79 g/m*3 22.5 C 0 km/h
219 14-04-2009 19:46:21 22.1 C 5.86 g/m*3 22.1 C 0 km/h
220 14-04-2009 19:58:21 21.4 C 6.19 g/m*3 21.4 C 0 km/h
221 14-04-2009 20:10:21 20.5 C 6.41 g/m*3 20.5 C 0 km/h
222 14-04-2009 20:22:21 19.3 C 6.3 g/m*3 19.3 C 0 km/h
223 14-04-2009 20:34:20 18.5 C 6.17 g/m*3 18.5 C 0 km/h
224 14-04-2009 20:46:21 17.9 C 6.11 g/m*3 17.9 C 0 km/h
225 14-04-2009 20:58:21 17.7 C 6.19 g/m*3 17.7 C 0 km/h
Sensor: Nr:Datum:Temp:Abs-Feuchte:Windchill:Wind:
Aussen-T/F 226 14-04-2009 21:10:21 17.4 C 6.52 g/m*3 17.4 C 0 km/h
227 14-04-2009 21:22:20 17.3 C 6.63 g/m*3 17.3 C 0 km/h
228 14-04-2009 21:34:20 17.2 C 6.74 g/m*3 17.2 C 0 km/h
229 14-04-2009 21:46:20 16.9 C 6.47 g/m*3 16.9 C 0 km/h
230 14-04-2009 21:58:20 16.6 C 6.36 g/m*3 16.6 C 0 km/h
231 14-04-2009 22:10:20 16.3 C 6.24 g/m*3 16.3 C 0 km/h
232 14-04-2009 22:22:19 15.9 C 6.37 g/m*3 15.9 C 0 km/h
233 14-04-2009 22:34:19 15.7 C 6.42 g/m*3 15.7 C 0 km/h
234 14-04-2009 22:46:20 15.4 C 6.31 g/m*3 15.4 C 0 km/h
235 14-04-2009 22:58:20 15.1 C 6.45 g/m*3 15.1 C 0 km/h
236 14-04-2009 23:10:19 14.6 C 6.76 g/m*3 14.6 C 0 km/h
237 14-04-2009 23:22:19 14.3 C 6.63 g/m*3 14.3 C 0 km/h
238 14-04-2009 23:34:19 14.2 C 6.72 g/m*3 14.2 C 0 km/h
239 14-04-2009 23:46:19 13.9 C 6.71 g/m*3 13.9 C 0 km/h
240 14-04-2009 23:58:19 13.8 C 6.67 g/m*3 13.8 C 0 km/h
241 15-04-2009 00:10:18 13.6 C 6.71 g/m*3 13.6 C 0 km/h
242 15-04-2009 00:22:18 13.2 C 6.66 g/m*3 13.2 C 0 km/h
243 15-04-2009 00:34:19 13.1 C 6.73 g/m*3 13.1 C 0 km/h
244 15-04-2009 00:46:18 12.9 C 6.76 g/m*3 12.9 C 0 km/h
245 15-04-2009 00:58:18 12.5 C 6.71 g/m*3 12.5 C 0 km/h
246 15-04-2009 01:11:19 12.3 C 6.73 g/m*3 12.3 C 0 km/h
247 15-04-2009 01:23:19 12.1 C 6.76 g/m*3 12.1 C 0 km/h
248 15-04-2009 01:35:19 11.8 C 6.74 g/m*3 11.8 C 0 km/h
249 15-04-2009 01:47:19 11.7 C 6.69 g/m*3 11.7 C 0 km/h
250 15-04-2009 01:59:19 11.5 C 6.71 g/m*3 11.5 C 0 km/h
Sensor: Nr:Datum:Temp:Abs-Feuchte:Windchill:Wind:
Aussen-T/F 251 15-04-2009 02:11:19 11.2 C 6.69 g/m*3 11.2 C 0 km/h
252 15-04-2009 02:23:19 11.2 C 6.79 g/m*3 11.2 C 0 km/h
253 15-04-2009 02:35:19 10.9 C 6.76 g/m*3 10.9 C 0 km/h
254 15-04-2009 02:47:19 10.7 C 6.68 g/m*3 10.7 C 0 km/h
255 15-04-2009 02:59:19 10.6 C 6.73 g/m*3 10.6 C 0 km/h
256 15-04-2009 03:11:19 10.4 C 6.75 g/m*3 10.4 C 0 km/h
257 15-04-2009 03:23:20 10.2 C 6.66 g/m*3 10.2 C 0 km/h
258 15-04-2009 03:35:20 10 C 6.67 g/m*3 10 C 0 km/h
259 15-04-2009 03:47:20 9.8 C 6.68 g/m*3 9.8 C 0 km/h
260 15-04-2009 03:59:20 9.7 C 6.73 g/m*3 9.7 C 0 km/h
261 15-04-2009 04:11:20 9.6 C 6.78 g/m*3 9.6 C 0 km/h
262 15-04-2009 04:23:20 9.4 C 6.78 g/m*3 9.4 C 0 km/h
263 15-04-2009 04:35:20 9.3 C 6.83 g/m*3 9.3 C 0 km/h
264 15-04-2009 04:47:20 9.3 C 6.83 g/m*3 9.3 C 0 km/h
265 15-04-2009 04:59:20 9 C 6.7 g/m*3 9 C 0 km/h
266 15-04-2009 05:11:20 8.9 C 6.75 g/m*3 8.9 C 0 km/h
267 15-04-2009 05:23:20 8.9 C 6.75 g/m*3 8.9 C 0 km/h
268 15-04-2009 05:35:20 8.7 C 6.66 g/m*3 8.7 C 0 km/h
269 15-04-2009 05:47:20 8.6 C 6.62 g/m*3 8.6 C 0 km/h
270 15-04-2009 05:59:20 8.5 C 6.57 g/m*3 8.5 C 0 km/h
271 15-04-2009 06:11:20 8.3 C 6.66 g/m*3 8.3 C 0 km/h
272 15-04-2009 06:23:20 8.2 C 6.62 g/m*3 8.2 C 0 km/h
273 15-04-2009 06:35:20 8.1 C 6.57 g/m*3 8.1 C 0 km/h
274 15-04-2009 06:47:20 8.1 C 6.57 g/m*3 8.1 C 0 km/h
275 15-04-2009 06:59:20 8 C 6.61 g/m*3 8 C 0 km/h
Sensor: Nr:Datum:Temp:Abs-Feuchte:Windchill:Wind:
Aussen-T/F 276 15-04-2009 07:11:21 8 C 6.61 g/m*3 8 C 0 km/h
277 15-04-2009 07:23:21 8 C 6.61 g/m*3 8 C 0 km/h
278 15-04-2009 07:35:21 8.1 C 6.66 g/m*3 8.1 C 0 km/h
279 15-04-2009 07:47:21 8.3 C 6.74 g/m*3 8.3 C 0 km/h
280 15-04-2009 07:59:21 8.4 C 6.79 g/m*3 8.4 C 0 km/h
281 15-04-2009 08:11:21 8.6 C 6.87 g/m*3 8.6 C 0 km/h
282 15-04-2009 08:23:21 8.7 C 6.92 g/m*3 8.7 C 0 km/h
283 15-04-2009 08:35:21 9.1 C 7.01 g/m*3 9.1 C 0 km/h
284 15-04-2009 08:47:21 9.4 C 7.05 g/m*3 9.4 C 0 km/h
285 15-04-2009 08:59:21 9.8 C 7.24 g/m*3 9.8 C 0 km/h
286 15-04-2009 09:11:19 10.2 C 7.14 g/m*3 10.2 C 0 km/h
287 15-04-2009 09:23:18 10.6 C 7.32 g/m*3 10.6 C 0 km/h
288 15-04-2009 09:35:19 11.1 C 7.35 g/m*3 11.1 C 0 km/h
289 15-04-2009 09:47:18 11.8 C 7.58 g/m*3 11.8 C 0 km/h
290 15-04-2009 09:59:18 12.3 C 7.38 g/m*3 12.3 C 0 km/h
291 15-04-2009 10:11:18 12.6 C 7.41 g/m*3 12.6 C 0 km/h
292 15-04-2009 10:23:19 13.3 C 7.51 g/m*3 13.3 C 0 km/h
293 15-04-2009 10:35:18 14 C 7.48 g/m*3 14 C 0 km/h
294 15-04-2009 10:47:18 14.7 C 7.68 g/m*3 14.7 C 0 km/h
295 15-04-2009 10:59:18 15.4 C 7.75 g/m*3 15.4 C 0 km/h
296 15-04-2009 11:11:18 16.2 C 7.58 g/m*3 16.2 C 0 km/h
297 15-04-2009 11:23:18 17 C 7.67 g/m*3 17 C 0 km/h
298 15-04-2009 11:35:17 17.6 C 7.5 g/m*3 17.6 C 0 km/h
299 15-04-2009 11:47:17 18.5 C 7.59 g/m*3 18.5 C 0 km/h
300 15-04-2009 11:59:17 19.4 C 7.67 g/m*3 19.4 C 0 km/h
Sensor: Nr:Datum:Temp:Abs-Feuchte:Windchill:Wind:
Aussen-T/F 301 15-04-2009 12:11:17 20.4 C 7.25 g/m*3 20.4 C 0 km/h
302 15-04-2009 12:23:17 21 C 7.14 g/m*3 21 C 0 km/h
303 15-04-2009 12:35:17 21.6 C 7.02 g/m*3 21.6 C 0 km/h
304 15-04-2009 12:47:17 22.5 C 6.79 g/m*3 22.5 C 0 km/h
305 15-04-2009 12:59:17 23 C 5.14 g/m*3 23 C 0 km/h
306 15-04-2009 13:11:17 23.8 C 5.38 g/m*3 23.8 C 0 km/h
307 15-04-2009 13:23:16 24.4 C 4.45 g/m*3 24.4 C 0 km/h
308 15-04-2009 13:35:16 24.9 C 4.58 g/m*3 24.9 C 0 km/h
309 15-04-2009 13:47:16 25.1 C 4.63 g/m*3 25.1 C 0 km/h
310 15-04-2009 13:59:16 25.7 C 4.79 g/m*3 25.7 C 0 km/h
311 15-04-2009 14:11:16 26.3 C 4.95 g/m*3 26.3 C 0 km/h
312 15-04-2009 14:23:15 26.4 C 4.98 g/m*3 26.4 C 0 km/h
313 15-04-2009 14:35:16 27 C 5.15 g/m*3 27 C 0 km/h
314 15-04-2009 14:47:16 27.5 C 5.29 g/m*3 27.5 C 0 km/h
315 15-04-2009 14:59:16 27.3 C 5.23 g/m*3 27.3 C 0 km/h
316 15-04-2009 15:11:15 27.7 C 5.35 g/m*3 27.7 C 0 km/h
317 15-04-2009 15:23:16 27.5 C 5.29 g/m*3 27.5 C 0 km/h
318 15-04-2009 15:35:15 27.8 C 5.38 g/m*3 27.8 C 0 km/h
319 15-04-2009 15:47:15 28.6 C 5.62 g/m*3 28.6 C 0 km/h
320 15-04-2009 15:59:15 29.2 C 5.81 g/m*3 29.2 C 0 km/h
321 15-04-2009 16:11:15 28.5 C 5.59 g/m*3 28.5 C 0 km/h
322 15-04-2009 16:23:15 29.2 C 5.81 g/m*3 29.2 C 0 km/h
323 15-04-2009 16:35:15 28.6 C 5.62 g/m*3 28.6 C 0 km/h
324 15-04-2009 16:47:15 27.8 C 5.38 g/m*3 27.8 C 0 km/h
325 15-04-2009 16:59:15 28.4 C 5.56 g/m*3 28.4 C 0 km/h
Sensor: Nr:Datum:Temp:Abs-Feuchte:Windchill:Wind:
Aussen-T/F 326 15-04-2009 17:11:14 29.1 C 5.78 g/m*3 29.1 C 0 km/h
327 15-04-2009 17:23:14 28.1 C 5.47 g/m*3 28.1 C 0 km/h
328 15-04-2009 17:35:14 28.2 C 5.5 g/m*3 28.2 C 0 km/h
329 15-04-2009 17:47:14 28.3 C 5.53 g/m*3 28.3 C 0 km/h
330 15-04-2009 17:59:14 27 C 5.15 g/m*3 27 C 0 km/h
331 15-04-2009 18:11:14 26.4 C 4.98 g/m*3 26.4 C 0 km/h
332 15-04-2009 18:23:13 26.1 C 4.9 g/m*3 26.1 C 0 km/h
333 15-04-2009 18:35:14 25.6 C 4.76 g/m*3 25.6 C 0 km/h
334 15-04-2009 18:47:13 25.1 C 4.63 g/m*3 25.1 C 0 km/h
335 15-04-2009 18:59:13 24.2 C 4.62 g/m*3 24.2 C 0 km/h
336 15-04-2009 19:11:13 23.7 C 4.92 g/m*3 23.7 C 0 km/h
337 15-04-2009 19:23:13 22.9 C 5.11 g/m*3 22.9 C 0 km/h
338 15-04-2009 19:35:13 22.1 C 4.88 g/m*3 22.1 C 0 km/h
339 15-04-2009 19:47:13 21.3 C 4.66 g/m*3 21.3 C 0 km/h
340 15-04-2009 19:59:13 20.8 C 4.89 g/m*3 20.8 C 0 km/h
341 15-04-2009 20:11:13 20.3 C 4.75 g/m*3 20.3 C 0 km/h
342 15-04-2009 20:23:13 19.7 C 5.26 g/m*3 19.7 C 0 km/h
343 15-04-2009 20:35:12 19.1 C 5.08 g/m*3 19.1 C 0 km/h
344 15-04-2009 20:47:12 18.7 C 5.12 g/m*3 18.7 C 0 km/h
345 15-04-2009 20:59:12 18.5 C 4.9 g/m*3 18.5 C 0 km/h
346 15-04-2009 21:11:13 18.2 C 5.28 g/m*3 18.2 C 0 km/h
347 15-04-2009 21:23:12 18 C 5.22 g/m*3 18 C 0 km/h
348 15-04-2009 21:35:12 17.7 C 4.98 g/m*3 17.7 C 0 km/h
349 15-04-2009 21:47:11 17.3 C 5.3 g/m*3 17.3 C 0 km/h
350 15-04-2009 21:59:11 17 C 5.35 g/m*3 17 C 0 km/h
Sensor: Nr:Datum:Temp:Abs-Feuchte:Windchill:Wind:
Aussen-T/F 351 15-04-2009 22:11:12 16.6 C 5.37 g/m*3 16.6 C 0 km/h
352 15-04-2009 22:23:11 16.3 C 5.41 g/m*3 16.3 C 0 km/h
353 15-04-2009 22:35:11 16 C 5.31 g/m*3 16 C 0 km/h
354 15-04-2009 22:48:13 15.8 C 5.38 g/m*3 15.8 C 0 km/h
355 15-04-2009 23:00:13 15.7 C 5.49 g/m*3 15.7 C 0 km/h
356 15-04-2009 23:12:13 15.6 C 5.32 g/m*3 15.6 C 0 km/h
357 15-04-2009 23:24:13 15.2 C 5.32 g/m*3 15.2 C 0 km/h
358 15-04-2009 23:36:13 15.1 C 5.42 g/m*3 15.1 C 0 km/h
359 15-04-2009 23:48:13 14.8 C 5.57 g/m*3 14.8 C 0 km/h
360 16-04-2009 00:00:13 14.3 C 5.53 g/m*3 14.3 C 0 km/h
361 16-04-2009 00:12:14 14.1 C 5.7 g/m*3 14.1 C 0 km/h
362 16-04-2009 00:24:14 13.8 C 6.08 g/m*3 13.8 C 0 km/h
363 16-04-2009 00:36:14 13.6 C 5.88 g/m*3 13.6 C 0 km/h
364 16-04-2009 00:48:14 13.3 C 5.78 g/m*3 13.3 C 0 km/h
365 16-04-2009 01:00:14 13.1 C 5.71 g/m*3 13.1 C 0 km/h
366 16-04-2009 01:12:14 12.9 C 5.86 g/m*3 12.9 C 0 km/h
367 16-04-2009 01:24:14 12.7 C 5.9 g/m*3 12.7 C 0 km/h
368 16-04-2009 01:36:14 12.6 C 5.97 g/m*3 12.6 C 0 km/h
369 16-04-2009 01:48:14 12.6 C 5.97 g/m*3 12.6 C 0 km/h
370 16-04-2009 02:00:14 12.6 C 5.97 g/m*3 12.6 C 0 km/h
371 16-04-2009 02:12:14 12.3 C 5.97 g/m*3 12.3 C 0 km/h
372 16-04-2009 02:24:14 12.2 C 6.04 g/m*3 12.2 C 0 km/h
373 16-04-2009 02:36:14 12 C 6.07 g/m*3 12 C 0 km/h
374 16-04-2009 02:48:14 11.7 C 6.07 g/m*3 11.7 C 0 km/h
375 16-04-2009 03:00:14 11.5 C 6.09 g/m*3 11.5 C 0 km/h
Sensor: Nr:Datum:Temp:Abs-Feuchte:Windchill:Wind:
Aussen-T/F 376 16-04-2009 03:12:14 11.4 C 6.16 g/m*3 11.4 C 0 km/h
377 16-04-2009 03:24:14 11.2 C 6.18 g/m*3 11.2 C 0 km/h
378 16-04-2009 03:36:14 11.1 C 6.14 g/m*3 11.1 C 0 km/h
379 16-04-2009 03:48:14 11.2 C 6.39 g/m*3 11.2 C 0 km/h
380 16-04-2009 04:00:14 11.2 C 6.39 g/m*3 11.2 C 0 km/h
381 16-04-2009 04:12:14 12.6 C 5.97 g/m*3 12.6 C 0 km/h
382 16-04-2009 04:24:15 13 C 5.9 g/m*3 13 C 0 km/h
383 16-04-2009 04:36:15 12.9 C 5.97 g/m*3 12.9 C 0 km/h
384 16-04-2009 04:48:15 12.4 C 6.01 g/m*3 12.4 C 0 km/h
385 16-04-2009 05:00:15 12.1 C 5.9 g/m*3 12.1 C 0 km/h
386 16-04-2009 05:12:15 11.7 C 5.96 g/m*3 11.7 C 0 km/h
387 16-04-2009 05:24:15 11.3 C 5.92 g/m*3 11.3 C 0 km/h
388 16-04-2009 05:36:15 11.2 C 6.08 g/m*3 11.2 C 0 km/h
389 16-04-2009 05:48:15 11.1 C 6.04 g/m*3 11.1 C 0 km/h
390 16-04-2009 06:00:15 11.1 C 6.14 g/m*3 11.1 C 0 km/h
391 16-04-2009 06:12:15 11.1 C 6.25 g/m*3 11.1 C 0 km/h
392 16-04-2009 06:24:15 11.1 C 6.35 g/m*3 11.1 C 0 km/h
393 16-04-2009 06:36:15 11.1 C 6.35 g/m*3 11.1 C 0 km/h
394 16-04-2009 06:48:15 11.1 C 6.25 g/m*3 11.1 C 0 km/h
395 16-04-2009 07:00:15 10.9 C 6.27 g/m*3 10.9 C 0 km/h
396 16-04-2009 07:12:15 10.8 C 6.42 g/m*3 10.8 C 0 km/h
397 16-04-2009 07:24:15 10.7 C 6.38 g/m*3 10.7 C 0 km/h
398 16-04-2009 07:36:13 10.8 C 6.33 g/m*3 10.8 C 0 km/h
399 16-04-2009 07:48:12 10.8 C 6.23 g/m*3 10.8 C 0 km/h
400 16-04-2009 08:00:12 11 C 6.21 g/m*3 11 C 0 km/h
Sensor: Nr:Datum:Temp:Abs-Feuchte:Windchill:Wind:
Aussen-T/F 401 16-04-2009 08:12:12 11 C 6.11 g/m*3 11 C 0 km/h
402 16-04-2009 08:24:12 11.4 C 6.26 g/m*3 11.4 C 0 km/h
403 16-04-2009 08:36:12 12 C 6.18 g/m*3 12 C 0 km/h
404 16-04-2009 08:48:11 12.3 C 6.19 g/m*3 12.3 C 0 km/h
405 16-04-2009 09:00:12 12.6 C 6.31 g/m*3 12.6 C 0 km/h
406 16-04-2009 09:12:12 13 C 6.24 g/m*3 13 C 0 km/h
407 16-04-2009 09:24:12 13.4 C 6.39 g/m*3 13.4 C 0 km/h
408 16-04-2009 09:36:11 13.9 C 6.47 g/m*3 13.9 C 0 km/h
409 16-04-2009 09:48:12 14.5 C 6.59 g/m*3 14.5 C 0 km/h
410 16-04-2009 10:00:11 15 C 6.54 g/m*3 15 C 0 km/h
411 16-04-2009 10:12:11 15.6 C 6.52 g/m*3 15.6 C 0 km/h
412 16-04-2009 10:24:11 16 C 6.4 g/m*3 16 C 0 km/h
413 16-04-2009 10:36:10 16.4 C 6.42 g/m*3 16.4 C 0 km/h
414 16-04-2009 10:48:11 16.7 C 6.54 g/m*3 16.7 C 0 km/h
415 16-04-2009 11:00:10 17.4 C 6.67 g/m*3 17.4 C 0 km/h
416 16-04-2009 11:12:10 17.9 C 6.72 g/m*3 17.9 C 0 km/h
417 16-04-2009 11:24:10 18.3 C 6.41 g/m*3 18.3 C 0 km/h
418 16-04-2009 11:36:11 19.2 C 6.76 g/m*3 19.2 C 0 km/h
419 16-04-2009 11:48:10 19.2 C 6.43 g/m*3 19.2 C 0 km/h
420 16-04-2009 12:00:10 19.2 C 6.6 g/m*3 19.2 C 0 km/h
421 16-04-2009 12:12:10 19.5 C 6.38 g/m*3 19.5 C 0 km/h
422 16-04-2009 12:24:10 19.3 C 6.3 g/m*3 19.3 C 0 km/h
423 16-04-2009 12:36:10 20 C 6.05 g/m*3 20 C 0 km/h
424 16-04-2009 12:48:09 19.7 C 6.11 g/m*3 19.7 C 0 km/h
425 16-04-2009 13:00:09 20.8 C 6.34 g/m*3 20.8 C 0 km/h
Sensor: Nr:Datum:Temp:Abs-Feuchte:Windchill:Wind:
Aussen-T/F 426 16-04-2009 13:12:09 21.3 C 6.15 g/m*3 21.3 C 0 km/h
427 16-04-2009 13:24:09 21.8 C 5.95 g/m*3 21.8 C 0 km/h
428 16-04-2009 13:36:10 21.6 C 5.5 g/m*3 21.6 C 0 km/h
429 16-04-2009 13:48:09 20.2 C 5.6 g/m*3 20.2 C 0 km/h
430 16-04-2009 14:00:09 21.1 C 5.9 g/m*3 21.1 C 0 km/h
431 16-04-2009 14:12:09 20.6 C 5.55 g/m*3 20.6 C 0 km/h
432 16-04-2009 14:24:08 20.6 C 5.55 g/m*3 20.6 C 0 km/h
433 16-04-2009 14:36:08 21.3 C 5.59 g/m*3 21.3 C 0 km/h
434 16-04-2009 14:48:09 21.9 C 5.21 g/m*3 21.9 C 0 km/h
435 16-04-2009 15:00:08 21.6 C 5.31 g/m*3 21.6 C 0 km/h
436 16-04-2009 15:12:08 21.9 C 5.21 g/m*3 21.9 C 0 km/h
437 16-04-2009 15:24:08 21.2 C 5.37 g/m*3 21.2 C 0 km/h
438 16-04-2009 15:36:08 20.9 C 5.65 g/m*3 20.9 C 0 km/h
439 16-04-2009 15:48:08 20 C 6.57 g/m*3 20 C 0 km/h
440 16-04-2009 16:00:07 19.5 C 7.05 g/m*3 19.5 C 0 km/h
441 16-04-2009 16:12:07 19.2 C 6.93 g/m*3 19.2 C 0 km/h
442 16-04-2009 16:24:07 19.1 C 6.88 g/m*3 19.1 C 0 km/h
443 16-04-2009 16:36:08 19 C 6.84 g/m*3 19 C 0 km/h
444 16-04-2009 16:48:07 18.9 C 6.97 g/m*3 18.9 C 0 km/h
445 16-04-2009 17:00:07 18.5 C 7.12 g/m*3 18.5 C 0 km/h
446 16-04-2009 17:12:07 18.1 C 6.95 g/m*3 18.1 C 0 km/h
447 16-04-2009 17:24:07 18.1 C 7.11 g/m*3 18.1 C 0 km/h
448 16-04-2009 17:36:07 17.9 C 7.02 g/m*3 17.9 C 0 km/h
449 16-04-2009 17:48:06 17.8 C 7.13 g/m*3 17.8 C 0 km/h
450 16-04-2009 18:00:07 17.8 C 7.13 g/m*3 17.8 C 0 km/h
Sensor: Nr:Datum:Temp:Abs-Feuchte:Windchill:Wind:
Aussen-T/F 451 16-04-2009 18:12:08 17.2 C 7.32 g/m*3 17.2 C 0 km/h
452 16-04-2009 18:24:06 16.3 C 7.35 g/m*3 16.3 C 0 km/h
453 16-04-2009 18:36:06 15.7 C 7.89 g/m*3 15.7 C 0 km/h
454 16-04-2009 18:48:06 15.3 C 8.1 g/m*3 15.3 C 0 km/h
455 16-04-2009 19:00:06 15.1 C 7.87 g/m*3 15.1 C 0 km/h
456 16-04-2009 19:12:06 15.2 C 7.79 g/m*3 15.2 C 0 km/h
457 16-04-2009 19:24:06 14.5 C 7.71 g/m*3 14.5 C 0 km/h
458 16-04-2009 19:36:05 14.3 C 7.74 g/m*3 14.3 C 0 km/h
459 16-04-2009 19:48:06 14.1 C 7.89 g/m*3 14.1 C 0 km/h
460 16-04-2009 20:00:05 13.8 C 8.1 g/m*3 13.8 C 0 km/h
461 16-04-2009 20:12:05 13.4 C 8.02 g/m*3 13.4 C 0 km/h
462 16-04-2009 20:24:05 13.1 C 7.99 g/m*3 13.1 C 0 km/h
463 16-04-2009 20:36:05 13.3 C 8.09 g/m*3 13.3 C 0 km/h
464 16-04-2009 20:48:05 13.2 C 8.04 g/m*3 13.2 C 0 km/h
465 16-04-2009 21:00:05 13.1 C 7.99 g/m*3 13.1 C 0 km/h
466 16-04-2009 21:12:05 13 C 8.05 g/m*3 13 C 0 km/h
467 16-04-2009 21:24:04 12.9 C 8.11 g/m*3 12.9 C 0 km/h
468 16-04-2009 21:36:05 13 C 8.05 g/m*3 13 C 0 km/h
469 16-04-2009 21:48:04 13.2 C 7.92 g/m*3 13.2 C 0 km/h
470 16-04-2009 22:00:04 13.2 C 7.92 g/m*3 13.2 C 0 km/h
471 16-04-2009 22:12:04 13.1 C 7.87 g/m*3 13.1 C 0 km/h
472 16-04-2009 22:24:03 13.1 C 7.87 g/m*3 13.1 C 0 km/h
473 16-04-2009 22:37:05 13.1 C 7.87 g/m*3 13.1 C 0 km/h
474 16-04-2009 22:49:05 13.1 C 7.87 g/m*3 13.1 C 0 km/h
475 16-04-2009 23:01:06 12.9 C 7.78 g/m*3 12.9 C 0 km/h
Sensor: Nr:Datum:Temp:Abs-Feuchte:Windchill:Wind:
Aussen-T/F 476 16-04-2009 23:13:06 12.8 C 7.84 g/m*3 12.8 C 0 km/h
477 16-04-2009 23:25:06 12.8 C 7.84 g/m*3 12.8 C 0 km/h
478 16-04-2009 23:37:06 12.7 C 7.79 g/m*3 12.7 C 0 km/h
479 16-04-2009 23:49:06 12.6 C 7.74 g/m*3 12.6 C 0 km/h
480 17-04-2009 00:01:06 12.5 C 7.7 g/m*3 12.5 C 0 km/h
481 17-04-2009 00:13:06 12.4 C 7.87 g/m*3 12.4 C 0 km/h
482 17-04-2009 00:25:06 12.1 C 7.94 g/m*3 12.1 C 0 km/h
483 17-04-2009 00:37:06 11.7 C 8.26 g/m*3 11.7 C 0 km/h
484 17-04-2009 00:49:06 11.2 C 8.41 g/m*3 11.2 C 0 km/h
485 17-04-2009 01:01:06 11 C 8.61 g/m*3 11 C 0 km/h
486 17-04-2009 01:13:06 11 C 8.71 g/m*3 11 C 0 km/h
487 17-04-2009 01:25:06 10.8 C 8.8 g/m*3 10.8 C 0 km/h
488 17-04-2009 01:37:06 10.7 C 8.84 g/m*3 10.7 C 0 km/h
489 17-04-2009 01:49:06 10.6 C 8.78 g/m*3 10.6 C 0 km/h
490 17-04-2009 02:01:06 10.5 C 8.83 g/m*3 10.5 C 0 km/h
491 17-04-2009 02:13:06 10.5 C 8.83 g/m*3 10.5 C 0 km/h
492 17-04-2009 02:25:06 10.4 C 8.87 g/m*3 10.4 C 0 km/h
493 17-04-2009 02:37:06 10.4 C 8.87 g/m*3 10.4 C 0 km/h
494 17-04-2009 02:49:06 10.3 C 8.81 g/m*3 10.3 C 0 km/h
495 17-04-2009 03:01:06 10.3 C 8.91 g/m*3 10.3 C 0 km/h
496 17-04-2009 03:13:07 10.3 C 8.91 g/m*3 10.3 C 0 km/h
497 17-04-2009 03:25:07 10.2 C 8.85 g/m*3 10.2 C 0 km/h
498 17-04-2009 03:37:07 10.2 C 8.85 g/m*3 10.2 C 0 km/h
499 17-04-2009 03:49:07 10.2 C 8.85 g/m*3 10.2 C 0 km/h
500 17-04-2009 04:01:07 10.2 C 8.95 g/m*3 10.2 C 0 km/h
Sensor: Nr:Datum:Temp:Abs-Feuchte:Windchill:Wind:
Aussen-T/F 501 17-04-2009 04:13:07 10.2 C 8.95 g/m*3 10.2 C 0 km/h
502 17-04-2009 04:25:07 10.2 C 8.95 g/m*3 10.2 C 0 km/h
503 17-04-2009 04:37:07 10.1 C 8.89 g/m*3 10.1 C 0 km/h
504 17-04-2009 04:49:07 10.1 C 8.89 g/m*3 10.1 C 0 km/h
505 17-04-2009 05:01:07 10 C 8.83 g/m*3 10 C 0 km/h
506 17-04-2009 05:13:07 10 C 8.83 g/m*3 10 C 0 km/h
507 17-04-2009 05:25:07 10 C 8.83 g/m*3 10 C 0 km/h
508 17-04-2009 05:37:07 10 C 8.93 g/m*3 10 C 0 km/h
509 17-04-2009 05:49:07 9.9 C 8.87 g/m*3 9.9 C 0 km/h
510 17-04-2009 06:01:07 9.9 C 8.87 g/m*3 9.9 C 0 km/h
511 17-04-2009 06:13:07 9.9 C 8.87 g/m*3 9.9 C 0 km/h
512 17-04-2009 06:25:07 9.9 C 8.87 g/m*3 9.9 C 0 km/h
513 17-04-2009 06:37:07 9.8 C 8.81 g/m*3 9.8 C 0 km/h
514 17-04-2009 06:49:07 9.9 C 8.87 g/m*3 9.9 C 0 km/h
515 17-04-2009 07:01:04 9.8 C 8.81 g/m*3 9.8 C 0 km/h
516 17-04-2009 07:13:04 9.8 C 8.81 g/m*3 9.8 C 0 km/h
517 17-04-2009 07:25:04 9.8 C 8.81 g/m*3 9.8 C 0 km/h
518 17-04-2009 07:37:05 9.8 C 8.81 g/m*3 9.8 C 0 km/h
519 17-04-2009 07:49:04 9.8 C 8.81 g/m*3 9.8 C 0 km/h
520 17-04-2009 08:01:04 9.9 C 8.87 g/m*3 9.9 C 0 km/h
521 17-04-2009 08:13:04 9.9 C 8.87 g/m*3 9.9 C 0 km/h
522 17-04-2009 08:25:04 9.9 C 8.87 g/m*3 9.9 C 0 km/h
523 17-04-2009 08:37:04 10 C 8.93 g/m*3 10 C 0 km/h
524 17-04-2009 08:49:03 10 C 8.93 g/m*3 10 C 0 km/h
525 17-04-2009 09:01:04 10 C 8.93 g/m*3 10 C 0 km/h
Sensor: Nr:Datum:Temp:Abs-Feuchte:Windchill:Wind:
Aussen-T/F 526 17-04-2009 09:13:04 10 C 8.93 g/m*3 10 C 0 km/h
527 17-04-2009 09:25:03 10.1 C 8.89 g/m*3 10.1 C 0 km/h
528 17-04-2009 09:37:03 10.2 C 8.95 g/m*3 10.2 C 0 km/h
529 17-04-2009 09:49:03 10.2 C 8.95 g/m*3 10.2 C 0 km/h
530 17-04-2009 10:01:03 10.2 C 8.95 g/m*3 10.2 C 0 km/h
531 17-04-2009 10:13:03 10.3 C 9 g/m*3 10.3 C 0 km/h
532 17-04-2009 10:25:02 10.2 C 8.85 g/m*3 10.2 C 0 km/h
533 17-04-2009 10:37:02 10.2 C 8.85 g/m*3 10.2 C 0 km/h
534 17-04-2009 10:49:03 10.2 C 8.76 g/m*3 10.2 C 0 km/h
535 17-04-2009 11:01:02 10.2 C 8.76 g/m*3 10.2 C 0 km/h
536 17-04-2009 11:13:02 10.2 C 8.66 g/m*3 10.2 C 0 km/h
537 17-04-2009 11:25:02 10.2 C 8.56 g/m*3 10.2 C 0 km/h
538 17-04-2009 11:37:02 10.2 C 8.56 g/m*3 10.2 C 0 km/h
539 17-04-2009 11:49:02 10.2 C 8.47 g/m*3 10.2 C 0 km/h
540 17-04-2009 12:01:01 10.1 C 8.42 g/m*3 10.1 C 0 km/h
541 17-04-2009 12:13:01 10.2 C 8.47 g/m*3 10.2 C 0 km/h
542 17-04-2009 12:25:02 10.1 C 8.32 g/m*3 10.1 C 0 km/h
543 17-04-2009 12:37:01 10.1 C 8.32 g/m*3 10.1 C 0 km/h
544 17-04-2009 12:49:01 10 C 8.27 g/m*3 10 C 0 km/h
545 17-04-2009 13:01:01 10 C 8.36 g/m*3 10 C 0 km/h
546 17-04-2009 13:13:01 10 C 8.36 g/m*3 10 C 0 km/h
547 17-04-2009 13:25:01 10.3 C 8.52 g/m*3 10.3 C 0 km/h
548 17-04-2009 13:37:01 10.3 C 8.52 g/m*3 10.3 C 0 km/h
549 17-04-2009 13:49:01 10.4 C 8.58 g/m*3 10.4 C 0 km/h
550 17-04-2009 14:01:01 10.4 C 8.58 g/m*3 10.4 C 0 km/h
Sensor: Nr:Datum:Temp:Abs-Feuchte:Windchill:Wind:
Aussen-T/F 551 17-04-2009 14:13:01 10.5 C 8.63 g/m*3 10.5 C 0 km/h
552 17-04-2009 14:25:00 10.7 C 8.74 g/m*3 10.7 C 0 km/h
553 17-04-2009 14:37:00 10.5 C 8.63 g/m*3 10.5 C 0 km/h
554 17-04-2009 14:49:00 10.6 C 8.69 g/m*3 10.6 C 0 km/h
555 17-04-2009 15:01:00 10.5 C 8.63 g/m*3 10.5 C 0 km/h
556 17-04-2009 15:13:00 10.4 C 8.58 g/m*3 10.4 C 0 km/h
557 17-04-2009 15:25:59 10.2 C 8.56 g/m*3 10.2 C 0 km/h
558 17-04-2009 15:37:00 10 C 8.46 g/m*3 10 C 0 km/h
559 17-04-2009 15:49:00 9.9 C 8.5 g/m*3 9.9 C 0 km/h
560 17-04-2009 16:01:59 9.9 C 8.5 g/m*3 9.9 C 0 km/h
561 17-04-2009 16:12:59 9.8 C 8.54 g/m*3 9.8 C 0 km/h
562 17-04-2009 16:24:59 9.7 C 8.48 g/m*3 9.7 C 0 km/h
563 17-04-2009 16:37:59 9.6 C 8.43 g/m*3 9.6 C 0 km/h
564 17-04-2009 16:49:59 9.6 C 8.43 g/m*3 9.6 C 0 km/h
565 17-04-2009 17:01:58 9.6 C 8.52 g/m*3 9.6 C 0 km/h
566 17-04-2009 17:13:59 9.6 C 8.52 g/m*3 9.6 C 0 km/h
567 17-04-2009 17:25:59 9.5 C 8.47 g/m*3 9.5 C 0 km/h
568 17-04-2009 17:37:58 9.5 C 8.47 g/m*3 9.5 C 0 km/h
569 17-04-2009 17:49:58 9.5 C 8.47 g/m*3 9.5 C 0 km/h
570 17-04-2009 18:01:59 9.5 C 8.47 g/m*3 9.5 C 0 km/h
571 17-04-2009 18:13:58 9.6 C 8.61 g/m*3 9.6 C 0 km/h
572 17-04-2009 18:25:58 9.5 C 8.56 g/m*3 9.5 C 0 km/h
573 17-04-2009 18:37:58 9.5 C 8.56 g/m*3 9.5 C 0 km/h
574 17-04-2009 18:49:58 9.5 C 8.56 g/m*3 9.5 C 0 km/h
575 17-04-2009 19:01:58 9.5 C 8.56 g/m*3 9.5 C 0 km/h
Sensor: Nr:Datum:Temp:Abs-Feuchte:Windchill:Wind:
Aussen-T/F 576 17-04-2009 19:13:57 9.6 C 8.61 g/m*3 9.6 C 0 km/h
577 17-04-2009 19:25:57 9.5 C 8.56 g/m*3 9.5 C 0 km/h
578 17-04-2009 19:37:57 9.5 C 8.56 g/m*3 9.5 C 0 km/h
579 17-04-2009 19:49:57 9.5 C 8.56 g/m*3 9.5 C 0 km/h
580 17-04-2009 20:01:57 9.6 C 8.7 g/m*3 9.6 C 0 km/h
581 17-04-2009 20:13:57 9.6 C 8.7 g/m*3 9.6 C 0 km/h
582 17-04-2009 20:25:57 9.7 C 8.76 g/m*3 9.7 C 0 km/h
583 17-04-2009 20:37:57 9.7 C 8.76 g/m*3 9.7 C 0 km/h
584 17-04-2009 20:49:57 9.8 C 8.81 g/m*3 9.8 C 0 km/h
585 17-04-2009 21:01:57 9.8 C 8.81 g/m*3 9.8 C 0 km/h
586 17-04-2009 21:13:56 9.8 C 8.81 g/m*3 9.8 C 0 km/h
587 17-04-2009 21:25:56 9.8 C 8.81 g/m*3 9.8 C 0 km/h
588 17-04-2009 21:37:56 9.9 C 8.87 g/m*3 9.9 C 0 km/h
589 17-04-2009 21:49:56 9.9 C 8.87 g/m*3 9.9 C 0 km/h
590 17-04-2009 22:01:56 9.9 C 8.87 g/m*3 9.9 C 0 km/h
591 17-04-2009 22:13:56 9.9 C 8.87 g/m*3 9.9 C 0 km/h
592 17-04-2009 22:25:56 9.9 C 8.87 g/m*3 9.9 C 0 km/h
593 17-04-2009 22:38:55 9.8 C 8.81 g/m*3 9.8 C 0 km/h
594 17-04-2009 22:50:55 9.8 C 8.81 g/m*3 9.8 C 0 km/h
595 17-04-2009 23:02:55 9.7 C 8.76 g/m*3 9.7 C 0 km/h
596 17-04-2009 23:14:55 9.6 C 8.7 g/m*3 9.6 C 0 km/h
597 17-04-2009 23:26:55 9.5 C 8.65 g/m*3 9.5 C 0 km/h
598 17-04-2009 23:38:56 9.4 C 8.59 g/m*3 9.4 C 0 km/h
599 17-04-2009 23:50:56 9.4 C 8.59 g/m*3 9.4 C 0 km/h
600 18-04-2009 00:02:56 9.4 C 8.59 g/m*3 9.4 C 0 km/h
Sensor: Nr:Datum:Temp:Abs-Feuchte:Windchill:Wind:
Aussen-T/F 601 18-04-2009 00:14:56 9.4 C 8.59 g/m*3 9.4 C 0 km/h
602 18-04-2009 00:26:56 9.4 C 8.59 g/m*3 9.4 C 0 km/h
603 18-04-2009 00:38:56 9.4 C 8.59 g/m*3 9.4 C 0 km/h
604 18-04-2009 00:50:56 9.4 C 8.59 g/m*3 9.4 C 0 km/h
605 18-04-2009 01:02:56 9.4 C 8.59 g/m*3 9.4 C 0 km/h
606 18-04-2009 01:14:56 9.4 C 8.59 g/m*3 9.4 C 0 km/h
607 18-04-2009 01:26:56 9.4 C 8.59 g/m*3 9.4 C 0 km/h
608 18-04-2009 01:38:56 9.4 C 8.59 g/m*3 9.4 C 0 km/h
609 18-04-2009 01:50:56 9.4 C 8.59 g/m*3 9.4 C 0 km/h
610 18-04-2009 02:02:56 9.4 C 8.59 g/m*3 9.4 C 0 km/h
611 18-04-2009 02:14:56 9.4 C 8.59 g/m*3 9.4 C 0 km/h
612 18-04-2009 02:26:56 9.5 C 8.65 g/m*3 9.5 C 0 km/h
613 18-04-2009 02:38:56 9.5 C 8.65 g/m*3 9.5 C 0 km/h
614 18-04-2009 02:50:56 9.5 C 8.65 g/m*3 9.5 C 0 km/h
615 18-04-2009 03:02:56 9.5 C 8.65 g/m*3 9.5 C 0 km/h
616 18-04-2009 03:14:56 9.5 C 8.65 g/m*3 9.5 C 0 km/h
617 18-04-2009 03:26:56 9.4 C 8.59 g/m*3 9.4 C 0 km/h
618 18-04-2009 03:38:56 9.5 C 8.65 g/m*3 9.5 C 0 km/h
619 18-04-2009 03:50:57 9.4 C 8.59 g/m*3 9.4 C 0 km/h
620 18-04-2009 04:02:57 9.5 C 8.65 g/m*3 9.5 C 0 km/h
621 18-04-2009 04:14:57 9.6 C 8.7 g/m*3 9.6 C 0 km/h
622 18-04-2009 04:26:57 9.5 C 8.65 g/m*3 9.5 C 0 km/h
623 18-04-2009 04:38:57 9.6 C 8.7 g/m*3 9.6 C 0 km/h
624 18-04-2009 04:50:57 9.5 C 8.65 g/m*3 9.5 C 0 km/h
625 18-04-2009 05:02:57 9.5 C 8.65 g/m*3 9.5 C 0 km/h
Sensor: Nr:Datum:Temp:Abs-Feuchte:Windchill:Wind:
Aussen-T/F 626 18-04-2009 05:14:57 9.5 C 8.65 g/m*3 9.5 C 0 km/h
627 18-04-2009 05:26:57 9.5 C 8.65 g/m*3 9.5 C 0 km/h
628 18-04-2009 05:38:57 9.4 C 8.59 g/m*3 9.4 C 0 km/h
629 18-04-2009 05:50:57 9.4 C 8.59 g/m*3 9.4 C 0 km/h
630 18-04-2009 06:02:57 9.3 C 8.54 g/m*3 9.3 C 0 km/h
631 18-04-2009 06:14:57 9.4 C 8.59 g/m*3 9.4 C 0 km/h
632 18-04-2009 06:26:57 9.4 C 8.59 g/m*3 9.4 C 0 km/h
633 18-04-2009 06:38:57 9.4 C 8.59 g/m*3 9.4 C 0 km/h
634 18-04-2009 06:50:57 9.5 C 8.65 g/m*3 9.5 C 0 km/h
635 18-04-2009 07:02:57 9.5 C 8.65 g/m*3 9.5 C 0 km/h
636 18-04-2009 07:14:57 9.5 C 8.65 g/m*3 9.5 C 0 km/h
637 18-04-2009 07:26:57 9.6 C 8.7 g/m*3 9.6 C 0 km/h
638 18-04-2009 07:38:57 9.6 C 8.7 g/m*3 9.6 C 0 km/h
639 18-04-2009 07:50:58 9.6 C 8.7 g/m*3 9.6 C 0 km/h
640 18-04-2009 08:02:58 9.7 C 8.76 g/m*3 9.7 C 0 km/h
641 18-04-2009 08:14:58 9.7 C 8.76 g/m*3 9.7 C 0 km/h
642 18-04-2009 08:26:58 9.8 C 8.81 g/m*3 9.8 C 0 km/h
643 18-04-2009 08:38:56 9.9 C 8.87 g/m*3 9.9 C 0 km/h
644 18-04-2009 08:50:55 10 C 8.93 g/m*3 10 C 0 km/h
645 18-04-2009 09:02:55 10.1 C 8.98 g/m*3 10.1 C 0 km/h
646 18-04-2009 09:14:54 10 C 8.93 g/m*3 10 C 0 km/h
647 18-04-2009 09:26:54 10.1 C 8.98 g/m*3 10.1 C 0 km/h
648 18-04-2009 09:38:55 10 C 8.93 g/m*3 10 C 0 km/h
649 18-04-2009 09:50:54 9.8 C 8.81 g/m*3 9.8 C 0 km/h
650 18-04-2009 10:02:54 9.8 C 8.81 g/m*3 9.8 C 0 km/h
Sensor: Nr:Datum:Temp:Abs-Feuchte:Windchill:Wind:
Aussen-T/F 651 18-04-2009 10:14:54 9.7 C 8.76 g/m*3 9.7 C 0 km/h
652 18-04-2009 10:26:54 9.7 C 8.76 g/m*3 9.7 C 0 km/h
653 18-04-2009 10:38:54 9.8 C 8.72 g/m*3 9.8 C 0 km/h
654 18-04-2009 10:50:53 9.8 C 8.72 g/m*3 9.8 C 0 km/h
655 18-04-2009 11:02:54 9.6 C 8.61 g/m*3 9.6 C 0 km/h
656 18-04-2009 11:14:54 9.5 C 8.56 g/m*3 9.5 C 0 km/h
657 18-04-2009 11:26:54 9.8 C 8.72 g/m*3 9.8 C 0 km/h
658 18-04-2009 11:38:53 9.6 C 8.52 g/m*3 9.6 C 0 km/h
659 18-04-2009 11:50:54 9.6 C 8.52 g/m*3 9.6 C 0 km/h
660 18-04-2009 12:02:53 9.7 C 8.48 g/m*3 9.7 C 0 km/h
661 18-04-2009 12:14:53 9.6 C 8.43 g/m*3 9.6 C 0 km/h
662 18-04-2009 12:26:54 9.7 C 8.48 g/m*3 9.7 C 0 km/h
663 18-04-2009 12:38:52 9.8 C 8.63 g/m*3 9.8 C 0 km/h
664 18-04-2009 12:50:53 9.7 C 8.48 g/m*3 9.7 C 0 km/h
665 18-04-2009 13:02:52 9.8 C 8.63 g/m*3 9.8 C 0 km/h
666 18-04-2009 13:14:52 9.8 C 8.63 g/m*3 9.8 C 0 km/h
667 18-04-2009 13:26:52 9.6 C 8.52 g/m*3 9.6 C 0 km/h
668 18-04-2009 13:38:53 9.5 C 8.37 g/m*3 9.5 C 0 km/h
669 18-04-2009 13:50:52 9.6 C 8.52 g/m*3 9.6 C 0 km/h
670 18-04-2009 14:02:52 9.5 C 8.47 g/m*3 9.5 C 0 km/h
671 18-04-2009 14:14:52 9.4 C 8.41 g/m*3 9.4 C 0 km/h
672 18-04-2009 14:26:52 9.5 C 8.37 g/m*3 9.5 C 0 km/h
673 18-04-2009 14:38:52 9.5 C 8.19 g/m*3 9.5 C 0 km/h
674 18-04-2009 14:50:51 9.4 C 8.05 g/m*3 9.4 C 0 km/h
675 18-04-2009 15:02:52 9.5 C 8.1 g/m*3 9.5 C 0 km/h
Sensor: Nr:Datum:Temp:Abs-Feuchte:Windchill:Wind:
Aussen-T/F 676 18-04-2009 15:14:51 9.7 C 8.3 g/m*3 9.7 C 0 km/h
677 18-04-2009 15:26:51 9.8 C 8.35 g/m*3 9.8 C 0 km/h
678 18-04-2009 15:38:51 9.8 C 8.44 g/m*3 9.8 C 0 km/h
679 18-04-2009 15:50:51 9.8 C 8.44 g/m*3 9.8 C 0 km/h
680 18-04-2009 16:02:51 9.8 C 8.44 g/m*3 9.8 C 0 km/h
681 18-04-2009 16:14:51 10.1 C 8.51 g/m*3 10.1 C 0 km/h
682 18-04-2009 16:26:51 10.7 C 8.94 g/m*3 10.7 C 0 km/h
683 18-04-2009 16:38:50 11.1 C 9.07 g/m*3 11.1 C 0 km/h
684 18-04-2009 16:50:51 11.3 C 9.08 g/m*3 11.3 C 0 km/h
685 18-04-2009 17:02:50 11.4 C 9.03 g/m*3 11.4 C 0 km/h
686 18-04-2009 17:14:50 11.5 C 8.99 g/m*3 11.5 C 0 km/h
687 18-04-2009 17:26:50 11.6 C 9.04 g/m*3 11.6 C 0 km/h
688 18-04-2009 17:38:50 11.7 C 8.89 g/m*3 11.7 C 0 km/h
689 18-04-2009 17:50:50 11.5 C 8.57 g/m*3 11.5 C 0 km/h
690 18-04-2009 18:02:49 11.6 C 8.63 g/m*3 11.6 C 0 km/h
691 18-04-2009 18:14:50 11.3 C 8.47 g/m*3 11.3 C 0 km/h
692 18-04-2009 18:26:50 11.2 C 8.51 g/m*3 11.2 C 0 km/h
693 18-04-2009 18:38:50 11.1 C 8.56 g/m*3 11.1 C 0 km/h
694 18-04-2009 18:50:49 11.1 C 8.56 g/m*3 11.1 C 0 km/h
695 18-04-2009 19:02:50 11 C 8.61 g/m*3 11 C 0 km/h
696 18-04-2009 19:14:49 10.8 C 8.6 g/m*3 10.8 C 0 km/h
697 18-04-2009 19:26:49 10.6 C 8.49 g/m*3 10.6 C 0 km/h
698 18-04-2009 19:38:49 10.4 C 8.38 g/m*3 10.4 C 0 km/h
699 18-04-2009 19:50:49 10.2 C 8.28 g/m*3 10.2 C 0 km/h
700 18-04-2009 20:02:49 10.1 C 8.23 g/m*3 10.1 C 0 km/h
Sensor: Nr:Datum:Temp:Abs-Feuchte:Windchill:Wind:
Aussen-T/F 701 18-04-2009 20:14:48 10.1 C 8.13 g/m*3 10.1 C 0 km/h
702 18-04-2009 20:26:48 10.1 C 8.04 g/m*3 10.1 C 0 km/h
703 18-04-2009 20:38:48 9.9 C 8.12 g/m*3 9.9 C 0 km/h
704 18-04-2009 20:50:48 9.9 C 8.12 g/m*3 9.9 C 0 km/h
705 18-04-2009 21:02:48 9.8 C 8.07 g/m*3 9.8 C 0 km/h
706 18-04-2009 21:14:48 9.8 C 7.98 g/m*3 9.8 C 0 km/h
707 18-04-2009 21:26:48 9.8 C 7.98 g/m*3 9.8 C 0 km/h
708 18-04-2009 21:38:47 9.7 C 7.93 g/m*3 9.7 C 0 km/h
709 18-04-2009 21:50:48 9.8 C 8.07 g/m*3 9.8 C 0 km/h
710 18-04-2009 22:02:47 9.7 C 8.02 g/m*3 9.7 C 0 km/h
711 18-04-2009 22:14:47 9.6 C 8.06 g/m*3 9.6 C 0 km/h
712 18-04-2009 22:26:47 9.6 C 8.06 g/m*3 9.6 C 0 km/h
713 18-04-2009 22:38:48 9.6 C 8.06 g/m*3 9.6 C 0 km/h
714 18-04-2009 22:50:47 9.6 C 8.15 g/m*3 9.6 C 0 km/h
715 18-04-2009 23:03:49 9.6 C 8.15 g/m*3 9.6 C 0 km/h
716 18-04-2009 23:15:49 9.5 C 8.1 g/m*3 9.5 C 0 km/h
717 18-04-2009 23:27:49 9.3 C 8 g/m*3 9.3 C 0 km/h
718 18-04-2009 23:39:50 9.1 C 7.9 g/m*3 9.1 C 0 km/h
719 18-04-2009 23:51:50 9.1 C 7.99 g/m*3 9.1 C 0 km/h
720 19-04-2009 00:03:50 9.2 C 8.13 g/m*3 9.2 C 0 km/h
721 19-04-2009 00:15:50 9.4 C 8.23 g/m*3 9.4 C 0 km/h
722 19-04-2009 00:27:50 9.4 C 8.23 g/m*3 9.4 C 0 km/h
723 19-04-2009 00:39:50 9.5 C 8.19 g/m*3 9.5 C 0 km/h
724 19-04-2009 00:51:50 9.5 C 8.19 g/m*3 9.5 C 0 km/h
725 19-04-2009 01:03:50 9.6 C 8.15 g/m*3 9.6 C 0 km/h
Sensor: Nr:Datum:Temp:Abs-Feuchte:Windchill:Wind:
Aussen-T/F 726 19-04-2009 01:15:50 9.6 C 8.15 g/m*3 9.6 C 0 km/h
727 19-04-2009 01:27:50 9.6 C 8.15 g/m*3 9.6 C 0 km/h
728 19-04-2009 01:39:50 9.6 C 8.15 g/m*3 9.6 C 0 km/h
729 19-04-2009 01:51:50 9.6 C 8.15 g/m*3 9.6 C 0 km/h
730 19-04-2009 02:03:50 9.6 C 8.15 g/m*3 9.6 C 0 km/h
731 19-04-2009 02:15:50 9.7 C 8.2 g/m*3 9.7 C 0 km/h
732 19-04-2009 02:27:50 9.8 C 8.26 g/m*3 9.8 C 0 km/h
733 19-04-2009 02:39:50 9.8 C 8.26 g/m*3 9.8 C 0 km/h
734 19-04-2009 02:51:50 9.9 C 8.22 g/m*3 9.9 C 0 km/h
735 19-04-2009 03:03:50 9.9 C 8.22 g/m*3 9.9 C 0 km/h
736 19-04-2009 03:15:50 9.8 C 8.16 g/m*3 9.8 C 0 km/h
737 19-04-2009 03:27:51 9.8 C 8.16 g/m*3 9.8 C 0 km/h
738 19-04-2009 03:39:51 9.8 C 8.16 g/m*3 9.8 C 0 km/h
739 19-04-2009 03:51:51 9.8 C 8.16 g/m*3 9.8 C 0 km/h
740 19-04-2009 04:03:51 9.7 C 8.11 g/m*3 9.7 C 0 km/h
741 19-04-2009 04:15:51 9.4 C 7.96 g/m*3 9.4 C 0 km/h
742 19-04-2009 04:27:51 9.4 C 8.05 g/m*3 9.4 C 0 km/h
743 19-04-2009 04:39:51 9.3 C 8 g/m*3 9.3 C 0 km/h
744 19-04-2009 04:51:51 9.3 C 8 g/m*3 9.3 C 0 km/h
745 19-04-2009 05:03:51 9.3 C 8.09 g/m*3 9.3 C 0 km/h
746 19-04-2009 05:15:51 9.3 C 8.09 g/m*3 9.3 C 0 km/h
747 19-04-2009 05:27:51 9.4 C 8.05 g/m*3 9.4 C 0 km/h
748 19-04-2009 05:39:51 9.4 C 8.05 g/m*3 9.4 C 0 km/h
749 19-04-2009 05:51:51 9.3 C 8 g/m*3 9.3 C 0 km/h
750 19-04-2009 06:03:51 9.3 C 7.91 g/m*3 9.3 C 0 km/h
Sensor: Nr:Datum:Temp:Abs-Feuchte:Windchill:Wind:
Aussen-T/F 751 19-04-2009 06:15:51 9.3 C 7.91 g/m*3 9.3 C 0 km/h
752 19-04-2009 06:27:51 9.3 C 7.91 g/m*3 9.3 C 0 km/h
753 19-04-2009 06:39:51 9.3 C 7.91 g/m*3 9.3 C 0 km/h
754 19-04-2009 06:51:51 9.3 C 7.91 g/m*3 9.3 C 0 km/h
755 19-04-2009 07:03:51 9.3 C 7.91 g/m*3 9.3 C 0 km/h
756 19-04-2009 07:15:52 9.5 C 8.01 g/m*3 9.5 C 0 km/h
757 19-04-2009 07:27:52 9.6 C 8.06 g/m*3 9.6 C 0 km/h
758 19-04-2009 07:39:52 9.8 C 8.16 g/m*3 9.8 C 0 km/h
759 19-04-2009 07:51:52 10 C 8.08 g/m*3 10 C 0 km/h
760 19-04-2009 08:03:52 10.1 C 8.13 g/m*3 10.1 C 0 km/h
761 19-04-2009 08:15:52 9.8 C 7.98 g/m*3 9.8 C 0 km/h
762 19-04-2009 08:27:52 9.7 C 7.93 g/m*3 9.7 C 0 km/h
763 19-04-2009 08:39:48 9.8 C 7.98 g/m*3 9.8 C 0 km/h
764 19-04-2009 08:51:47 10.5 C 8.15 g/m*3 10.5 C 0 km/h
765 19-04-2009 09:03:48 11 C 8.01 g/m*3 11 C 0 km/h
766 19-04-2009 09:15:47 11.1 C 7.66 g/m*3 11.1 C 0 km/h
767 19-04-2009 09:27:47 11.2 C 7.5 g/m*3 11.2 C 0 km/h
768 19-04-2009 09:39:47 11.6 C 7.59 g/m*3 11.6 C 0 km/h
769 19-04-2009 09:51:47 11.9 C 7.31 g/m*3 11.9 C 0 km/h
770 19-04-2009 10:03:47 12.4 C 7.21 g/m*3 12.4 C 0 km/h
771 19-04-2009 10:15:47 12.9 C 7.21 g/m*3 12.9 C 0 km/h
772 19-04-2009 10:27:47 12.7 C 7.24 g/m*3 12.7 C 0 km/h
773 19-04-2009 10:39:46 13 C 6.92 g/m*3 13 C 0 km/h
774 19-04-2009 10:51:47 13.6 C 7.18 g/m*3 13.6 C 0 km/h
775 19-04-2009 11:03:46 14.3 C 6.88 g/m*3 14.3 C 0 km/h
Sensor: Nr:Datum:Temp:Abs-Feuchte:Windchill:Wind:
Aussen-T/F 776 19-04-2009 11:15:46 14.6 C 6.51 g/m*3 14.6 C 0 km/h
777 19-04-2009 11:27:46 15.1 C 6.71 g/m*3 15.1 C 0 km/h
778 19-04-2009 11:39:46 15.1 C 6.32 g/m*3 15.1 C 0 km/h
779 19-04-2009 11:51:46 15.5 C 6.48 g/m*3 15.5 C 0 km/h
780 19-04-2009 12:03:45 16 C 6.54 g/m*3 16 C 0 km/h
781 19-04-2009 12:15:46 16 C 6.27 g/m*3 16 C 0 km/h
782 19-04-2009 12:27:46 17.1 C 6.55 g/m*3 17.1 C 0 km/h
783 19-04-2009 12:39:46 17 C 6.08 g/m*3 17 C 0 km/h
784 19-04-2009 12:51:45 16 C 6.54 g/m*3 16 C 0 km/h
785 19-04-2009 13:03:46 15.9 C 6.23 g/m*3 15.9 C 0 km/h
786 19-04-2009 13:15:45 16 C 6.13 g/m*3 16 C 0 km/h
787 19-04-2009 13:27:45 16.9 C 6.76 g/m*3 16.9 C 0 km/h
788 19-04-2009 13:39:45 16.9 C 6.76 g/m*3 16.9 C 0 km/h
789 19-04-2009 13:51:45 17.1 C 6.26 g/m*3 17.1 C 0 km/h
790 19-04-2009 14:03:45 17.5 C 6.41 g/m*3 17.5 C 0 km/h
791 19-04-2009 14:15:44 18.7 C 6.24 g/m*3 18.7 C 0 km/h
792 19-04-2009 14:27:44 19.1 C 5.74 g/m*3 19.1 C 0 km/h
793 19-04-2009 14:39:44 19.9 C 6.01 g/m*3 19.9 C 0 km/h
794 19-04-2009 14:51:44 21 C 5.31 g/m*3 21 C 0 km/h
795 19-04-2009 15:03:44 20.9 C 5.46 g/m*3 20.9 C 0 km/h
796 19-04-2009 15:15:43 21.1 C 5.53 g/m*3 21.1 C 0 km/h
797 19-04-2009 15:27:43 22.1 C 5.08 g/m*3 22.1 C 0 km/h
798 19-04-2009 15:39:44 21.2 C 5.74 g/m*3 21.2 C 0 km/h
799 19-04-2009 15:51:43 22.3 C 5.13 g/m*3 22.3 C 0 km/h
800 19-04-2009 16:03:43 23.3 C 4.81 g/m*3 23.3 C 0 km/h
Sensor: Nr:Datum:Temp:Abs-Feuchte:Windchill:Wind:
Aussen-T/F 801 19-04-2009 16:15:44 23.9 C 4.76 g/m*3 23.9 C 0 km/h
802 19-04-2009 16:27:44 25.2 C 4.89 g/m*3 25.2 C 0 km/h
803 19-04-2009 16:39:02 24.6 C 4.73 g/m*3 24.6 C 0 km/h
804 19-04-2009 16:51:01 25.4 C 4.71 g/m*3 25.4 C 0 km/h
805 19-04-2009 17:03:01 25.3 C 4.68 g/m*3 25.3 C 0 km/h
806 19-04-2009 17:15:01 25.4 C 4.71 g/m*3 25.4 C 0 km/h
807 19-04-2009 17:27:01 25.7 C 4.79 g/m*3 25.7 C 0 km/h
808 19-04-2009 17:39:01 25.6 C 4.76 g/m*3 25.6 C 0 km/h
809 19-04-2009 17:51:01 25.7 C 4.79 g/m*3 25.7 C 0 km/h
810 19-04-2009 18:03:01 25.6 C 4.76 g/m*3 25.6 C 0 km/h
811 19-04-2009 18:15:00 25.2 C 4.66 g/m*3 25.2 C 0 km/h
812 19-04-2009 18:27:00 25.1 C 4.63 g/m*3 25.1 C 0 km/h
813 19-04-2009 18:39:00 25.2 C 4.66 g/m*3 25.2 C 0 km/h
814 19-04-2009 18:51:00 24.9 C 4.58 g/m*3 24.9 C 0 km/h
815 19-04-2009 19:03:00 24.5 C 4.48 g/m*3 24.5 C 0 km/h
816 19-04-2009 19:15:59 24.2 C 4.4 g/m*3 24.2 C 0 km/h
817 19-04-2009 19:27:59 23.7 C 4.71 g/m*3 23.7 C 0 km/h
818 19-04-2009 19:39:00 23 C 4.93 g/m*3 23 C 0 km/h
819 19-04-2009 19:51:59 22.2 C 5.3 g/m*3 22.2 C 0 km/h
820 19-04-2009 20:03:59 21 C 5.68 g/m*3 21 C 0 km/h
821 19-04-2009 20:14:59 19.3 C 5.64 g/m*3 19.3 C 0 km/h
822 19-04-2009 20:26:59 18.3 C 5.63 g/m*3 18.3 C 0 km/h
823 19-04-2009 20:39:59 17.2 C 5.86 g/m*3 17.2 C 0 km/h
824 19-04-2009 20:51:59 16.6 C 5.79 g/m*3 16.6 C 0 km/h
825 19-04-2009 21:03:59 16.2 C 6.07 g/m*3 16.2 C 0 km/h
Sensor: Nr:Datum:Temp:Abs-Feuchte:Windchill:Wind:
Aussen-T/F 826 19-04-2009 21:15:58 15.8 C 6.33 g/m*3 15.8 C 0 km/h
827 19-04-2009 21:27:58 15.4 C 6.44 g/m*3 15.4 C 0 km/h
828 19-04-2009 21:39:59 15.2 C 6.62 g/m*3 15.2 C 0 km/h
829 19-04-2009 21:51:58 14.9 C 6.63 g/m*3 14.9 C 0 km/h
830 19-04-2009 22:03:58 14.6 C 6.63 g/m*3 14.6 C 0 km/h
831 19-04-2009 22:15:57 14.3 C 6.63 g/m*3 14.3 C 0 km/h
832 19-04-2009 22:27:57 14.1 C 6.67 g/m*3 14.1 C 0 km/h
833 19-04-2009 22:40:59 13.8 C 6.79 g/m*3 13.8 C 0 km/h
834 19-04-2009 22:52:59 13.7 C 6.87 g/m*3 13.7 C 0 km/h
835 19-04-2009 23:04:59 13.4 C 6.86 g/m*3 13.4 C 0 km/h
836 19-04-2009 23:17:00 13.1 C 6.96 g/m*3 13.1 C 0 km/h
837 19-04-2009 23:29:00 12.9 C 7.1 g/m*3 12.9 C 0 km/h
838 19-04-2009 23:41:00 12.7 C 7.12 g/m*3 12.7 C 0 km/h
839 19-04-2009 23:53:00 12.6 C 7.19 g/m*3 12.6 C 0 km/h
840 20-04-2009 00:05:00 12.4 C 7.21 g/m*3 12.4 C 0 km/h
841 20-04-2009 00:17:00 12.2 C 7.23 g/m*3 12.2 C 0 km/h
842 20-04-2009 00:29:00 12.1 C 7.29 g/m*3 12.1 C 0 km/h
843 20-04-2009 00:41:00 11.8 C 7.37 g/m*3 11.8 C 0 km/h
844 20-04-2009 00:53:00 11.7 C 7.43 g/m*3 11.7 C 0 km/h
845 20-04-2009 01:05:00 11.6 C 7.38 g/m*3 11.6 C 0 km/h
846 20-04-2009 01:17:00 11.3 C 7.34 g/m*3 11.3 C 0 km/h
847 20-04-2009 01:28:00 11.1 C 7.35 g/m*3 11.1 C 0 km/h
848 20-04-2009 01:40:00 11 C 7.31 g/m*3 11 C 0 km/h
849 20-04-2009 01:52:00 10.9 C 7.36 g/m*3 10.9 C 0 km/h
850 20-04-2009 02:04:00 10.7 C 7.27 g/m*3 10.7 C 0 km/h
Sensor: Nr:Datum:Temp:Abs-Feuchte:Windchill:Wind:
Aussen-T/F 851 20-04-2009 02:16:00 10.4 C 7.13 g/m*3 10.4 C 0 km/h
852 20-04-2009 02:28:00 10.2 C 7.14 g/m*3 10.2 C 0 km/h
853 20-04-2009 02:40:00 10.1 C 7.19 g/m*3 10.1 C 0 km/h
854 20-04-2009 02:52:00 9.9 C 7.28 g/m*3 9.9 C 0 km/h
855 20-04-2009 03:04:00 9.7 C 7.28 g/m*3 9.7 C 0 km/h
856 20-04-2009 03:16:01 9.4 C 7.24 g/m*3 9.4 C 0 km/h
857 20-04-2009 03:28:01 9.3 C 7.28 g/m*3 9.3 C 0 km/h
858 20-04-2009 03:40:01 9.1 C 7.19 g/m*3 9.1 C 0 km/h
859 20-04-2009 03:52:01 9 C 7.14 g/m*3 9 C 0 km/h
860 20-04-2009 04:04:01 8.9 C 7.27 g/m*3 8.9 C 0 km/h
861 20-04-2009 04:16:01 8.7 C 7.18 g/m*3 8.7 C 0 km/h
862 20-04-2009 04:28:01 8.6 C 7.13 g/m*3 8.6 C 0 km/h
863 20-04-2009 04:40:01 8.4 C 7.04 g/m*3 8.4 C 0 km/h
864 20-04-2009 04:52:01 8.3 C 7.08 g/m*3 8.3 C 0 km/h
865 20-04-2009 05:04:01 8.1 C 6.99 g/m*3 8.1 C 0 km/h
866 20-04-2009 05:16:01 8 C 6.94 g/m*3 8 C 0 km/h
867 20-04-2009 05:28:01 7.8 C 7.02 g/m*3 7.8 C 0 km/h
868 20-04-2009 05:40:01 7.6 C 6.93 g/m*3 7.6 C 0 km/h
869 20-04-2009 05:52:01 7.5 C 6.96 g/m*3 7.5 C 0 km/h
870 20-04-2009 06:04:01 7.3 C 6.79 g/m*3 7.3 C 0 km/h
871 20-04-2009 06:16:01 7.3 C 6.87 g/m*3 7.3 C 0 km/h
872 20-04-2009 06:28:01 7.1 C 6.79 g/m*3 7.1 C 0 km/h
873 20-04-2009 06:40:01 7 C 6.74 g/m*3 7 C 0 km/h
874 20-04-2009 06:52:58 6.8 C 6.81 g/m*3 6.8 C 0 km/h
875 20-04-2009 07:04:58 6.8 C 6.81 g/m*3 6.8 C 0 km/h
Sensor: Nr:Datum:Temp:Abs-Feuchte:Windchill:Wind:
Aussen-T/F 876 20-04-2009 07:16:59 6.9 C 6.85 g/m*3 6.9 C 0 km/h
877 20-04-2009 07:28:59 7 C 6.9 g/m*3 7 C 0 km/h
878 20-04-2009 07:40:02 7.2 C 7.06 g/m*3 7.2 C 0 km/h
879 20-04-2009 07:52:01 7.1 C 7.02 g/m*3 7.1 C 0 km/h
880 20-04-2009 08:04:02 7.2 C 6.99 g/m*3 7.2 C 0 km/h
881 20-04-2009 08:16:01 7.3 C 7.03 g/m*3 7.3 C 0 km/h
882 20-04-2009 08:28:01 7.4 C 7.08 g/m*3 7.4 C 0 km/h
883 20-04-2009 08:40:01 7.7 C 7.22 g/m*3 7.7 C 0 km/h
884 20-04-2009 08:52:02 8 C 7.28 g/m*3 8 C 0 km/h
885 20-04-2009 09:04:01 7.9 C 7.31 g/m*3 7.9 C 0 km/h
886 20-04-2009 09:16:00 8.2 C 7.45 g/m*3 8.2 C 0 km/h
887 20-04-2009 09:28:00 8.4 C 7.55 g/m*3 8.4 C 0 km/h
888 20-04-2009 09:40:01 8.9 C 7.8 g/m*3 8.9 C 0 km/h
889 20-04-2009 09:52:00 9.6 C 8.06 g/m*3 9.6 C 0 km/h
890 20-04-2009 10:04:00 10.4 C 8.29 g/m*3 10.4 C 0 km/h
891 20-04-2009 10:16:00 11.1 C 8.26 g/m*3 11.1 C 0 km/h
892 20-04-2009 10:28:00 12.1 C 8.47 g/m*3 12.1 C 0 km/h
893 20-04-2009 10:40:00 13 C 8.28 g/m*3 13 C 0 km/h
894 20-04-2009 10:52:59 13.5 C 7.72 g/m*3 13.5 C 0 km/h
895 20-04-2009 11:04:00 14.1 C 7.77 g/m*3 14.1 C 0 km/h
896 20-04-2009 11:16:00 14.9 C 7.77 g/m*3 14.9 C 0 km/h
897 20-04-2009 11:28:00 15.7 C 7.76 g/m*3 15.7 C 0 km/h
898 20-04-2009 11:40:59 16.2 C 7.72 g/m*3 16.2 C 0 km/h
899 20-04-2009 11:52:59 16.8 C 7.43 g/m*3 16.8 C 0 km/h
900 20-04-2009 12:04:59 17.2 C 7.18 g/m*3 17.2 C 0 km/h
Sensor: Nr:Datum:Temp:Abs-Feuchte:Windchill:Wind:
Aussen-T/F 901 20-04-2009 12:16:59 17.6 C 6.9 g/m*3 17.6 C 0 km/h
902 20-04-2009 12:28:59 18.3 C 6.72 g/m*3 18.3 C 0 km/h
903 20-04-2009 12:40:58 18.7 C 6.88 g/m*3 18.7 C 0 km/h
904 20-04-2009 12:52:59 18.9 C 6.64 g/m*3 18.9 C 0 km/h
905 20-04-2009 13:04:58 19.2 C 6.1 g/m*3 19.2 C 0 km/h
906 20-04-2009 13:16:58 20 C 6.39 g/m*3 20 C 0 km/h
907 20-04-2009 13:28:58 20.9 C 6.37 g/m*3 20.9 C 0 km/h
908 20-04-2009 13:40:58 21.2 C 5.56 g/m*3 21.2 C 0 km/h
909 20-04-2009 13:52:58 21.4 C 5.44 g/m*3 21.4 C 0 km/h
910 20-04-2009 14:04:57 21.5 C 5.28 g/m*3 21.5 C 0 km/h
911 20-04-2009 14:16:58 21.4 C 5.25 g/m*3 21.4 C 0 km/h
912 20-04-2009 14:28:58 22 C 5.05 g/m*3 22 C 0 km/h
913 20-04-2009 14:40:58 23.1 C 5.17 g/m*3 23.1 C 0 km/h
914 20-04-2009 14:52:57 22.7 C 4.65 g/m*3 22.7 C 0 km/h
915 20-04-2009 15:04:58 23.7 C 4.49 g/m*3 23.7 C 0 km/h
916 20-04-2009 15:16:57 23.8 C 4.3 g/m*3 23.8 C 0 km/h
917 20-04-2009 15:28:57 23.7 C 4.28 g/m*3 23.7 C 0 km/h
918 20-04-2009 15:40:57 23.8 C 4.3 g/m*3 23.8 C 0 km/h
919 20-04-2009 15:52:56 24.1 C 4.38 g/m*3 24.1 C 0 km/h
920 20-04-2009 16:04:57 24.1 C 4.38 g/m*3 24.1 C 0 km/h
921 20-04-2009 16:16:56 24.3 C 4.43 g/m*3 24.3 C 0 km/h
922 20-04-2009 16:28:56 25.2 C 4.66 g/m*3 25.2 C 0 km/h
923 20-04-2009 16:40:56 25.7 C 4.79 g/m*3 25.7 C 0 km/h
924 20-04-2009 16:52:56 26 C 4.87 g/m*3 26 C 0 km/h
925 20-04-2009 17:04:56 26 C 4.87 g/m*3 26 C 0 km/h
Sensor: Nr:Datum:Temp:Abs-Feuchte:Windchill:Wind:
Aussen-T/F 926 20-04-2009 17:16:56 27 C 5.15 g/m*3 27 C 0 km/h
927 20-04-2009 17:28:56 26 C 4.87 g/m*3 26 C 0 km/h
928 20-04-2009 17:40:56 25.6 C 4.76 g/m*3 25.6 C 0 km/h
929 20-04-2009 17:52:56 27.1 C 5.18 g/m*3 27.1 C 0 km/h
930 20-04-2009 18:04:55 25.9 C 4.84 g/m*3 25.9 C 0 km/h
931 20-04-2009 18:16:55 25.7 C 4.79 g/m*3 25.7 C 0 km/h
932 20-04-2009 18:28:55 25.3 C 4.68 g/m*3 25.3 C 0 km/h
933 20-04-2009 18:40:55 23.9 C 5.19 g/m*3 23.9 C 0 km/h
934 20-04-2009 18:52:55 22.8 C 5.49 g/m*3 22.8 C 0 km/h
935 20-04-2009 19:04:54 22.4 C 5.16 g/m*3 22.4 C 0 km/h
936 20-04-2009 19:16:55 21.5 C 5.47 g/m*3 21.5 C 0 km/h
937 20-04-2009 19:28:55 21.2 C 5.37 g/m*3 21.2 C 0 km/h
938 20-04-2009 19:40:55 21.2 C 5.56 g/m*3 21.2 C 0 km/h
939 20-04-2009 19:52:54 20.9 C 5.83 g/m*3 20.9 C 0 km/h
940 20-04-2009 20:04:55 20.4 C 5.66 g/m*3 20.4 C 0 km/h
941 20-04-2009 20:16:54 19.7 C 5.77 g/m*3 19.7 C 0 km/h
942 20-04-2009 20:28:54 19 C 5.87 g/m*3 19 C 0 km/h
943 20-04-2009 20:40:54 18.5 C 6.33 g/m*3 18.5 C 0 km/h
944 20-04-2009 20:52:54 18.1 C 5.87 g/m*3 18.1 C 0 km/h
945 20-04-2009 21:04:53 17.6 C 5.7 g/m*3 17.6 C 0 km/h
946 20-04-2009 21:16:54 17 C 5.5 g/m*3 17 C 0 km/h
947 20-04-2009 21:28:54 16.7 C 5.68 g/m*3 16.7 C 0 km/h
948 20-04-2009 21:40:54 16.3 C 5.69 g/m*3 16.3 C 0 km/h
949 20-04-2009 21:52:53 16.1 C 5.89 g/m*3 16.1 C 0 km/h
950 20-04-2009 22:04:54 15.9 C 5.69 g/m*3 15.9 C 0 km/h
Sensor: Nr:Datum:Temp:Abs-Feuchte:Windchill:Wind:
Aussen-T/F 951 20-04-2009 22:16:53 15.5 C 5.68 g/m*3 15.5 C 0 km/h
952 20-04-2009 22:28:53 15.2 C 5.58 g/m*3 15.2 C 0 km/h
953 20-04-2009 22:41:55 14.8 C 5.7 g/m*3 14.8 C 0 km/h
954 20-04-2009 22:53:55 14.6 C 5.76 g/m*3 14.6 C 0 km/h
955 20-04-2009 23:05:55 14.2 C 5.74 g/m*3 14.2 C 0 km/h
956 20-04-2009 23:17:55 14 C 5.79 g/m*3 14 C 0 km/h
957 20-04-2009 23:29:55 13.7 C 5.8 g/m*3 13.7 C 0 km/h
958 20-04-2009 23:41:55 13.7 C 5.92 g/m*3 13.7 C 0 km/h
959 20-04-2009 23:53:55 13.6 C 5.77 g/m*3 13.6 C 0 km/h
960 21-04-2009 00:05:55 13.2 C 5.63 g/m*3 13.2 C 0 km/h
961 21-04-2009 00:17:55 13.2 C 5.74 g/m*3 13.2 C 0 km/h
962 21-04-2009 00:29:55 12.9 C 5.75 g/m*3 12.9 C 0 km/h
963 21-04-2009 00:41:55 12.8 C 5.71 g/m*3 12.8 C 0 km/h
964 21-04-2009 00:53:55 12.5 C 5.72 g/m*3 12.5 C 0 km/h
965 21-04-2009 01:05:55 12.3 C 5.75 g/m*3 12.3 C 0 km/h
966 21-04-2009 01:17:55 11.9 C 5.93 g/m*3 11.9 C 0 km/h
967 21-04-2009 01:29:55 11.5 C 5.99 g/m*3 11.5 C 0 km/h
968 21-04-2009 01:41:55 11.4 C 5.95 g/m*3 11.4 C 0 km/h
969 21-04-2009 01:53:55 11.1 C 6.04 g/m*3 11.1 C 0 km/h
970 21-04-2009 02:05:55 10.7 C 5.99 g/m*3 10.7 C 0 km/h
971 21-04-2009 02:17:56 10.6 C 5.86 g/m*3 10.6 C 0 km/h
972 21-04-2009 02:29:56 10.5 C 5.92 g/m*3 10.5 C 0 km/h
973 21-04-2009 02:41:56 10.2 C 6 g/m*3 10.2 C 0 km/h
974 21-04-2009 02:53:56 10 C 6.01 g/m*3 10 C 0 km/h
975 21-04-2009 03:05:56 9.8 C 6.03 g/m*3 9.8 C 0 km/h
Sensor: Nr:Datum:Temp:Abs-Feuchte:Windchill:Wind:
Aussen-T/F 976 21-04-2009 03:17:56 9.6 C 6.05 g/m*3 9.6 C 0 km/h
977 21-04-2009 03:29:56 9.3 C 5.93 g/m*3 9.3 C 0 km/h
978 21-04-2009 03:41:56 9.2 C 5.98 g/m*3 9.2 C 0 km/h
979 21-04-2009 03:53:56 9 C 5.99 g/m*3 9 C 0 km/h
980 21-04-2009 04:05:56 8.8 C 6.01 g/m*3 8.8 C 0 km/h
981 21-04-2009 04:17:56 8.7 C 6.05 g/m*3 8.7 C 0 km/h
982 21-04-2009 04:29:56 8.5 C 6.15 g/m*3 8.5 C 0 km/h
983 21-04-2009 04:41:56 8.2 C 6.2 g/m*3 8.2 C 0 km/h
984 21-04-2009 04:53:56 8.1 C 6.16 g/m*3 8.1 C 0 km/h
985 21-04-2009 05:05:56 7.9 C 6.16 g/m*3 7.9 C 0 km/h
986 21-04-2009 05:17:56 7.9 C 6.24 g/m*3 7.9 C 0 km/h
987 21-04-2009 05:29:56 7.7 C 6.16 g/m*3 7.7 C 0 km/h
988 21-04-2009 05:41:56 7.6 C 6.28 g/m*3 7.6 C 0 km/h
989 21-04-2009 05:53:56 7.5 C 6.24 g/m*3 7.5 C 0 km/h
990 21-04-2009 06:05:57 7.4 C 6.28 g/m*3 7.4 C 0 km/h
991 21-04-2009 06:17:57 7.2 C 6.2 g/m*3 7.2 C 0 km/h
992 21-04-2009 06:29:57 7.1 C 6.24 g/m*3 7.1 C 0 km/h
993 21-04-2009 06:41:57 7.1 C 6.24 g/m*3 7.1 C 0 km/h
994 21-04-2009 06:53:55 7.1 C 6.32 g/m*3 7.1 C 0 km/h
995 21-04-2009 07:05:55 7.1 C 6.32 g/m*3 7.1 C 0 km/h
996 21-04-2009 07:17:54 7.1 C 6.32 g/m*3 7.1 C 0 km/h
997 21-04-2009 07:29:54 7.1 C 6.4 g/m*3 7.1 C 0 km/h
998 21-04-2009 07:41:54 7.3 C 6.48 g/m*3 7.3 C 0 km/h
999 21-04-2009 07:53:54 7.4 C 6.52 g/m*3 7.4 C 0 km/h
1000 21-04-2009 08:05:54 7.5 C 6.64 g/m*3 7.5 C 0 km/h
Sensor: Nr:Datum:Temp:Abs-Feuchte:Windchill:Wind:
Aussen-T/F 1001 21-04-2009 08:17:54 7.8 C 6.69 g/m*3 7.8 C 0 km/h
1002 21-04-2009 08:29:54 8 C 6.7 g/m*3 8 C 0 km/h
1003 21-04-2009 08:41:54 8.2 C 6.78 g/m*3 8.2 C 0 km/h
1004 21-04-2009 08:53:53 8.5 C 6.83 g/m*3 8.5 C 0 km/h
1005 21-04-2009 09:05:53 8.9 C 6.92 g/m*3 8.9 C 0 km/h
1006 21-04-2009 09:17:54 9.4 C 7.15 g/m*3 9.4 C 0 km/h
1007 21-04-2009 09:29:54 10.2 C 7.23 g/m*3 10.2 C 0 km/h
1008 21-04-2009 09:41:53 10.8 C 7.31 g/m*3 10.8 C 0 km/h
1009 21-04-2009 09:53:53 11.5 C 7.33 g/m*3 11.5 C 0 km/h
1010 21-04-2009 10:05:53 12.2 C 7.01 g/m*3 12.2 C 0 km/h
1011 21-04-2009 10:17:53 12.7 C 7.01 g/m*3 12.7 C 0 km/h
1012 21-04-2009 10:29:53 13.4 C 7.09 g/m*3 13.4 C 0 km/h
1013 21-04-2009 10:41:52 14 C 7 g/m*3 14 C 0 km/h
1014 21-04-2009 10:53:53 14.7 C 7.05 g/m*3 14.7 C 0 km/h
1015 21-04-2009 11:05:52 15.3 C 6.66 g/m*3 15.3 C 0 km/h
1016 21-04-2009 11:17:52 15.9 C 6.09 g/m*3 15.9 C 0 km/h
1017 21-04-2009 11:29:52 16.4 C 6.14 g/m*3 16.4 C 0 km/h
1018 21-04-2009 11:41:52 16.8 C 6 g/m*3 16.8 C 0 km/h
1019 21-04-2009 11:53:52 16.9 C 5.32 g/m*3 16.9 C 0 km/h
1020 21-04-2009 12:05:52 17.2 C 5.42 g/m*3 17.2 C 0 km/h
1021 21-04-2009 12:17:52 17.8 C 5.46 g/m*3 17.8 C 0 km/h
1022 21-04-2009 12:29:52 18.7 C 5.6 g/m*3 18.7 C 0 km/h
1023 21-04-2009 12:41:52 19.2 C 5.28 g/m*3 19.2 C 0 km/h
1024 21-04-2009 12:53:52 19.7 C 5.6 g/m*3 19.7 C 0 km/h
1025 21-04-2009 13:05:51 20 C 5.53 g/m*3 20 C 0 km/h
Sensor: Nr:Datum:Temp:Abs-Feuchte:Windchill:Wind:
Aussen-T/F 1026 21-04-2009 13:17:51 21 C 5.5 g/m*3 21 C 0 km/h
1027 21-04-2009 13:29:51 20.6 C 5.19 g/m*3 20.6 C 0 km/h
1028 21-04-2009 13:41:50 21.3 C 4.85 g/m*3 21.3 C 0 km/h
1029 21-04-2009 13:53:51 21.3 C 4.85 g/m*3 21.3 C 0 km/h
1030 21-04-2009 14:05:50 21.6 C 5.12 g/m*3 21.6 C 0 km/h
1031 21-04-2009 14:17:50 22.3 C 4.54 g/m*3 22.3 C 0 km/h
1032 21-04-2009 14:29:50 22.2 C 4.71 g/m*3 22.2 C 0 km/h
1033 21-04-2009 14:41:51 23.1 C 4.55 g/m*3 23.1 C 0 km/h
1034 21-04-2009 14:53:50 23.7 C 4.49 g/m*3 23.7 C 0 km/h
1035 21-04-2009 15:05:50 24.6 C 4.5 g/m*3 24.6 C 0 km/h
1036 21-04-2009 15:17:50 24 C 4.35 g/m*3 24 C 0 km/h
1037 21-04-2009 15:29:50 23.6 C 4.25 g/m*3 23.6 C 0 km/h
1038 21-04-2009 15:41:50 24.4 C 4.45 g/m*3 24.4 C 0 km/h
1039 21-04-2009 15:53:49 24.6 C 4.5 g/m*3 24.6 C 0 km/h
1040 21-04-2009 16:05:50 25.7 C 4.79 g/m*3 25.7 C 0 km/h
1041 21-04-2009 16:17:49 25.9 C 4.84 g/m*3 25.9 C 0 km/h
1042 21-04-2009 16:29:49 26.2 C 4.92 g/m*3 26.2 C 0 km/h
1043 21-04-2009 16:41:49 25.5 C 4.73 g/m*3 25.5 C 0 km/h
1044 21-04-2009 16:53:49 25.2 C 4.66 g/m*3 25.2 C 0 km/h
1045 21-04-2009 17:05:49 25.5 C 4.73 g/m*3 25.5 C 0 km/h
1046 21-04-2009 17:17:49 25.6 C 4.76 g/m*3 25.6 C 0 km/h
1047 21-04-2009 17:29:49 26 C 4.87 g/m*3 26 C 0 km/h
1048 21-04-2009 17:41:48 26.1 C 4.9 g/m*3 26.1 C 0 km/h
1049 21-04-2009 17:53:49 25.4 C 4.71 g/m*3 25.4 C 0 km/h
1050 21-04-2009 18:05:48 24.4 C 4.45 g/m*3 24.4 C 0 km/h
Sensor: Nr:Datum:Temp:Abs-Feuchte:Windchill:Wind:
Aussen-T/F 1051 21-04-2009 18:17:48 25 C 4.6 g/m*3 25 C 0 km/h
1052 21-04-2009 18:29:48 24.7 C 4.53 g/m*3 24.7 C 0 km/h
1053 21-04-2009 18:41:48 24.4 C 4.45 g/m*3 24.4 C 0 km/h
1054 21-04-2009 18:53:48 24.2 C 4.4 g/m*3 24.2 C 0 km/h
1055 21-04-2009 19:05:47 23.7 C 4.28 g/m*3 23.7 C 0 km/h
1056 21-04-2009 19:17:48 24 C 4.35 g/m*3 24 C 0 km/h
1057 21-04-2009 19:29:48 23.4 C 4.21 g/m*3 23.4 C 0 km/h
1058 21-04-2009 19:41:48 23 C 4.11 g/m*3 23 C 0 km/h
1059 21-04-2009 19:53:47 22 C 4.08 g/m*3 22 C 0 km/h
1060 21-04-2009 20:05:48 21.7 C 4.2 g/m*3 21.7 C 0 km/h
1061 21-04-2009 20:17:47 20.4 C 4.42 g/m*3 20.4 C 0 km/h
1062 21-04-2009 20:29:47 19.8 C 4.44 g/m*3 19.8 C 0 km/h
1063 21-04-2009 20:41:47 19.2 C 4.12 g/m*3 19.2 C 0 km/h
1064 21-04-2009 20:53:46 18.7 C 4.64 g/m*3 18.7 C 0 km/h
1065 21-04-2009 21:05:46 18.4 C 4.72 g/m*3 18.4 C 0 km/h
1066 21-04-2009 21:17:47 17.9 C 4.73 g/m*3 17.9 C 0 km/h
1067 21-04-2009 21:29:48 17.8 C 4.86 g/m*3 17.8 C 0 km/h
1068 21-04-2009 21:41:46 17.5 C 5.22 g/m*3 17.5 C 0 km/h
1069 21-04-2009 21:53:46 17.3 C 5.3 g/m*3 17.3 C 0 km/h
1070 21-04-2009 22:05:45 17.1 C 5.39 g/m*3 17.1 C 0 km/h
1071 21-04-2009 22:17:46 16.9 C 5.61 g/m*3 16.9 C 0 km/h
1072 21-04-2009 22:29:46 16.7 C 5.68 g/m*3 16.7 C 0 km/h
1073 21-04-2009 22:41:46 16.3 C 5.55 g/m*3 16.3 C 0 km/h
1074 21-04-2009 22:54:46 16.2 C 5.65 g/m*3 16.2 C 0 km/h
1075 21-04-2009 23:06:46 16 C 5.72 g/m*3 16 C 0 km/h
Sensor: Nr:Datum:Temp:Abs-Feuchte:Windchill:Wind:
Aussen-T/F 1076 21-04-2009 23:18:46 15.5 C 5.95 g/m*3 15.5 C 0 km/h
1077 21-04-2009 23:30:46 15.5 C 5.82 g/m*3 15.5 C 0 km/h
1078 21-04-2009 23:42:46 15.1 C 5.81 g/m*3 15.1 C 0 km/h
1079 21-04-2009 23:54:46 15.1 C 5.81 g/m*3 15.1 C 0 km/h
1080 22-04-2009 00:06:46 14.8 C 5.95 g/m*3 14.8 C 0 km/h
1081 22-04-2009 00:18:46 14.7 C 6.04 g/m*3 14.7 C 0 km/h
1082 22-04-2009 00:30:46 14.6 C 5.88 g/m*3 14.6 C 0 km/h
1083 22-04-2009 00:42:47 14.5 C 5.97 g/m*3 14.5 C 0 km/h
1084 22-04-2009 00:54:47 14.1 C 5.83 g/m*3 14.1 C 0 km/h
1085 22-04-2009 01:06:47 13.9 C 5.99 g/m*3 13.9 C 0 km/h
1086 22-04-2009 01:18:47 13.7 C 6.04 g/m*3 13.7 C 0 km/h
1087 22-04-2009 01:30:47 13.2 C 6.09 g/m*3 13.2 C 0 km/h
1088 22-04-2009 01:42:47 13.1 C 6.28 g/m*3 13.1 C 0 km/h
1089 22-04-2009 01:54:47 13 C 6.01 g/m*3 13 C 0 km/h
1090 22-04-2009 02:06:47 13 C 6.12 g/m*3 13 C 0 km/h
1091 22-04-2009 02:18:47 12.8 C 6.16 g/m*3 12.8 C 0 km/h
1092 22-04-2009 02:30:47 12.6 C 6.2 g/m*3 12.6 C 0 km/h
1093 22-04-2009 02:42:47 12.3 C 6.19 g/m*3 12.3 C 0 km/h
1094 22-04-2009 02:54:47 12.1 C 6.22 g/m*3 12.1 C 0 km/h
1095 22-04-2009 03:06:47 11.8 C 6.31 g/m*3 11.8 C 0 km/h
1096 22-04-2009 03:18:47 11.7 C 6.28 g/m*3 11.7 C 0 km/h
1097 22-04-2009 03:30:47 11.8 C 6.21 g/m*3 11.8 C 0 km/h
1098 22-04-2009 03:42:47 11.7 C 6.17 g/m*3 11.7 C 0 km/h
1099 22-04-2009 03:54:47 11.3 C 6.12 g/m*3 11.3 C 0 km/h
1100 22-04-2009 04:06:47 11 C 6.01 g/m*3 11 C 0 km/h
Sensor: Nr:Datum:Temp:Abs-Feuchte:Windchill:Wind:
Aussen-T/F 1101 22-04-2009 04:18:47 10.9 C 5.97 g/m*3 10.9 C 0 km/h
1102 22-04-2009 04:30:48 10.8 C 5.93 g/m*3 10.8 C 0 km/h
1103 22-04-2009 04:42:48 10.7 C 5.99 g/m*3 10.7 C 0 km/h
1104 22-04-2009 04:54:48 10.5 C 6.01 g/m*3 10.5 C 0 km/h
1105 22-04-2009 05:06:48 10.7 C 6.09 g/m*3 10.7 C 0 km/h
1106 22-04-2009 05:18:48 10.6 C 6.05 g/m*3 10.6 C 0 km/h
1107 22-04-2009 05:30:48 10.3 C 6.13 g/m*3 10.3 C 0 km/h
1108 22-04-2009 05:42:48 10 C 6.11 g/m*3 10 C 0 km/h
1109 22-04-2009 05:54:48 9.9 C 6.26 g/m*3 9.9 C 0 km/h
1110 22-04-2009 06:06:48 9.9 C 6.44 g/m*3 9.9 C 0 km/h
1111 22-04-2009 06:18:48 9.7 C 6.45 g/m*3 9.7 C 0 km/h
1112 22-04-2009 06:30:48 9.6 C 6.5 g/m*3 9.6 C 0 km/h
1113 22-04-2009 06:42:48 9.6 C 6.69 g/m*3 9.6 C 0 km/h
1114 22-04-2009 06:54:48 9.6 C 6.69 g/m*3 9.6 C 0 km/h
1115 22-04-2009 07:06:48 9.7 C 6.82 g/m*3 9.7 C 0 km/h
1116 22-04-2009 07:18:48 9.7 C 6.82 g/m*3 9.7 C 0 km/h
1117 22-04-2009 07:30:48 9.8 C 6.87 g/m*3 9.8 C 0 km/h
1118 22-04-2009 07:42:48 9.9 C 6.91 g/m*3 9.9 C 0 km/h
1119 22-04-2009 07:54:46 10.1 C 7 g/m*3 10.1 C 0 km/h
1120 22-04-2009 08:06:46 10.3 C 6.99 g/m*3 10.3 C 0 km/h
1121 22-04-2009 08:18:47 10.4 C 6.84 g/m*3 10.4 C 0 km/h
1122 22-04-2009 08:30:46 10.5 C 6.89 g/m*3 10.5 C 0 km/h
1123 22-04-2009 08:42:46 10.5 C 6.79 g/m*3 10.5 C 0 km/h
1124 22-04-2009 08:54:46 10.6 C 6.73 g/m*3 10.6 C 0 km/h
1125 22-04-2009 09:06:46 10.7 C 6.68 g/m*3 10.7 C 0 km/h
Sensor: Nr:Datum:Temp:Abs-Feuchte:Windchill:Wind:
Aussen-T/F 1126 22-04-2009 09:18:46 11 C 6.71 g/m*3 11 C 0 km/h
1127 22-04-2009 09:30:45 11.2 C 6.69 g/m*3 11.2 C 0 km/h
1128 22-04-2009 09:42:45 10.7 C 6.38 g/m*3 10.7 C 0 km/h
1129 22-04-2009 09:54:46 11.2 C 6.49 g/m*3 11.2 C 0 km/h
1130 22-04-2009 10:06:45 11.4 C 5.95 g/m*3 11.4 C 0 km/h
1131 22-04-2009 10:18:45 11.8 C 5.79 g/m*3 11.8 C 0 km/h
1132 22-04-2009 10:30:45 11.8 C 5.89 g/m*3 11.8 C 0 km/h
1133 22-04-2009 10:42:45 12.4 C 6.01 g/m*3 12.4 C 0 km/h
1134 22-04-2009 10:54:45 12.9 C 5.64 g/m*3 12.9 C 0 km/h
1135 22-04-2009 11:06:45 13.1 C 5.59 g/m*3 13.1 C 0 km/h
1136 22-04-2009 11:18:44 13.3 C 5.66 g/m*3 13.3 C 0 km/h
1137 22-04-2009 11:30:45 14 C 5.67 g/m*3 14 C 0 km/h
1138 22-04-2009 11:42:45 14.6 C 5.51 g/m*3 14.6 C 0 km/h
1139 22-04-2009 11:54:44 15 C 5.39 g/m*3 15 C 0 km/h
1140 22-04-2009 12:06:44 15.7 C 5.62 g/m*3 15.7 C 0 km/h
1141 22-04-2009 12:18:44 16.1 C 5.76 g/m*3 16.1 C 0 km/h
1142 22-04-2009 12:30:44 15.7 C 5.62 g/m*3 15.7 C 0 km/h
1143 22-04-2009 12:42:44 16 C 5.59 g/m*3 16 C 0 km/h
1144 22-04-2009 12:54:43 16.2 C 5.52 g/m*3 16.2 C 0 km/h
1145 22-04-2009 13:06:44 17.1 C 5.68 g/m*3 17.1 C 0 km/h
1146 22-04-2009 13:18:43 17.5 C 5.96 g/m*3 17.5 C 0 km/h
1147 22-04-2009 13:30:43 16.7 C 5.4 g/m*3 16.7 C 0 km/h
1148 22-04-2009 13:42:43 17.2 C 5.56 g/m*3 17.2 C 0 km/h
1149 22-04-2009 13:54:43 17 C 5.35 g/m*3 17 C 0 km/h
1150 22-04-2009 14:06:43 16.6 C 5.51 g/m*3 16.6 C 0 km/h
Sensor: Nr:Datum:Temp:Abs-Feuchte:Windchill:Wind:
Aussen-T/F 1151 22-04-2009 14:18:43 17.2 C 5.42 g/m*3 17.2 C 0 km/h
1152 22-04-2009 14:30:42 17.8 C 5.46 g/m*3 17.8 C 0 km/h
1153 22-04-2009 14:42:42 16.8 C 5.15 g/m*3 16.8 C 0 km/h
1154 22-04-2009 14:54:43 17.4 C 5.48 g/m*3 17.4 C 0 km/h
1155 22-04-2009 15:06:42 16.9 C 5.03 g/m*3 16.9 C 0 km/h
1156 22-04-2009 15:18:42 17.5 C 4.92 g/m*3 17.5 C 0 km/h
1157 22-04-2009 15:30:42 17.1 C 4.8 g/m*3 17.1 C 0 km/h
1158 22-04-2009 15:42:42 16.4 C 5.02 g/m*3 16.4 C 0 km/h
1159 22-04-2009 15:54:42 16.7 C 5.12 g/m*3 16.7 C 0 km/h
1160 22-04-2009 16:06:42 18 C 4.15 g/m*3 18 C 0 km/h
1161 22-04-2009 16:18:41 18 C 3.38 g/m*3 18 C 0 km/h
1162 22-04-2009 16:30:42 17.9 C 3.05 g/m*3 17.9 C 0 km/h
1163 22-04-2009 16:42:42 18.2 C 3.11 g/m*3 18.2 C 0 km/h
1164 22-04-2009 16:54:41 19.1 C 3.28 g/m*3 19.1 C 0 km/h
1165 22-04-2009 17:06:41 18.4 C 3.15 g/m*3 18.4 C 0 km/h
1166 22-04-2009 17:18:41 18.5 C 3.16 g/m*3 18.5 C 0 km/h
1167 22-04-2009 17:30:41 19.6 C 3.38 g/m*3 19.6 C 0 km/h
1168 22-04-2009 17:42:41 19 C 3.26 g/m*3 19 C 0 km/h
1169 22-04-2009 17:54:41 19 C 3.26 g/m*3 19 C 0 km/h
1170 22-04-2009 18:06:41 17.8 C 3.79 g/m*3 17.8 C 0 km/h
1171 22-04-2009 18:18:40 18 C 3.84 g/m*3 18 C 0 km/h
1172 22-04-2009 18:30:40 17.8 C 3.95 g/m*3 17.8 C 0 km/h
1173 22-04-2009 18:42:40 17.1 C 3.93 g/m*3 17.1 C 0 km/h
1174 22-04-2009 18:54:40 17.7 C 3.92 g/m*3 17.7 C 0 km/h
1175 22-04-2009 19:06:40 17.4 C 4 g/m*3 17.4 C 0 km/h
Sensor: Nr:Datum:Temp:Abs-Feuchte:Windchill:Wind:
Aussen-T/F 1176 22-04-2009 19:18:40 16.5 C 4.21 g/m*3 16.5 C 0 km/h
1177 22-04-2009 19:30:40 16.1 C 4.11 g/m*3 16.1 C 0 km/h
1178 22-04-2009 19:42:40 16.6 C 4.38 g/m*3 16.6 C 0 km/h
1179 22-04-2009 19:54:39 16.5 C 4.21 g/m*3 16.5 C 0 km/h
1180 22-04-2009 20:06:39 16.4 C 3.91 g/m*3 16.4 C 0 km/h
1181 22-04-2009 20:18:40 15.6 C 3.59 g/m*3 15.6 C 0 km/h
1182 22-04-2009 20:30:39 14.8 C 3.8 g/m*3 14.8 C 0 km/h
1183 22-04-2009 20:42:39 14.2 C 3.66 g/m*3 14.2 C 0 km/h
1184 22-04-2009 20:54:39 13.8 C 3.57 g/m*3 13.8 C 0 km/h
1185 22-04-2009 21:06:39 13.3 C 3.47 g/m*3 13.3 C 0 km/h
1186 22-04-2009 21:18:39 13 C 3.4 g/m*3 13 C 0 km/h
1187 22-04-2009 21:30:39 12.7 C 3.67 g/m*3 12.7 C 0 km/h
1188 22-04-2009 21:42:39 12.4 C 3.61 g/m*3 12.4 C 0 km/h
1189 22-04-2009 21:54:38 12.1 C 3.54 g/m*3 12.1 C 0 km/h
1190 22-04-2009 22:06:39 12 C 3.62 g/m*3 12 C 0 km/h
1191 22-04-2009 22:19:39 11.9 C 3.71 g/m*3 11.9 C 0 km/h
1192 22-04-2009 22:31:39 11.7 C 3.77 g/m*3 11.7 C 0 km/h
1193 22-04-2009 22:43:39 11.4 C 3.8 g/m*3 11.4 C 0 km/h
1194 22-04-2009 22:55:39 11.3 C 3.88 g/m*3 11.3 C 0 km/h
1195 22-04-2009 23:07:39 11 C 3.9 g/m*3 11 C 0 km/h
1196 22-04-2009 23:19:39 10.8 C 4.05 g/m*3 10.8 C 0 km/h
1197 22-04-2009 23:31:39 10.2 C 4 g/m*3 10.2 C 0 km/h
1198 22-04-2009 23:43:39 10.1 C 4.16 g/m*3 10.1 C 0 km/h
1199 22-04-2009 23:55:39 10 C 4.23 g/m*3 10 C 0 km/h
1200 23-04-2009 00:07:39 9.7 C 4.24 g/m*3 9.7 C 0 km/h
Sensor: Nr:Datum:Temp:Abs-Feuchte:Windchill:Wind:
Aussen-T/F 1201 23-04-2009 00:19:39 9.5 C 4.28 g/m*3 9.5 C 0 km/h
1202 23-04-2009 00:31:39 9.2 C 4.46 g/m*3 9.2 C 0 km/h
1203 23-04-2009 00:43:39 8.9 C 4.47 g/m*3 8.9 C 0 km/h
1204 23-04-2009 00:55:39 8.6 C 4.73 g/m*3 8.6 C 0 km/h
1205 23-04-2009 01:07:39 8.5 C 4.7 g/m*3 8.5 C 0 km/h
1206 23-04-2009 01:19:39 8.4 C 4.67 g/m*3 8.4 C 0 km/h
1207 23-04-2009 01:31:39 8.1 C 4.66 g/m*3 8.1 C 0 km/h
1208 23-04-2009 01:43:39 8.1 C 4.66 g/m*3 8.1 C 0 km/h
1209 23-04-2009 01:55:39 7.8 C 4.82 g/m*3 7.8 C 0 km/h
1210 23-04-2009 02:07:39 7.7 C 4.7 g/m*3 7.7 C 0 km/h
1211 23-04-2009 02:19:40 7.4 C 4.85 g/m*3 7.4 C 0 km/h
1212 23-04-2009 02:31:40 7.6 C 4.83 g/m*3 7.6 C 0 km/h
1213 23-04-2009 02:43:40 7.7 C 4.87 g/m*3 7.7 C 0 km/h
1214 23-04-2009 02:55:40 7.3 C 4.98 g/m*3 7.3 C 0 km/h
1215 23-04-2009 03:07:40 7.1 C 4.91 g/m*3 7.1 C 0 km/h
1216 23-04-2009 03:19:40 7.1 C 4.91 g/m*3 7.1 C 0 km/h
1217 23-04-2009 03:31:40 7.1 C 4.91 g/m*3 7.1 C 0 km/h
1218 23-04-2009 03:43:40 7 C 4.96 g/m*3 7 C 0 km/h
1219 23-04-2009 03:55:40 6.9 C 5.08 g/m*3 6.9 C 0 km/h
1220 23-04-2009 04:07:40 6.6 C 5.06 g/m*3 6.6 C 0 km/h
1221 23-04-2009 04:19:40 6.2 C 5.15 g/m*3 6.2 C 0 km/h
1222 23-04-2009 04:31:40 6.3 C 5.33 g/m*3 6.3 C 0 km/h
1223 23-04-2009 04:43:40 6.3 C 5.4 g/m*3 6.3 C 0 km/h
1224 23-04-2009 04:55:40 6.5 C 5.47 g/m*3 6.5 C 0 km/h
1225 23-04-2009 05:07:40 6.7 C 5.47 g/m*3 6.7 C 0 km/h
Sensor: Nr:Datum:Temp:Abs-Feuchte:Windchill:Wind:
Aussen-T/F 1226 23-04-2009 05:19:40 6.5 C 5.47 g/m*3 6.5 C 0 km/h
1227 23-04-2009 05:31:40 6.5 C 5.55 g/m*3 6.5 C 0 km/h
1228 23-04-2009 05:43:40 6.8 C 5.66 g/m*3 6.8 C 0 km/h
1229 23-04-2009 05:55:40 6.8 C 5.58 g/m*3 6.8 C 0 km/h
1230 23-04-2009 06:07:41 6.8 C 5.66 g/m*3 6.8 C 0 km/h
1231 23-04-2009 06:19:41 7 C 5.66 g/m*3 7 C 0 km/h
1232 23-04-2009 06:31:41 7 C 5.66 g/m*3 7 C 0 km/h
1233 23-04-2009 06:43:41 6.9 C 5.62 g/m*3 6.9 C 0 km/h
1234 23-04-2009 06:55:41 7 C 5.66 g/m*3 7 C 0 km/h
1235 23-04-2009 07:07:39 7.1 C 5.69 g/m*3 7.1 C 0 km/h
1236 23-04-2009 07:19:39 7 C 5.66 g/m*3 7 C 0 km/h
1237 23-04-2009 07:31:38 7.1 C 5.77 g/m*3 7.1 C 0 km/h
1238 23-04-2009 07:43:38 7.1 C 5.69 g/m*3 7.1 C 0 km/h
1239 23-04-2009 07:55:39 7.4 C 5.81 g/m*3 7.4 C 0 km/h
1240 23-04-2009 08:07:38 7.7 C 5.84 g/m*3 7.7 C 0 km/h
1241 23-04-2009 08:19:38 7.9 C 5.83 g/m*3 7.9 C 0 km/h
1242 23-04-2009 08:31:38 8.4 C 5.94 g/m*3 8.4 C 0 km/h
1243 23-04-2009 08:43:38 8.5 C 5.89 g/m*3 8.5 C 0 km/h
1244 23-04-2009 08:55:38 8.6 C 5.93 g/m*3 8.6 C 0 km/h
1245 23-04-2009 09:07:38 9 C 5.82 g/m*3 9 C 0 km/h
1246 23-04-2009 09:19:37 9.5 C 5.92 g/m*3 9.5 C 0 km/h
1247 23-04-2009 09:31:37 9.8 C 5.85 g/m*3 9.8 C 0 km/h
1248 23-04-2009 09:43:37 10.3 C 5.75 g/m*3 10.3 C 0 km/h
1249 23-04-2009 09:55:37 11 C 5.81 g/m*3 11 C 0 km/h
1250 23-04-2009 10:07:37 11.5 C 5.58 g/m*3 11.5 C 0 km/h
Sensor: Nr:Datum:Temp:Abs-Feuchte:Windchill:Wind:
Aussen-T/F 1251 23-04-2009 10:19:37 11.7 C 5.33 g/m*3 11.7 C 0 km/h
1252 23-04-2009 10:31:37 11.1 C 5.24 g/m*3 11.1 C 0 km/h
1253 23-04-2009 10:43:37 10.8 C 5.24 g/m*3 10.8 C 0 km/h
1254 23-04-2009 10:55:36 10.9 C 5.07 g/m*3 10.9 C 0 km/h
1255 23-04-2009 11:07:36 11.2 C 5.07 g/m*3 11.2 C 0 km/h
1256 23-04-2009 11:19:37 11.9 C 5.3 g/m*3 11.9 C 0 km/h
1257 23-04-2009 11:31:36 12 C 4.9 g/m*3 12 C 0 km/h
1258 23-04-2009 11:43:36 11.6 C 4.57 g/m*3 11.6 C 0 km/h
1259 23-04-2009 11:55:36 12.7 C 4.79 g/m*3 12.7 C 0 km/h
1260 23-04-2009 12:07:36 13.9 C 4.2 g/m*3 13.9 C 0 km/h
1261 23-04-2009 12:19:36 13.3 C 4.39 g/m*3 13.3 C 0 km/h
1262 23-04-2009 12:31:36 13.1 C 4.11 g/m*3 13.1 C 0 km/h
1263 23-04-2009 12:43:36 14 C 4.34 g/m*3 14 C 0 km/h
1264 23-04-2009 12:55:35 14 C 4.22 g/m*3 14 C 0 km/h
1265 23-04-2009 13:07:36 14.1 C 4.37 g/m*3 14.1 C 0 km/h
1266 23-04-2009 13:19:35 16 C 4.09 g/m*3 16 C 0 km/h
1267 23-04-2009 13:31:35 15.2 C 4.15 g/m*3 15.2 C 0 km/h
1268 23-04-2009 13:43:35 16.2 C 4.27 g/m*3 16.2 C 0 km/h
1269 23-04-2009 13:55:35 16.9 C 4.46 g/m*3 16.9 C 0 km/h
1270 23-04-2009 14:07:35 15 C 4.23 g/m*3 15 C 0 km/h
1271 23-04-2009 14:19:34 15 C 4.49 g/m*3 15 C 0 km/h
1272 23-04-2009 14:31:35 15 C 4.23 g/m*3 15 C 0 km/h
1273 23-04-2009 14:43:36 15.2 C 4.54 g/m*3 15.2 C 0 km/h
1274 23-04-2009 14:55:34 16.7 C 4.69 g/m*3 16.7 C 0 km/h
1275 23-04-2009 15:07:34 17.9 C 4.43 g/m*3 17.9 C 0 km/h
Sensor: Nr:Datum:Temp:Abs-Feuchte:Windchill:Wind:
Aussen-T/F 1276 23-04-2009 15:19:34 18.5 C 3.64 g/m*3 18.5 C 0 km/h
1277 23-04-2009 15:31:34 17.5 C 3.88 g/m*3 17.5 C 0 km/h
1278 23-04-2009 15:43:34 18 C 3.84 g/m*3 18 C 0 km/h
1279 23-04-2009 15:55:33 18.1 C 3.55 g/m*3 18.1 C 0 km/h
1280 23-04-2009 16:07:33 16.6 C 3.81 g/m*3 16.6 C 0 km/h
1281 23-04-2009 16:19:34 17.7 C 3.92 g/m*3 17.7 C 0 km/h
1282 23-04-2009 16:31:33 18.1 C 3.71 g/m*3 18.1 C 0 km/h
1283 23-04-2009 16:43:33 19.5 C 3.86 g/m*3 19.5 C 0 km/h
1284 23-04-2009 16:55:33 18.1 C 3.4 g/m*3 18.1 C 0 km/h
1285 23-04-2009 17:07:33 20.1 C 3.65 g/m*3 20.1 C 0 km/h
1286 23-04-2009 17:19:33 20.4 C 3.71 g/m*3 20.4 C 0 km/h
1287 23-04-2009 17:31:32 19.7 C 3.57 g/m*3 19.7 C 0 km/h
1288 23-04-2009 17:43:32 18.6 C 3.82 g/m*3 18.6 C 0 km/h
1289 23-04-2009 17:55:33 18.1 C 4.02 g/m*3 18.1 C 0 km/h
1290 23-04-2009 18:07:32 17.7 C 4.07 g/m*3 17.7 C 0 km/h
1291 23-04-2009 18:19:32 17.7 C 4.07 g/m*3 17.7 C 0 km/h
1292 23-04-2009 18:31:32 17.4 C 4.15 g/m*3 17.4 C 0 km/h
1293 23-04-2009 18:43:32 17.1 C 4.08 g/m*3 17.1 C 0 km/h
1294 23-04-2009 18:55:32 16.9 C 4.31 g/m*3 16.9 C 0 km/h
1295 23-04-2009 19:07:32 17.9 C 4.12 g/m*3 17.9 C 0 km/h
1296 23-04-2009 19:19:31 18.1 C 4.17 g/m*3 18.1 C 0 km/h
1297 23-04-2009 19:31:32 16.6 C 4.1 g/m*3 16.6 C 0 km/h
1298 23-04-2009 19:43:33 15.4 C 4.2 g/m*3 15.4 C 0 km/h
1299 23-04-2009 19:55:31 14.3 C 4.55 g/m*3 14.3 C 0 km/h
1300 23-04-2009 20:07:31 14 C 4.58 g/m*3 14 C 0 km/h
Sensor: Nr:Datum:Temp:Abs-Feuchte:Windchill:Wind:
Aussen-T/F 1301 23-04-2009 20:19:31 13.5 C 4.68 g/m*3 13.5 C 0 km/h
1302 23-04-2009 20:31:31 13.4 C 4.65 g/m*3 13.4 C 0 km/h
1303 23-04-2009 20:43:31 13.2 C 4.59 g/m*3 13.2 C 0 km/h
1304 23-04-2009 20:55:30 12.6 C 4.76 g/m*3 12.6 C 0 km/h
1305 23-04-2009 21:07:31 12.2 C 4.75 g/m*3 12.2 C 0 km/h
1306 23-04-2009 21:19:30 12.1 C 4.93 g/m*3 12.1 C 0 km/h
1307 23-04-2009 21:31:31 11.8 C 5.16 g/m*3 11.8 C 0 km/h
1308 23-04-2009 21:43:32 11.7 C 5.23 g/m*3 11.7 C 0 km/h
1309 23-04-2009 21:55:30 11.2 C 5.17 g/m*3 11.2 C 0 km/h
1310 23-04-2009 22:07:30 11.2 C 5.27 g/m*3 11.2 C 0 km/h
1311 23-04-2009 22:19:30 11 C 5.2 g/m*3 11 C 0 km/h
1312 23-04-2009 22:32:31 10.5 C 5.24 g/m*3 10.5 C 0 km/h
1313 23-04-2009 22:44:31 10.4 C 5.4 g/m*3 10.4 C 0 km/h
1314 23-04-2009 22:56:31 10.1 C 5.39 g/m*3 10.1 C 0 km/h
1315 23-04-2009 23:08:32 9.9 C 5.51 g/m*3 9.9 C 0 km/h
1316 23-04-2009 23:20:32 9.6 C 5.5 g/m*3 9.6 C 0 km/h
1317 23-04-2009 23:32:32 9.5 C 5.55 g/m*3 9.5 C 0 km/h
1318 23-04-2009 23:44:32 9.3 C 5.57 g/m*3 9.3 C 0 km/h
1319 23-04-2009 23:56:32 9.2 C 5.63 g/m*3 9.2 C 0 km/h
1320 24-04-2009 00:08:32 9 C 5.64 g/m*3 9 C 0 km/h
1321 24-04-2009 00:20:32 8.7 C 5.62 g/m*3 8.7 C 0 km/h
1322 24-04-2009 00:32:32 8.6 C 5.67 g/m*3 8.6 C 0 km/h
1323 24-04-2009 00:44:32 8.5 C 5.72 g/m*3 8.5 C 0 km/h
1324 24-04-2009 00:56:32 8.3 C 5.82 g/m*3 8.3 C 0 km/h
1325 24-04-2009 01:08:32 8.1 C 5.74 g/m*3 8.1 C 0 km/h
Sensor: Nr:Datum:Temp:Abs-Feuchte:Windchill:Wind:
Aussen-T/F 1326 24-04-2009 01:20:32 7.9 C 5.75 g/m*3 7.9 C 0 km/h
1327 24-04-2009 01:32:32 8.1 C 5.82 g/m*3 8.1 C 0 km/h
1328 24-04-2009 01:44:32 8.3 C 5.98 g/m*3 8.3 C 0 km/h
1329 24-04-2009 01:56:32 8.2 C 6.03 g/m*3 8.2 C 0 km/h
1330 24-04-2009 02:08:32 8.1 C 5.91 g/m*3 8.1 C 0 km/h
1331 24-04-2009 02:20:32 8.1 C 5.99 g/m*3 8.1 C 0 km/h
1332 24-04-2009 02:32:32 8.2 C 5.95 g/m*3 8.2 C 0 km/h
1333 24-04-2009 02:44:32 7.9 C 5.91 g/m*3 7.9 C 0 km/h
1334 24-04-2009 02:56:33 7.9 C 6 g/m*3 7.9 C 0 km/h
1335 24-04-2009 03:08:33 8 C 5.95 g/m*3 8 C 0 km/h
1336 24-04-2009 03:20:33 7.7 C 5.92 g/m*3 7.7 C 0 km/h
1337 24-04-2009 03:32:33 7.3 C 5.85 g/m*3 7.3 C 0 km/h
1338 24-04-2009 03:44:33 7 C 5.97 g/m*3 7 C 0 km/h
1339 24-04-2009 03:56:33 6.6 C 5.96 g/m*3 6.6 C 0 km/h
1340 24-04-2009 04:08:33 6.5 C 5.92 g/m*3 6.5 C 0 km/h
1341 24-04-2009 04:20:33 6.4 C 5.96 g/m*3 6.4 C 0 km/h
1342 24-04-2009 04:32:33 6.7 C 6.23 g/m*3 6.7 C 0 km/h
1343 24-04-2009 04:44:33 6.9 C 6.24 g/m*3 6.9 C 0 km/h
1344 24-04-2009 04:56:33 7 C 6.2 g/m*3 7 C 0 km/h
1345 24-04-2009 05:08:33 6.9 C 6.24 g/m*3 6.9 C 0 km/h
1346 24-04-2009 05:20:33 7 C 6.12 g/m*3 7 C 0 km/h
1347 24-04-2009 05:32:33 7 C 6.12 g/m*3 7 C 0 km/h
1348 24-04-2009 05:44:33 7.2 C 6.12 g/m*3 7.2 C 0 km/h
1349 24-04-2009 05:56:33 7.1 C 6.01 g/m*3 7.1 C 0 km/h
1350 24-04-2009 06:08:33 7 C 5.97 g/m*3 7 C 0 km/h
Sensor: Nr:Datum:Temp:Abs-Feuchte:Windchill:Wind:
Aussen-T/F 1351 24-04-2009 06:20:33 7 C 5.97 g/m*3 7 C 0 km/h
1352 24-04-2009 06:32:31 6.8 C 6.04 g/m*3 6.8 C 0 km/h
1353 24-04-2009 06:44:31 6.9 C 6.08 g/m*3 6.9 C 0 km/h
1354 24-04-2009 06:56:31 6.9 C 6 g/m*3 6.9 C 0 km/h
1355 24-04-2009 07:08:31 6.9 C 6 g/m*3 6.9 C 0 km/h
1356 24-04-2009 07:20:30 6.9 C 6 g/m*3 6.9 C 0 km/h
1357 24-04-2009 07:32:31 7 C 6.04 g/m*3 7 C 0 km/h
1358 24-04-2009 07:44:30 7.1 C 6.08 g/m*3 7.1 C 0 km/h
1359 24-04-2009 07:56:30 7.3 C 6.16 g/m*3 7.3 C 0 km/h
1360 24-04-2009 08:08:30 7.4 C 6.2 g/m*3 7.4 C 0 km/h
1361 24-04-2009 08:20:30 7.6 C 6.2 g/m*3 7.6 C 0 km/h
1362 24-04-2009 08:32:30 7.9 C 6.32 g/m*3 7.9 C 0 km/h
1363 24-04-2009 08:44:29 8.1 C 6.16 g/m*3 8.1 C 0 km/h
1364 24-04-2009 08:56:29 8.3 C 6.15 g/m*3 8.3 C 0 km/h
1365 24-04-2009 09:08:29 8.7 C 6.23 g/m*3 8.7 C 0 km/h
1366 24-04-2009 09:20:30 9.1 C 6.03 g/m*3 9.1 C 0 km/h
1367 24-04-2009 09:32:29 9.5 C 6.01 g/m*3 9.5 C 0 km/h
1368 24-04-2009 09:44:29 9.9 C 5.98 g/m*3 9.9 C 0 km/h
1369 24-04-2009 09:56:29 10.4 C 5.98 g/m*3 10.4 C 0 km/h
1370 24-04-2009 10:08:29 10.8 C 5.83 g/m*3 10.8 C 0 km/h
1371 24-04-2009 10:20:29 11.3 C 5.81 g/m*3 11.3 C 0 km/h
1372 24-04-2009 10:32:29 11.8 C 5.79 g/m*3 11.8 C 0 km/h
1373 24-04-2009 10:44:29 12.4 C 5.68 g/m*3 12.4 C 0 km/h
1374 24-04-2009 10:56:29 13 C 5.44 g/m*3 13 C 0 km/h
1375 24-04-2009 11:08:29 13.3 C 5.31 g/m*3 13.3 C 0 km/h
Sensor: Nr:Datum:Temp:Abs-Feuchte:Windchill:Wind:
Aussen-T/F 1376 24-04-2009 11:20:28 13.8 C 5.36 g/m*3 13.8 C 0 km/h
1377 24-04-2009 11:32:28 14.3 C 5.41 g/m*3 14.3 C 0 km/h
1378 24-04-2009 11:44:28 14.8 C 5.32 g/m*3 14.8 C 0 km/h
1379 24-04-2009 11:56:28 15.3 C 5.09 g/m*3 15.3 C 0 km/h
1380 24-04-2009 12:08:28 15.5 C 5.02 g/m*3 15.5 C 0 km/h
1381 24-04-2009 12:20:27 15.6 C 4.79 g/m*3 15.6 C 0 km/h
1382 24-04-2009 12:32:28 16.2 C 4.83 g/m*3 16.2 C 0 km/h
1383 24-04-2009 12:44:27 16.8 C 4.72 g/m*3 16.8 C 0 km/h
1384 24-04-2009 12:56:27 17.4 C 4.45 g/m*3 17.4 C 0 km/h
1385 24-04-2009 13:08:27 18.3 C 3.91 g/m*3 18.3 C 0 km/h
1386 24-04-2009 13:20:28 19.2 C 3.3 g/m*3 19.2 C 0 km/h
1387 24-04-2009 13:32:27 19.6 C 3.38 g/m*3 19.6 C 0 km/h
1388 24-04-2009 13:44:27 19.6 C 3.38 g/m*3 19.6 C 0 km/h
1389 24-04-2009 13:56:27 19.5 C 3.36 g/m*3 19.5 C 0 km/h
1390 24-04-2009 14:08:27 19.9 C 3.44 g/m*3 19.9 C 0 km/h
1391 24-04-2009 14:20:27 20.6 C 3.58 g/m*3 20.6 C 0 km/h
1392 24-04-2009 14:32:26 21 C 3.66 g/m*3 21 C 0 km/h
1393 24-04-2009 14:44:26 20.8 C 3.62 g/m*3 20.8 C 0 km/h
1394 24-04-2009 14:56:26 21 C 3.66 g/m*3 21 C 0 km/h
1395 24-04-2009 15:08:26 21.8 C 3.84 g/m*3 21.8 C 0 km/h
1396 24-04-2009 15:20:26 22.3 C 3.95 g/m*3 22.3 C 0 km/h
1397 24-04-2009 15:32:26 22.8 C 4.06 g/m*3 22.8 C 0 km/h
1398 24-04-2009 15:44:26 22.9 C 4.09 g/m*3 22.9 C 0 km/h
1399 24-04-2009 15:56:26 23.7 C 4.28 g/m*3 23.7 C 0 km/h
1400 24-04-2009 16:08:26 23.1 C 4.13 g/m*3 23.1 C 0 km/h
Sensor: Nr:Datum:Temp:Abs-Feuchte:Windchill:Wind:
Aussen-T/F 1401 24-04-2009 16:20:25 24.2 C 4.4 g/m*3 24.2 C 0 km/h
1402 24-04-2009 16:32:25 24 C 4.35 g/m*3 24 C 0 km/h
1403 24-04-2009 16:44:25 24.4 C 4.45 g/m*3 24.4 C 0 km/h
1404 24-04-2009 16:56:25 23.6 C 4.25 g/m*3 23.6 C 0 km/h
1405 24-04-2009 17:08:25 23.6 C 4.25 g/m*3 23.6 C 0 km/h
1406 24-04-2009 17:20:24 24.1 C 4.38 g/m*3 24.1 C 0 km/h
1407 24-04-2009 17:32:25 24.2 C 4.4 g/m*3 24.2 C 0 km/h
1408 24-04-2009 17:44:24 24.4 C 4.45 g/m*3 24.4 C 0 km/h
1409 24-04-2009 17:56:24 24.5 C 4.48 g/m*3 24.5 C 0 km/h
1410 24-04-2009 18:08:24 24.8 C 4.55 g/m*3 24.8 C 0 km/h
1411 24-04-2009 18:20:25 24.2 C 4.4 g/m*3 24.2 C 0 km/h
1412 24-04-2009 18:32:24 24.2 C 4.4 g/m*3 24.2 C 0 km/h
1413 24-04-2009 18:44:24 24.5 C 4.48 g/m*3 24.5 C 0 km/h
1414 24-04-2009 18:56:24 24.4 C 4.45 g/m*3 24.4 C 0 km/h
1415 24-04-2009 19:08:24 24.1 C 4.38 g/m*3 24.1 C 0 km/h
1416 24-04-2009 19:20:24 24.1 C 4.38 g/m*3 24.1 C 0 km/h
1417 24-04-2009 19:32:23 22.9 C 4.09 g/m*3 22.9 C 0 km/h
1418 24-04-2009 19:44:24 22.7 C 4.04 g/m*3 22.7 C 0 km/h
1419 24-04-2009 19:56:24 22.2 C 4.32 g/m*3 22.2 C 0 km/h
1420 24-04-2009 20:08:23 20.9 C 4.55 g/m*3 20.9 C 0 km/h
1421 24-04-2009 20:20:23 19.6 C 4.9 g/m*3 19.6 C 0 km/h
1422 24-04-2009 20:32:23 18.4 C 4.88 g/m*3 18.4 C 0 km/h
1423 24-04-2009 20:44:23 17.3 C 4.86 g/m*3 17.3 C 0 km/h
1424 24-04-2009 20:56:23 16.6 C 4.94 g/m*3 16.6 C 0 km/h
1425 24-04-2009 21:08:23 15.9 C 5.01 g/m*3 15.9 C 0 km/h
Sensor: Nr:Datum:Temp:Abs-Feuchte:Windchill:Wind:
Aussen-T/F 1426 24-04-2009 21:20:23 15.4 C 4.99 g/m*3 15.4 C 0 km/h
1427 24-04-2009 21:32:22 15.1 C 5.16 g/m*3 15.1 C 0 km/h
1428 24-04-2009 21:44:22 15 C 5.13 g/m*3 15 C 0 km/h
1429 24-04-2009 21:56:22 14.8 C 5.19 g/m*3 14.8 C 0 km/h
1430 24-04-2009 22:09:22 14.5 C 5.22 g/m*3 14.5 C 0 km/h
1431 24-04-2009 22:21:22 14.2 C 5.25 g/m*3 14.2 C 0 km/h
1432 24-04-2009 22:33:22 14.1 C 5.46 g/m*3 14.1 C 0 km/h
1433 24-04-2009 22:45:23 14 C 5.31 g/m*3 14 C 0 km/h
1434 24-04-2009 22:57:23 13.7 C 5.33 g/m*3 13.7 C 0 km/h
1435 24-04-2009 23:09:23 13.3 C 5.43 g/m*3 13.3 C 0 km/h
1436 24-04-2009 23:21:23 13.1 C 5.48 g/m*3 13.1 C 0 km/h
1437 24-04-2009 23:33:23 13.1 C 5.71 g/m*3 13.1 C 0 km/h
1438 24-04-2009 23:45:23 12.8 C 5.82 g/m*3 12.8 C 0 km/h
1439 24-04-2009 23:57:23 12.4 C 5.79 g/m*3 12.4 C 0 km/h
1440 25-04-2009 00:09:23 12.2 C 5.83 g/m*3 12.2 C 0 km/h
1441 25-04-2009 00:21:23 11.9 C 6.04 g/m*3 11.9 C 0 km/h
1442 25-04-2009 00:33:23 11.4 C 6.06 g/m*3 11.4 C 0 km/h
1443 25-04-2009 00:45:23 11.3 C 6.12 g/m*3 11.3 C 0 km/h
1444 25-04-2009 00:57:23 11 C 6.01 g/m*3 11 C 0 km/h
1445 25-04-2009 01:09:23 10.9 C 6.07 g/m*3 10.9 C 0 km/h
1446 25-04-2009 01:21:23 10.7 C 6.09 g/m*3 10.7 C 0 km/h
1447 25-04-2009 01:33:23 10.4 C 6.07 g/m*3 10.4 C 0 km/h
1448 25-04-2009 01:45:23 10.3 C 6.03 g/m*3 10.3 C 0 km/h
1449 25-04-2009 01:57:23 10.1 C 6.05 g/m*3 10.1 C 0 km/h
1450 25-04-2009 02:09:23 9.8 C 6.12 g/m*3 9.8 C 0 km/h
Sensor: Nr:Datum:Temp:Abs-Feuchte:Windchill:Wind:
Aussen-T/F 1451 25-04-2009 02:21:23 9.6 C 6.05 g/m*3 9.6 C 0 km/h
1452 25-04-2009 02:33:23 9.4 C 6.15 g/m*3 9.4 C 0 km/h
1453 25-04-2009 02:45:24 9.1 C 6.12 g/m*3 9.1 C 0 km/h
1454 25-04-2009 02:57:24 8.9 C 6.22 g/m*3 8.9 C 0 km/h
1455 25-04-2009 03:09:24 8.7 C 6.14 g/m*3 8.7 C 0 km/h
1456 25-04-2009 03:21:24 8.6 C 6.1 g/m*3 8.6 C 0 km/h
1457 25-04-2009 03:33:24 8.4 C 6.11 g/m*3 8.4 C 0 km/h
1458 25-04-2009 03:45:24 8.4 C 6.11 g/m*3 8.4 C 0 km/h
1459 25-04-2009 03:57:24 8.1 C 6.07 g/m*3 8.1 C 0 km/h
1460 25-04-2009 04:09:24 8.2 C 6.2 g/m*3 8.2 C 0 km/h
1461 25-04-2009 04:21:24 8.1 C 6.57 g/m*3 8.1 C 0 km/h
1462 25-04-2009 04:33:24 7.8 C 6.86 g/m*3 7.8 C 0 km/h
1463 25-04-2009 04:45:24 7.3 C 6.79 g/m*3 7.3 C 0 km/h
1464 25-04-2009 04:57:24 7.4 C 6.92 g/m*3 7.4 C 0 km/h
1465 25-04-2009 05:09:24 7.3 C 6.87 g/m*3 7.3 C 0 km/h
1466 25-04-2009 05:21:24 7.4 C 7 g/m*3 7.4 C 0 km/h
1467 25-04-2009 05:33:24 7.2 C 6.91 g/m*3 7.2 C 0 km/h
1468 25-04-2009 05:45:24 6.9 C 6.77 g/m*3 6.9 C 0 km/h
1469 25-04-2009 05:57:24 6.9 C 6.77 g/m*3 6.9 C 0 km/h
1470 25-04-2009 06:09:24 6.6 C 6.64 g/m*3 6.6 C 0 km/h
1471 25-04-2009 06:21:24 6.5 C 6.6 g/m*3 6.5 C 0 km/h
1472 25-04-2009 06:33:24 6.4 C 6.56 g/m*3 6.4 C 0 km/h
1473 25-04-2009 06:45:24 6.4 C 6.56 g/m*3 6.4 C 0 km/h
1474 25-04-2009 06:57:25 6.3 C 6.51 g/m*3 6.3 C 0 km/h
1475 25-04-2009 07:09:25 6.3 C 6.51 g/m*3 6.3 C 0 km/h
Sensor: Nr:Datum:Temp:Abs-Feuchte:Windchill:Wind:
Aussen-T/F 1476 25-04-2009 07:21:22 6.4 C 6.63 g/m*3 6.4 C 0 km/h
1477 25-04-2009 07:33:22 6.5 C 6.67 g/m*3 6.5 C 0 km/h
1478 25-04-2009 07:45:21 6.7 C 6.76 g/m*3 6.7 C 0 km/h
1479 25-04-2009 07:57:21 7 C 6.82 g/m*3 7 C 0 km/h
1480 25-04-2009 08:09:22 7.1 C 6.94 g/m*3 7.1 C 0 km/h
1481 25-04-2009 08:21:21 7.5 C 7.12 g/m*3 7.5 C 0 km/h
1482 25-04-2009 08:33:21 7.7 C 7.22 g/m*3 7.7 C 0 km/h
1483 25-04-2009 08:45:21 8 C 7.28 g/m*3 8 C 0 km/h
1484 25-04-2009 08:57:21 8.5 C 7.51 g/m*3 8.5 C 0 km/h
1485 25-04-2009 09:09:20 8.9 C 7.62 g/m*3 8.9 C 0 km/h
1486 25-04-2009 09:21:21 9.6 C 7.88 g/m*3 9.6 C 0 km/h
1487 25-04-2009 09:33:20 10.4 C 8.1 g/m*3 10.4 C 0 km/h
1488 25-04-2009 09:45:20 11.3 C 8.16 g/m*3 11.3 C 0 km/h
1489 25-04-2009 09:57:20 12.1 C 8.26 g/m*3 12.1 C 0 km/h
1490 25-04-2009 10:09:20 13 C 7.94 g/m*3 13 C 0 km/h
1491 25-04-2009 10:21:20 14.1 C 6.67 g/m*3 14.1 C 0 km/h
1492 25-04-2009 10:33:20 15.3 C 6.01 g/m*3 15.3 C 0 km/h
1493 25-04-2009 10:45:20 15.8 C 6.06 g/m*3 15.8 C 0 km/h
1494 25-04-2009 10:57:20 16.3 C 5.97 g/m*3 16.3 C 0 km/h
1495 25-04-2009 11:09:20 16.9 C 6.04 g/m*3 16.9 C 0 km/h
1496 25-04-2009 11:21:19 16.6 C 6.07 g/m*3 16.6 C 0 km/h
1497 25-04-2009 11:33:19 16.6 C 6.22 g/m*3 16.6 C 0 km/h
1498 25-04-2009 11:45:19 16.3 C 6.24 g/m*3 16.3 C 0 km/h
1499 25-04-2009 11:57:19 17.3 C 6.33 g/m*3 17.3 C 0 km/h
1500 25-04-2009 12:09:19 17.8 C 6.37 g/m*3 17.8 C 0 km/h
Sensor: Nr:Datum:Temp:Abs-Feuchte:Windchill:Wind:
Aussen-T/F 1501 25-04-2009 12:21:18 17.6 C 6.45 g/m*3 17.6 C 0 km/h
1502 25-04-2009 12:33:19 18.1 C 6.49 g/m*3 18.1 C 0 km/h
1503 25-04-2009 12:45:19 18.3 C 6.41 g/m*3 18.3 C 0 km/h
1504 25-04-2009 12:57:19 18.5 C 6.49 g/m*3 18.5 C 0 km/h
1505 25-04-2009 13:09:18 18.8 C 6.44 g/m*3 18.8 C 0 km/h
1506 25-04-2009 13:21:19 18.9 C 6.32 g/m*3 18.9 C 0 km/h
1507 25-04-2009 13:33:18 19.5 C 6.38 g/m*3 19.5 C 0 km/h
1508 25-04-2009 13:45:18 19.6 C 6.42 g/m*3 19.6 C 0 km/h
1509 25-04-2009 13:57:18 19.9 C 6.53 g/m*3 19.9 C 0 km/h
1510 25-04-2009 14:09:18 20.3 C 6.51 g/m*3 20.3 C 0 km/h
1511 25-04-2009 14:21:18 20.3 C 6.51 g/m*3 20.3 C 0 km/h
1512 25-04-2009 14:33:17 20.9 C 6.74 g/m*3 20.9 C 0 km/h
1513 25-04-2009 14:45:17 20.7 C 6.48 g/m*3 20.7 C 0 km/h
1514 25-04-2009 14:57:17 19.9 C 6.36 g/m*3 19.9 C 0 km/h
1515 25-04-2009 15:09:17 19.5 C 6.55 g/m*3 19.5 C 0 km/h
1516 25-04-2009 15:21:17 19.9 C 6.53 g/m*3 19.9 C 0 km/h
1517 25-04-2009 15:33:17 20.8 C 6.34 g/m*3 20.8 C 0 km/h
1518 25-04-2009 15:45:17 21.7 C 6.29 g/m*3 21.7 C 0 km/h
1519 25-04-2009 15:57:17 21.8 C 6.14 g/m*3 21.8 C 0 km/h
1520 25-04-2009 16:09:17 21.5 C 6.03 g/m*3 21.5 C 0 km/h
1521 25-04-2009 16:21:16 21.6 C 6.07 g/m*3 21.6 C 0 km/h
1522 25-04-2009 16:33:16 22 C 6.02 g/m*3 22 C 0 km/h
1523 25-04-2009 16:45:16 21 C 6.23 g/m*3 21 C 0 km/h
1524 25-04-2009 16:57:16 20.9 C 6.37 g/m*3 20.9 C 0 km/h
1525 25-04-2009 17:09:16 20.9 C 6.56 g/m*3 20.9 C 0 km/h
Sensor: Nr:Datum:Temp:Abs-Feuchte:Windchill:Wind:
Aussen-T/F 1526 25-04-2009 17:21:15 20.6 C 6.44 g/m*3 20.6 C 0 km/h
1527 25-04-2009 17:33:16 21.4 C 6.37 g/m*3 21.4 C 0 km/h
1528 25-04-2009 17:45:16 22.1 C 6.05 g/m*3 22.1 C 0 km/h
1529 25-04-2009 17:57:16 22.7 C 6.26 g/m*3 22.7 C 0 km/h
1530 25-04-2009 18:09:15 22.4 C 6.16 g/m*3 22.4 C 0 km/h
1531 25-04-2009 18:21:16 22.7 C 6.26 g/m*3 22.7 C 0 km/h
1532 25-04-2009 18:33:15 22.4 C 6.16 g/m*3 22.4 C 0 km/h
1533 25-04-2009 18:45:15 22.9 C 6.34 g/m*3 22.9 C 0 km/h
1534 25-04-2009 18:57:15 22.6 C 6.03 g/m*3 22.6 C 0 km/h
1535 25-04-2009 19:09:15 23.2 C 6.24 g/m*3 23.2 C 0 km/h
1536 25-04-2009 19:21:15 23.7 C 6.42 g/m*3 23.7 C 0 km/h
1537 25-04-2009 19:33:15 23.2 C 6.24 g/m*3 23.2 C 0 km/h
1538 25-04-2009 19:45:15 22.2 C 6.87 g/m*3 22.2 C 0 km/h
1539 25-04-2009 19:57:15 21.2 C 7.04 g/m*3 21.2 C 0 km/h
1540 25-04-2009 20:09:14 20.2 C 7.17 g/m*3 20.2 C 0 km/h
1541 25-04-2009 20:21:14 19.3 C 7.3 g/m*3 19.3 C 0 km/h
1542 25-04-2009 20:33:14 18.6 C 7.48 g/m*3 18.6 C 0 km/h
1543 25-04-2009 20:45:14 18.2 C 7.46 g/m*3 18.2 C 0 km/h
1544 25-04-2009 20:57:14 17.6 C 7.35 g/m*3 17.6 C 0 km/h
1545 25-04-2009 21:09:14 17.2 C 7.32 g/m*3 17.2 C 0 km/h
1546 25-04-2009 21:21:14 17 C 7.52 g/m*3 17 C 0 km/h
1547 25-04-2009 21:33:13 17 C 7.52 g/m*3 17 C 0 km/h
1548 25-04-2009 21:45:14 17 C 7.52 g/m*3 17 C 0 km/h
1549 25-04-2009 21:57:14 17 C 7.52 g/m*3 17 C 0 km/h
1550 25-04-2009 22:10:14 16.5 C 7.58 g/m*3 16.5 C 0 km/h
Sensor: Nr:Datum:Temp:Abs-Feuchte:Windchill:Wind:
Aussen-T/F 1551 25-04-2009 22:22:14 16.4 C 7.54 g/m*3 16.4 C 0 km/h
1552 25-04-2009 22:34:14 16.1 C 7.54 g/m*3 16.1 C 0 km/h
1553 25-04-2009 22:46:14 16.1 C 7.54 g/m*3 16.1 C 0 km/h
1554 25-04-2009 22:58:14 16 C 7.63 g/m*3 16 C 0 km/h
1555 25-04-2009 23:10:14 15.6 C 7.98 g/m*3 15.6 C 0 km/h
1556 25-04-2009 23:22:14 15.1 C 7.87 g/m*3 15.1 C 0 km/h
1557 25-04-2009 23:34:14 14.9 C 7.9 g/m*3 14.9 C 0 km/h
1558 25-04-2009 23:46:15 15 C 7.82 g/m*3 15 C 0 km/h
1559 25-04-2009 23:58:15 14.9 C 8.03 g/m*3 14.9 C 0 km/h
1560 26-04-2009 00:10:15 14.8 C 7.98 g/m*3 14.8 C 0 km/h
1561 26-04-2009 00:22:15 14.9 C 8.16 g/m*3 14.9 C 0 km/h
1562 26-04-2009 00:34:15 14.8 C 8.11 g/m*3 14.8 C 0 km/h
1563 26-04-2009 00:46:15 14.8 C 8.23 g/m*3 14.8 C 0 km/h
1564 26-04-2009 00:58:15 14.7 C 8.18 g/m*3 14.7 C 0 km/h
1565 26-04-2009 01:10:15 14.2 C 8.06 g/m*3 14.2 C 0 km/h
1566 26-04-2009 01:22:15 14 C 8.08 g/m*3 14 C 0 km/h
1567 26-04-2009 01:34:15 14 C 8.2 g/m*3 14 C 0 km/h
1568 26-04-2009 01:46:15 14.1 C 8.25 g/m*3 14.1 C 0 km/h
1569 26-04-2009 01:58:15 14 C 8.08 g/m*3 14 C 0 km/h
1570 26-04-2009 02:10:15 14.1 C 8.25 g/m*3 14.1 C 0 km/h
1571 26-04-2009 02:22:15 14 C 8.2 g/m*3 14 C 0 km/h
1572 26-04-2009 02:34:15 14 C 8.2 g/m*3 14 C 0 km/h
1573 26-04-2009 02:46:15 14 C 8.08 g/m*3 14 C 0 km/h
1574 26-04-2009 02:58:15 13.9 C 8.15 g/m*3 13.9 C 0 km/h
1575 26-04-2009 03:10:15 13.8 C 8.22 g/m*3 13.8 C 0 km/h
Sensor: Nr:Datum:Temp:Abs-Feuchte:Windchill:Wind:
Aussen-T/F 1576 26-04-2009 03:22:15 13.7 C 8.17 g/m*3 13.7 C 0 km/h
1577 26-04-2009 03:34:15 13.6 C 8.12 g/m*3 13.6 C 0 km/h
1578 26-04-2009 03:46:16 13.5 C 8.07 g/m*3 13.5 C 0 km/h
1579 26-04-2009 03:58:16 13.4 C 8.14 g/m*3 13.4 C 0 km/h
1580 26-04-2009 04:10:16 13.4 C 8.25 g/m*3 13.4 C 0 km/h
1581 26-04-2009 04:22:16 13.3 C 8.2 g/m*3 13.3 C 0 km/h
1582 26-04-2009 04:34:16 13.2 C 8.15 g/m*3 13.2 C 0 km/h
1583 26-04-2009 04:46:16 13 C 8.05 g/m*3 13 C 0 km/h
1584 26-04-2009 04:58:16 13.1 C 8.22 g/m*3 13.1 C 0 km/h
1585 26-04-2009 05:10:16 13 C 8.17 g/m*3 13 C 0 km/h
1586 26-04-2009 05:22:16 12.9 C 8.23 g/m*3 12.9 C 0 km/h
1587 26-04-2009 05:34:16 12.8 C 8.29 g/m*3 12.8 C 0 km/h
1588 26-04-2009 05:46:16 12.8 C 8.18 g/m*3 12.8 C 0 km/h
1589 26-04-2009 05:58:16 12.6 C 8.19 g/m*3 12.6 C 0 km/h
1590 26-04-2009 06:10:16 12.4 C 8.09 g/m*3 12.4 C 0 km/h
1591 26-04-2009 06:22:16 12.2 C 8.2 g/m*3 12.2 C 0 km/h
1592 26-04-2009 06:34:16 12 C 8.1 g/m*3 12 C 0 km/h
1593 26-04-2009 06:46:15 11.9 C 8.26 g/m*3 11.9 C 0 km/h
1594 26-04-2009 06:58:15 11.7 C 8.37 g/m*3 11.7 C 0 km/h
1595 26-04-2009 07:10:14 11.8 C 8.42 g/m*3 11.8 C 0 km/h
1596 26-04-2009 07:22:14 11.8 C 8.42 g/m*3 11.8 C 0 km/h
1597 26-04-2009 07:34:14 11.8 C 8.42 g/m*3 11.8 C 0 km/h
1598 26-04-2009 07:46:14 12.2 C 8.63 g/m*3 12.2 C 0 km/h
1599 26-04-2009 07:58:14 12.3 C 8.58 g/m*3 12.3 C 0 km/h
1600 26-04-2009 08:10:13 12.6 C 8.63 g/m*3 12.6 C 0 km/h
Sensor: Nr:Datum:Temp:Abs-Feuchte:Windchill:Wind:
Aussen-T/F 1601 26-04-2009 08:22:14 12.9 C 8.68 g/m*3 12.9 C 0 km/h
1602 26-04-2009 08:34:13 13.3 C 8.78 g/m*3 13.3 C 0 km/h
1603 26-04-2009 08:46:14 13.6 C 8.71 g/m*3 13.6 C 0 km/h
1604 26-04-2009 08:58:14 14.2 C 8.55 g/m*3 14.2 C 0 km/h
1605 26-04-2009 09:10:13 14.9 C 8.54 g/m*3 14.9 C 0 km/h
1606 26-04-2009 09:22:13 15.1 C 8.39 g/m*3 15.1 C 0 km/h
1607 26-04-2009 09:34:13 15.9 C 8.53 g/m*3 15.9 C 0 km/h
1608 26-04-2009 09:46:13 16.4 C 8.23 g/m*3 16.4 C 0 km/h
1609 26-04-2009 09:58:13 16.8 C 8.29 g/m*3 16.8 C 0 km/h
1610 26-04-2009 10:10:12 17.2 C 8.05 g/m*3 17.2 C 0 km/h
1611 26-04-2009 10:22:13 17.2 C 8.05 g/m*3 17.2 C 0 km/h
1612 26-04-2009 10:34:13 17.5 C 8.2 g/m*3 17.5 C 0 km/h
1613 26-04-2009 10:46:12 17.1 C 8.01 g/m*3 17.1 C 0 km/h
1614 26-04-2009 10:58:12 17.7 C 8.3 g/m*3 17.7 C 0 km/h
1615 26-04-2009 11:10:12 17.8 C 8.2 g/m*3 17.8 C 0 km/h
1616 26-04-2009 11:22:12 18.4 C 8.18 g/m*3 18.4 C 0 km/h
1617 26-04-2009 11:34:12 19.1 C 7.54 g/m*3 19.1 C 0 km/h
1618 26-04-2009 11:46:11 20.1 C 7.47 g/m*3 20.1 C 0 km/h
1619 26-04-2009 11:58:11 20.4 C 7.08 g/m*3 20.4 C 0 km/h
1620 26-04-2009 12:10:12 20.5 C 6.94 g/m*3 20.5 C 0 km/h
1621 26-04-2009 12:22:11 21.1 C 6.82 g/m*3 21.1 C 0 km/h
1622 26-04-2009 12:34:11 21.8 C 6.72 g/m*3 21.8 C 0 km/h
1623 26-04-2009 12:46:11 22.3 C 6.52 g/m*3 22.3 C 0 km/h
1624 26-04-2009 12:58:11 22 C 6.21 g/m*3 22 C 0 km/h
1625 26-04-2009 13:10:11 22.6 C 6.63 g/m*3 22.6 C 0 km/h
Sensor: Nr:Datum:Temp:Abs-Feuchte:Windchill:Wind:
Aussen-T/F 1626 26-04-2009 13:22:11 23.5 C 6.34 g/m*3 23.5 C 0 km/h
1627 26-04-2009 13:34:10 24.3 C 6.2 g/m*3 24.3 C 0 km/h
1628 26-04-2009 13:46:11 24.1 C 5.91 g/m*3 24.1 C 0 km/h
1629 26-04-2009 13:58:11 24.3 C 6.2 g/m*3 24.3 C 0 km/h
1630 26-04-2009 14:10:10 22.8 C 5.49 g/m*3 22.8 C 0 km/h
1631 26-04-2009 14:22:10 23.9 C 5.62 g/m*3 23.9 C 0 km/h
1632 26-04-2009 14:34:10 24.6 C 5.85 g/m*3 24.6 C 0 km/h
1633 26-04-2009 14:46:10 25.4 C 5.89 g/m*3 25.4 C 0 km/h
1634 26-04-2009 14:58:11 25.5 C 5.68 g/m*3 25.5 C 0 km/h
1635 26-04-2009 15:10:09 25.1 C 5.56 g/m*3 25.1 C 0 km/h
1636 26-04-2009 15:22:10 25.2 C 5.82 g/m*3 25.2 C 0 km/h
1637 26-04-2009 15:34:10 25.7 C 5.51 g/m*3 25.7 C 0 km/h
1638 26-04-2009 15:46:09 24.7 C 5.66 g/m*3 24.7 C 0 km/h
1639 26-04-2009 15:58:09 24 C 5.66 g/m*3 24 C 0 km/h
1640 26-04-2009 16:10:10 23.5 C 5.71 g/m*3 23.5 C 0 km/h
1641 26-04-2009 16:22:09 26 C 5.6 g/m*3 26 C 0 km/h
1642 26-04-2009 16:34:09 27.5 C 5.29 g/m*3 27.5 C 0 km/h
1643 26-04-2009 16:46:08 26.5 C 5.01 g/m*3 26.5 C 0 km/h
1644 26-04-2009 16:58:08 27.7 C 5.35 g/m*3 27.7 C 0 km/h
1645 26-04-2009 17:10:09 26.8 C 5.09 g/m*3 26.8 C 0 km/h
1646 26-04-2009 17:22:08 28 C 5.44 g/m*3 28 C 0 km/h
1647 26-04-2009 17:34:08 28.2 C 5.5 g/m*3 28.2 C 0 km/h
1648 26-04-2009 17:46:08 29.5 C 5.9 g/m*3 29.5 C 0 km/h
1649 26-04-2009 17:58:08 28.5 C 5.59 g/m*3 28.5 C 0 km/h
1650 26-04-2009 18:10:08 26.7 C 5.06 g/m*3 26.7 C 0 km/h
Sensor: Nr:Datum:Temp:Abs-Feuchte:Windchill:Wind:
Aussen-T/F 1651 26-04-2009 18:22:08 27.1 C 5.18 g/m*3 27.1 C 0 km/h
1652 26-04-2009 18:34:07 26.4 C 4.98 g/m*3 26.4 C 0 km/h
1653 26-04-2009 18:46:08 25.1 C 5.79 g/m*3 25.1 C 0 km/h
1654 26-04-2009 18:58:08 24.1 C 5.69 g/m*3 24.1 C 0 km/h
1655 26-04-2009 19:10:07 23.6 C 6.17 g/m*3 23.6 C 0 km/h
1656 26-04-2009 19:22:07 22.7 C 6.26 g/m*3 22.7 C 0 km/h
1657 26-04-2009 19:34:07 22.2 C 6.28 g/m*3 22.2 C 0 km/h
1658 26-04-2009 19:46:07 21.8 C 6.52 g/m*3 21.8 C 0 km/h
1659 26-04-2009 19:58:07 21.3 C 6.52 g/m*3 21.3 C 0 km/h
1660 26-04-2009 20:10:06 21.1 C 6.63 g/m*3 21.1 C 0 km/h
1661 26-04-2009 20:22:07 20.7 C 6.84 g/m*3 20.7 C 0 km/h
1662 26-04-2009 20:34:07 20.2 C 6.82 g/m*3 20.2 C 0 km/h
1663 26-04-2009 20:46:06 20.1 C 7.13 g/m*3 20.1 C 0 km/h
1664 26-04-2009 20:58:06 19.6 C 7.09 g/m*3 19.6 C 0 km/h
1665 26-04-2009 21:10:06 19.5 C 7.05 g/m*3 19.5 C 0 km/h
1666 26-04-2009 21:22:06 19.3 C 7.13 g/m*3 19.3 C 0 km/h
1667 26-04-2009 21:34:06 19.2 C 7.42 g/m*3 19.2 C 0 km/h
1668 26-04-2009 21:46:06 18.8 C 7.73 g/m*3 18.8 C 0 km/h
1669 26-04-2009 21:58:07 17.7 C 8.6 g/m*3 17.7 C 0 km/h
1670 26-04-2009 22:10:05 16.6 C 9.46 g/m*3 16.6 C 0 km/h
1671 26-04-2009 22:22:06 16.3 C 10.13 g/m*3 16.3 C 0 km/h
1672 26-04-2009 22:34:06 15.9 C 9.62 g/m*3 15.9 C 0 km/h
1673 26-04-2009 22:47:05 15.6 C 9.97 g/m*3 15.6 C 0 km/h
1674 26-04-2009 22:59:05 15.4 C 10.25 g/m*3 15.4 C 0 km/h
1675 26-04-2009 23:11:05 15.4 C 10.25 g/m*3 15.4 C 0 km/h
Sensor: Nr:Datum:Temp:Abs-Feuchte:Windchill:Wind:
Aussen-T/F 1676 26-04-2009 23:23:05 15.6 C 10.24 g/m*3 15.6 C 0 km/h
1677 26-04-2009 23:35:05 15.8 C 9.83 g/m*3 15.8 C 0 km/h
1678 26-04-2009 23:47:06 16 C 9.67 g/m*3 16 C 0 km/h
1679 26-04-2009 23:59:06 15.9 C 9.75 g/m*3 15.9 C 0 km/h
1680 27-04-2009 00:11:06 16 C 9.67 g/m*3 16 C 0 km/h
1681 27-04-2009 00:23:06 15.8 C 9.69 g/m*3 15.8 C 0 km/h
1682 27-04-2009 00:35:06 15.7 C 9.63 g/m*3 15.7 C 0 km/h
1683 27-04-2009 00:47:06 15.7 C 9.63 g/m*3 15.7 C 0 km/h
1684 27-04-2009 00:59:06 15.7 C 9.63 g/m*3 15.7 C 0 km/h
1685 27-04-2009 01:11:06 15.5 C 9.52 g/m*3 15.5 C 0 km/h
1686 27-04-2009 01:23:06 15.3 C 9.53 g/m*3 15.3 C 0 km/h
1687 27-04-2009 01:35:06 15 C 9.36 g/m*3 15 C 0 km/h
1688 27-04-2009 01:47:06 14.9 C 9.43 g/m*3 14.9 C 0 km/h
1689 27-04-2009 01:59:06 14.7 C 9.32 g/m*3 14.7 C 0 km/h
1690 27-04-2009 02:11:06 14.5 C 9.08 g/m*3 14.5 C 0 km/h
1691 27-04-2009 02:23:06 14.2 C 9.04 g/m*3 14.2 C 0 km/h
1692 27-04-2009 02:35:06 14 C 8.93 g/m*3 14 C 0 km/h
1693 27-04-2009 02:47:06 14.1 C 8.86 g/m*3 14.1 C 0 km/h
1694 27-04-2009 02:59:06 14.1 C 8.74 g/m*3 14.1 C 0 km/h
1695 27-04-2009 03:11:06 14.1 C 8.62 g/m*3 14.1 C 0 km/h
1696 27-04-2009 03:23:06 14.1 C 8.5 g/m*3 14.1 C 0 km/h
1697 27-04-2009 03:35:06 14.1 C 8.5 g/m*3 14.1 C 0 km/h
1698 27-04-2009 03:47:07 14 C 8.32 g/m*3 14 C 0 km/h
1699 27-04-2009 03:59:07 13.8 C 8.34 g/m*3 13.8 C 0 km/h
1700 27-04-2009 04:11:07 14 C 8.32 g/m*3 14 C 0 km/h
Sensor: Nr:Datum:Temp:Abs-Feuchte:Windchill:Wind:
Aussen-T/F 1701 27-04-2009 04:23:07 12.8 C 8.62 g/m*3 12.8 C 0 km/h
1702 27-04-2009 04:35:07 12.6 C 9.18 g/m*3 12.6 C 0 km/h
1703 27-04-2009 04:47:07 12.1 C 9.01 g/m*3 12.1 C 0 km/h
1704 27-04-2009 04:59:07 11.5 C 8.99 g/m*3 11.5 C 0 km/h
1705 27-04-2009 05:11:07 11.5 C 8.99 g/m*3 11.5 C 0 km/h
1706 27-04-2009 05:23:07 11.8 C 9.26 g/m*3 11.8 C 0 km/h
1707 27-04-2009 05:35:07 11.9 C 9.32 g/m*3 11.9 C 0 km/h
1708 27-04-2009 05:47:07 11.8 C 9.16 g/m*3 11.8 C 0 km/h
1709 27-04-2009 05:59:07 11.5 C 8.88 g/m*3 11.5 C 0 km/h
1710 27-04-2009 06:11:07 11.3 C 8.77 g/m*3 11.3 C 0 km/h
1711 27-04-2009 06:23:07 11.5 C 8.88 g/m*3 11.5 C 0 km/h
1712 27-04-2009 06:35:07 11.7 C 8.99 g/m*3 11.7 C 0 km/h
1713 27-04-2009 06:47:07 12 C 9.06 g/m*3 12 C 0 km/h
1714 27-04-2009 06:59:07 12.1 C 9.01 g/m*3 12.1 C 0 km/h
1715 27-04-2009 07:11:05 12.1 C 8.79 g/m*3 12.1 C 0 km/h
1716 27-04-2009 07:23:05 12.2 C 8.74 g/m*3 12.2 C 0 km/h
1717 27-04-2009 07:35:05 12.4 C 8.85 g/m*3 12.4 C 0 km/h
1718 27-04-2009 07:47:04 12.7 C 8.68 g/m*3 12.7 C 0 km/h
1719 27-04-2009 07:59:04 12.7 C 8.68 g/m*3 12.7 C 0 km/h
1720 27-04-2009 08:11:05 13 C 8.51 g/m*3 13 C 0 km/h
1721 27-04-2009 08:23:04 13.1 C 8.1 g/m*3 13.1 C 0 km/h
1722 27-04-2009 08:35:04 13.4 C 8.14 g/m*3 13.4 C 0 km/h
1723 27-04-2009 08:47:04 13.6 C 8.12 g/m*3 13.6 C 0 km/h
1724 27-04-2009 08:59:04 13.5 C 7.84 g/m*3 13.5 C 0 km/h
1725 27-04-2009 09:11:04 13.2 C 7.46 g/m*3 13.2 C 0 km/h
Sensor: Nr:Datum:Temp:Abs-Feuchte:Windchill:Wind:
Aussen-T/F 1726 27-04-2009 09:23:04 13.1 C 7.53 g/m*3 13.1 C 0 km/h
1727 27-04-2009 09:35:04 13.2 C 7.46 g/m*3 13.2 C 0 km/h
1728 27-04-2009 09:47:03 13.4 C 7.44 g/m*3 13.4 C 0 km/h
1729 27-04-2009 09:59:03 14 C 7.24 g/m*3 14 C 0 km/h
1730 27-04-2009 10:11:04 14.5 C 7.09 g/m*3 14.5 C 0 km/h
1731 27-04-2009 10:23:03 14.7 C 6.92 g/m*3 14.7 C 0 km/h
1732 27-04-2009 10:35:03 14.4 C 6.55 g/m*3 14.4 C 0 km/h
1733 27-04-2009 10:47:03 14.6 C 6.63 g/m*3 14.6 C 0 km/h
1734 27-04-2009 10:59:03 14.8 C 6.46 g/m*3 14.8 C 0 km/h
1735 27-04-2009 11:11:03 14.8 C 6.33 g/m*3 14.8 C 0 km/h
1736 27-04-2009 11:23:02 14.9 C 6.12 g/m*3 14.9 C 0 km/h
1737 27-04-2009 11:35:03 15.5 C 6.08 g/m*3 15.5 C 0 km/h
1738 27-04-2009 11:47:02 14.9 C 6.12 g/m*3 14.9 C 0 km/h
1739 27-04-2009 11:59:02 15.5 C 5.95 g/m*3 15.5 C 0 km/h
1740 27-04-2009 12:11:02 15.6 C 5.72 g/m*3 15.6 C 0 km/h
1741 27-04-2009 12:23:01 15.3 C 5.75 g/m*3 15.3 C 0 km/h
1742 27-04-2009 12:35:02 15.4 C 5.91 g/m*3 15.4 C 0 km/h
1743 27-04-2009 12:47:02 15.5 C 5.95 g/m*3 15.5 C 0 km/h
1744 27-04-2009 12:59:02 15.6 C 5.98 g/m*3 15.6 C 0 km/h
1745 27-04-2009 13:11:01 15.4 C 5.78 g/m*3 15.4 C 0 km/h
1746 27-04-2009 13:23:02 15.4 C 5.91 g/m*3 15.4 C 0 km/h
1747 27-04-2009 13:35:01 15.7 C 6.15 g/m*3 15.7 C 0 km/h
1748 27-04-2009 13:47:01 16.6 C 5.93 g/m*3 16.6 C 0 km/h
1749 27-04-2009 13:59:01 16.2 C 5.79 g/m*3 16.2 C 0 km/h
1750 27-04-2009 14:11:01 17 C 5.93 g/m*3 17 C 0 km/h
Sensor: Nr:Datum:Temp:Abs-Feuchte:Windchill:Wind:
Aussen-T/F 1751 27-04-2009 14:23:01 16.6 C 5.65 g/m*3 16.6 C 0 km/h
1752 27-04-2009 14:35:01 16.4 C 5.58 g/m*3 16.4 C 0 km/h
1753 27-04-2009 14:47:01 16.6 C 5.51 g/m*3 16.6 C 0 km/h
1754 27-04-2009 14:59:01 16.6 C 5.37 g/m*3 16.6 C 0 km/h
1755 27-04-2009 15:11:01 16.6 C 5.37 g/m*3 16.6 C 0 km/h
1756 27-04-2009 15:23:00 16.6 C 5.65 g/m*3 16.6 C 0 km/h
1757 27-04-2009 15:35:00 17 C 5.5 g/m*3 17 C 0 km/h
1758 27-04-2009 15:47:00 17.1 C 5.24 g/m*3 17.1 C 0 km/h
1759 27-04-2009 15:59:00 17.2 C 5.27 g/m*3 17.2 C 0 km/h
1760 27-04-2009 16:11:00 18.5 C 5.38 g/m*3 18.5 C 0 km/h
1761 27-04-2009 16:23:59 18 C 5.38 g/m*3 18 C 0 km/h
1762 27-04-2009 16:35:00 17.4 C 5.19 g/m*3 17.4 C 0 km/h
1763 27-04-2009 16:47:59 17.2 C 5.13 g/m*3 17.2 C 0 km/h
1764 27-04-2009 16:59:59 17.6 C 5.25 g/m*3 17.6 C 0 km/h
1765 27-04-2009 17:11:59 18 C 5.22 g/m*3 18 C 0 km/h
1766 27-04-2009 17:23:59 19.3 C 4.98 g/m*3 19.3 C 0 km/h
1767 27-04-2009 17:35:02 19.2 C 4.78 g/m*3 19.2 C 0 km/h
1768 27-04-2009 17:47:01 19.3 C 4.98 g/m*3 19.3 C 0 km/h
1769 27-04-2009 17:59:01 19.3 C 4.64 g/m*3 19.3 C 0 km/h
1770 27-04-2009 18:11:01 19.8 C 5.12 g/m*3 19.8 C 0 km/h
1771 27-04-2009 18:23:01 19.6 C 4.9 g/m*3 19.6 C 0 km/h
1772 27-04-2009 18:35:01 18.4 C 5.03 g/m*3 18.4 C 0 km/h
1773 27-04-2009 18:47:01 18.1 C 5.1 g/m*3 18.1 C 0 km/h
1774 27-04-2009 18:59:01 18 C 4.92 g/m*3 18 C 0 km/h
1775 27-04-2009 19:11:01 17.8 C 5.16 g/m*3 17.8 C 0 km/h
Sensor: Nr:Datum:Temp:Abs-Feuchte:Windchill:Wind:
Aussen-T/F 1776 27-04-2009 19:23:00 18 C 5.07 g/m*3 18 C 0 km/h
1777 27-04-2009 19:35:01 17.2 C 5.13 g/m*3 17.2 C 0 km/h
1778 27-04-2009 19:47:00 16.9 C 5.32 g/m*3 16.9 C 0 km/h
1779 27-04-2009 19:59:00 16.7 C 5.54 g/m*3 16.7 C 0 km/h
1780 27-04-2009 20:11:00 16.2 C 5.52 g/m*3 16.2 C 0 km/h
1781 27-04-2009 20:22:59 15.8 C 5.92 g/m*3 15.8 C 0 km/h
1782 27-04-2009 20:35:00 15.4 C 5.91 g/m*3 15.4 C 0 km/h
1783 27-04-2009 20:47:59 14.9 C 5.86 g/m*3 14.9 C 0 km/h
1784 27-04-2009 20:59:59 14.3 C 5.9 g/m*3 14.3 C 0 km/h
1785 27-04-2009 21:11:59 14.2 C 6.11 g/m*3 14.2 C 0 km/h
1786 27-04-2009 21:23:00 14.3 C 6.14 g/m*3 14.3 C 0 km/h
1787 27-04-2009 21:35:59 14.3 C 6.14 g/m*3 14.3 C 0 km/h
1788 27-04-2009 21:48:01 14.1 C 6.07 g/m*3 14.1 C 0 km/h
1789 27-04-2009 22:00:01 14.1 C 6.07 g/m*3 14.1 C 0 km/h
1790 27-04-2009 22:12:01 14.1 C 6.19 g/m*3 14.1 C 0 km/h
1791 27-04-2009 22:24:01 14.1 C 6.19 g/m*3 14.1 C 0 km/h
1792 27-04-2009 22:36:01 13.2 C 6.89 g/m*3 13.2 C 0 km/h
1793 27-04-2009 22:48:01 12.6 C 7.19 g/m*3 12.6 C 0 km/h
1794 27-04-2009 23:00:01 12.5 C 7.37 g/m*3 12.5 C 0 km/h
1795 27-04-2009 23:12:01 12.8 C 7.06 g/m*3 12.8 C 0 km/h
1796 27-04-2009 23:24:01 12.9 C 6.99 g/m*3 12.9 C 0 km/h
1797 27-04-2009 23:36:01 12.4 C 6.99 g/m*3 12.4 C 0 km/h
1798 27-04-2009 23:48:01 12 C 7.25 g/m*3 12 C 0 km/h
1799 28-04-2009 00:00:01 12.4 C 7.43 g/m*3 12.4 C 0 km/h
1800 28-04-2009 00:12:01 12.5 C 7.48 g/m*3 12.5 C 0 km/h
Sensor: Nr:Datum:Temp:Abs-Feuchte:Windchill:Wind:
Aussen-T/F 1801 28-04-2009 00:24:01 12.1 C 7.29 g/m*3 12.1 C 0 km/h
1802 28-04-2009 00:36:01 11.5 C 7.23 g/m*3 11.5 C 0 km/h
1803 28-04-2009 00:48:01 10.8 C 7.71 g/m*3 10.8 C 0 km/h
1804 28-04-2009 01:00:01 10.7 C 8.05 g/m*3 10.7 C 0 km/h
1805 28-04-2009 01:12:01 10.6 C 8.2 g/m*3 10.6 C 0 km/h
1806 28-04-2009 01:24:01 10.5 C 8.24 g/m*3 10.5 C 0 km/h
1807 28-04-2009 01:36:01 10.5 C 8.34 g/m*3 10.5 C 0 km/h
1808 28-04-2009 01:48:02 10.6 C 8.49 g/m*3 10.6 C 0 km/h
1809 28-04-2009 02:00:02 10.7 C 8.55 g/m*3 10.7 C 0 km/h
1810 28-04-2009 02:12:02 10.7 C 8.55 g/m*3 10.7 C 0 km/h
1811 28-04-2009 02:24:02 10.8 C 8.6 g/m*3 10.8 C 0 km/h
1812 28-04-2009 02:36:02 10.9 C 8.65 g/m*3 10.9 C 0 km/h
1813 28-04-2009 02:48:02 10.6 C 8.49 g/m*3 10.6 C 0 km/h
1814 28-04-2009 03:00:02 10.5 C 8.53 g/m*3 10.5 C 0 km/h
1815 28-04-2009 03:12:02 10.5 C 8.63 g/m*3 10.5 C 0 km/h
1816 28-04-2009 03:24:02 10.6 C 8.69 g/m*3 10.6 C 0 km/h
1817 28-04-2009 03:36:02 10.6 C 8.69 g/m*3 10.6 C 0 km/h
1818 28-04-2009 03:48:02 10.5 C 8.63 g/m*3 10.5 C 0 km/h
1819 28-04-2009 04:00:02 10.5 C 8.63 g/m*3 10.5 C 0 km/h
1820 28-04-2009 04:12:02 10.4 C 8.67 g/m*3 10.4 C 0 km/h
1821 28-04-2009 04:24:02 10.4 C 8.58 g/m*3 10.4 C 0 km/h
1822 28-04-2009 04:36:02 10.2 C 8.56 g/m*3 10.2 C 0 km/h
1823 28-04-2009 04:48:02 10.4 C 8.67 g/m*3 10.4 C 0 km/h
1824 28-04-2009 05:00:02 10.2 C 8.56 g/m*3 10.2 C 0 km/h
1825 28-04-2009 05:12:02 10.3 C 8.62 g/m*3 10.3 C 0 km/h
Sensor: Nr:Datum:Temp:Abs-Feuchte:Windchill:Wind:
Aussen-T/F 1826 28-04-2009 05:24:02 10.1 C 8.51 g/m*3 10.1 C 0 km/h
1827 28-04-2009 05:36:02 10.1 C 8.51 g/m*3 10.1 C 0 km/h
1828 28-04-2009 05:48:03 10.2 C 8.56 g/m*3 10.2 C 0 km/h
1829 28-04-2009 06:00:03 10.1 C 8.51 g/m*3 10.1 C 0 km/h
1830 28-04-2009 06:12:03 10.1 C 8.61 g/m*3 10.1 C 0 km/h
1831 28-04-2009 06:24:03 10 C 8.55 g/m*3 10 C 0 km/h
1832 28-04-2009 06:36:00 9.9 C 8.59 g/m*3 9.9 C 0 km/h
1833 28-04-2009 06:48:00 9.9 C 8.59 g/m*3 9.9 C 0 km/h
1834 28-04-2009 07:00:00 10 C 8.55 g/m*3 10 C 0 km/h
1835 28-04-2009 07:12:00 10.2 C 8.66 g/m*3 10.2 C 0 km/h
1836 28-04-2009 07:24:00 10.2 C 8.66 g/m*3 10.2 C 0 km/h
1837 28-04-2009 07:36:00 10.3 C 8.71 g/m*3 10.3 C 0 km/h
1838 28-04-2009 07:48:59 10.3 C 8.71 g/m*3 10.3 C 0 km/h
1839 28-04-2009 08:00:00 10.4 C 8.77 g/m*3 10.4 C 0 km/h
1840 28-04-2009 08:12:01 10.5 C 8.83 g/m*3 10.5 C 0 km/h
1841 28-04-2009 08:24:59 10.5 C 8.83 g/m*3 10.5 C 0 km/h
1842 28-04-2009 08:36:59 10.8 C 8.99 g/m*3 10.8 C 0 km/h
1843 28-04-2009 08:48:59 10.9 C 9.05 g/m*3 10.9 C 0 km/h
1844 28-04-2009 09:00:59 10.9 C 9.05 g/m*3 10.9 C 0 km/h
1845 28-04-2009 09:12:59 11 C 9.01 g/m*3 11 C 0 km/h
1846 28-04-2009 09:24:59 11 C 9.01 g/m*3 11 C 0 km/h
1847 28-04-2009 09:36:58 10.8 C 8.9 g/m*3 10.8 C 0 km/h
1848 28-04-2009 09:48:59 10.8 C 8.9 g/m*3 10.8 C 0 km/h
1849 28-04-2009 10:00:58 11 C 9.01 g/m*3 11 C 0 km/h
1850 28-04-2009 10:12:58 11.1 C 9.07 g/m*3 11.1 C 0 km/h
Sensor: Nr:Datum:Temp:Abs-Feuchte:Windchill:Wind:
Aussen-T/F 1851 28-04-2009 10:24:58 11.1 C 9.07 g/m*3 11.1 C 0 km/h
1852 28-04-2009 10:36:58 11.5 C 9.3 g/m*3 11.5 C 0 km/h
1853 28-04-2009 10:48:58 11.4 C 9.24 g/m*3 11.4 C 0 km/h
1854 28-04-2009 11:00:57 11.5 C 9.3 g/m*3 11.5 C 0 km/h
1855 28-04-2009 11:12:57 11.2 C 9.02 g/m*3 11.2 C 0 km/h
1856 28-04-2009 11:24:58 11.3 C 9.08 g/m*3 11.3 C 0 km/h
1857 28-04-2009 11:36:58 11.5 C 9.19 g/m*3 11.5 C 0 km/h
1858 28-04-2009 11:48:57 11.6 C 9.15 g/m*3 11.6 C 0 km/h
1859 28-04-2009 12:00:58 11.9 C 9.32 g/m*3 11.9 C 0 km/h
1860 28-04-2009 12:12:58 11.6 C 9.04 g/m*3 11.6 C 0 km/h
1861 28-04-2009 12:24:57 12.1 C 9.22 g/m*3 12.1 C 0 km/h
1862 28-04-2009 12:36:57 12.2 C 9.06 g/m*3 12.2 C 0 km/h
1863 28-04-2009 12:48:57 12.6 C 9.29 g/m*3 12.6 C 0 km/h
1864 28-04-2009 13:00:57 12.8 C 9.3 g/m*3 12.8 C 0 km/h
1865 28-04-2009 13:12:57 12.7 C 9.24 g/m*3 12.7 C 0 km/h
1866 28-04-2009 13:24:56 12.7 C 9.02 g/m*3 12.7 C 0 km/h
1867 28-04-2009 13:36:56 11.5 C 8.47 g/m*3 11.5 C 0 km/h
1868 28-04-2009 13:48:56 10.4 C 7.9 g/m*3 10.4 C 0 km/h
1869 28-04-2009 14:00:56 10.5 C 7.95 g/m*3 10.5 C 0 km/h
1870 28-04-2009 14:12:56 10.5 C 8.05 g/m*3 10.5 C 0 km/h
1871 28-04-2009 14:24:56 10.7 C 8.05 g/m*3 10.7 C 0 km/h
1872 28-04-2009 14:36:56 11.5 C 8.06 g/m*3 11.5 C 0 km/h
1873 28-04-2009 14:48:56 11.6 C 7.8 g/m*3 11.6 C 0 km/h
1874 28-04-2009 15:00:55 11.5 C 7.64 g/m*3 11.5 C 0 km/h
1875 28-04-2009 15:12:55 11.5 C 7.44 g/m*3 11.5 C 0 km/h
Sensor: Nr:Datum:Temp:Abs-Feuchte:Windchill:Wind:
Aussen-T/F 1876 28-04-2009 15:24:56 11.6 C 7.48 g/m*3 11.6 C 0 km/h
1877 28-04-2009 15:36:55 11.9 C 7.52 g/m*3 11.9 C 0 km/h
1878 28-04-2009 15:48:55 11.9 C 7.52 g/m*3 11.9 C 0 km/h
1879 28-04-2009 16:00:55 12.1 C 7.4 g/m*3 12.1 C 0 km/h
1880 28-04-2009 16:12:55 12.2 C 7.34 g/m*3 12.2 C 0 km/h
1881 28-04-2009 16:24:55 12.5 C 7.26 g/m*3 12.5 C 0 km/h
1882 28-04-2009 16:36:54 13.1 C 7.07 g/m*3 13.1 C 0 km/h
1883 28-04-2009 16:48:55 13.3 C 6.82 g/m*3 13.3 C 0 km/h
1884 28-04-2009 17:00:55 13.4 C 6.74 g/m*3 13.4 C 0 km/h
1885 28-04-2009 17:12:55 13.6 C 6.59 g/m*3 13.6 C 0 km/h
1886 28-04-2009 17:24:54 13.4 C 6.39 g/m*3 13.4 C 0 km/h
1887 28-04-2009 17:36:54 13.3 C 6.47 g/m*3 13.3 C 0 km/h
1888 28-04-2009 17:48:54 13.4 C 6.51 g/m*3 13.4 C 0 km/h
1889 28-04-2009 18:00:54 13.2 C 6.09 g/m*3 13.2 C 0 km/h
1890 28-04-2009 18:12:54 13.2 C 6.2 g/m*3 13.2 C 0 km/h
1891 28-04-2009 18:24:53 12.9 C 5.97 g/m*3 12.9 C 0 km/h
1892 28-04-2009 18:36:54 13 C 6.12 g/m*3 13 C 0 km/h
1893 28-04-2009 18:48:53 13.1 C 6.28 g/m*3 13.1 C 0 km/h
1894 28-04-2009 19:00:53 12.9 C 6.2 g/m*3 12.9 C 0 km/h
1895 28-04-2009 19:12:53 12.9 C 6.88 g/m*3 12.9 C 0 km/h
1896 28-04-2009 19:24:53 12.8 C 7.17 g/m*3 12.8 C 0 km/h
1897 28-04-2009 19:36:53 12.8 C 7.17 g/m*3 12.8 C 0 km/h
1898 28-04-2009 19:48:52 12.7 C 7.01 g/m*3 12.7 C 0 km/h
1899 28-04-2009 20:00:53 12.6 C 7.08 g/m*3 12.6 C 0 km/h
1900 28-04-2009 20:12:53 12.5 C 7.04 g/m*3 12.5 C 0 km/h
Sensor: Nr:Datum:Temp:Abs-Feuchte:Windchill:Wind:
Aussen-T/F 1901 28-04-2009 20:24:53 11.6 C 6.96 g/m*3 11.6 C 0 km/h
1902 28-04-2009 20:36:52 10.8 C 6.92 g/m*3 10.8 C 0 km/h
1903 28-04-2009 20:48:53 10.1 C 6.71 g/m*3 10.1 C 0 km/h
1904 28-04-2009 21:00:52 9.6 C 6.69 g/m*3 9.6 C 0 km/h
1905 28-04-2009 21:12:52 9.2 C 6.79 g/m*3 9.2 C 0 km/h
1906 28-04-2009 21:24:52 9.1 C 6.83 g/m*3 9.1 C 0 km/h
1907 28-04-2009 21:36:52 9.2 C 6.88 g/m*3 9.2 C 0 km/h
1908 28-04-2009 21:49:53 9.3 C 6.92 g/m*3 9.3 C 0 km/h
1909 28-04-2009 22:01:53 9.2 C 6.88 g/m*3 9.2 C 0 km/h
1910 28-04-2009 22:13:53 9.1 C 7.01 g/m*3 9.1 C 0 km/h
1911 28-04-2009 22:25:53 9 C 6.96 g/m*3 9 C 0 km/h
1912 28-04-2009 22:37:53 8.9 C 7.01 g/m*3 8.9 C 0 km/h
1913 28-04-2009 22:49:53 8.6 C 6.87 g/m*3 8.6 C 0 km/h
1914 28-04-2009 23:01:53 8.7 C 6.92 g/m*3 8.7 C 0 km/h
1915 28-04-2009 23:13:53 8.8 C 6.96 g/m*3 8.8 C 0 km/h
1916 28-04-2009 23:25:53 8.9 C 7.01 g/m*3 8.9 C 0 km/h
1917 28-04-2009 23:37:53 8.8 C 6.96 g/m*3 8.8 C 0 km/h
1918 28-04-2009 23:49:53 8.7 C 6.92 g/m*3 8.7 C 0 km/h
1919 29-04-2009 00:01:53 8.6 C 6.96 g/m*3 8.6 C 0 km/h
1920 29-04-2009 00:13:53 8.6 C 6.96 g/m*3 8.6 C 0 km/h
1921 29-04-2009 00:25:53 8.6 C 7.05 g/m*3 8.6 C 0 km/h
1922 29-04-2009 00:37:53 8.5 C 7 g/m*3 8.5 C 0 km/h
1923 29-04-2009 00:49:54 8.4 C 7.04 g/m*3 8.4 C 0 km/h
1924 29-04-2009 01:01:54 8.4 C 7.04 g/m*3 8.4 C 0 km/h
1925 29-04-2009 01:13:54 8.3 C 7 g/m*3 8.3 C 0 km/h
Sensor: Nr:Datum:Temp:Abs-Feuchte:Windchill:Wind:
Aussen-T/F 1926 29-04-2009 01:25:54 8.2 C 6.95 g/m*3 8.2 C 0 km/h
1927 29-04-2009 01:37:54 8.1 C 6.91 g/m*3 8.1 C 0 km/h
1928 29-04-2009 01:49:54 8 C 6.86 g/m*3 8 C 0 km/h
1929 29-04-2009 02:01:54 7.9 C 6.9 g/m*3 7.9 C 0 km/h
1930 29-04-2009 02:13:54 7.7 C 6.81 g/m*3 7.7 C 0 km/h
1931 29-04-2009 02:25:54 7.7 C 6.89 g/m*3 7.7 C 0 km/h
1932 29-04-2009 02:37:54 7.6 C 6.85 g/m*3 7.6 C 0 km/h
1933 29-04-2009 02:49:54 7.4 C 6.76 g/m*3 7.4 C 0 km/h
1934 29-04-2009 03:01:54 7.3 C 6.79 g/m*3 7.3 C 0 km/h
1935 29-04-2009 03:13:54 7.3 C 6.87 g/m*3 7.3 C 0 km/h
1936 29-04-2009 03:25:54 7.3 C 6.87 g/m*3 7.3 C 0 km/h
1937 29-04-2009 03:37:54 7.2 C 6.83 g/m*3 7.2 C 0 km/h
1938 29-04-2009 03:49:54 7.2 C 6.83 g/m*3 7.2 C 0 km/h
1939 29-04-2009 04:01:54 7.1 C 6.79 g/m*3 7.1 C 0 km/h
1940 29-04-2009 04:13:54 6.9 C 6.77 g/m*3 6.9 C 0 km/h
1941 29-04-2009 04:25:54 6.9 C 6.77 g/m*3 6.9 C 0 km/h
1942 29-04-2009 04:37:54 6.8 C 6.73 g/m*3 6.8 C 0 km/h
1943 29-04-2009 04:49:55 6.7 C 6.69 g/m*3 6.7 C 0 km/h
1944 29-04-2009 05:01:55 6.6 C 6.72 g/m*3 6.6 C 0 km/h
1945 29-04-2009 05:13:55 6.6 C 6.72 g/m*3 6.6 C 0 km/h
1946 29-04-2009 05:25:55 7 C 6.9 g/m*3 7 C 0 km/h
1947 29-04-2009 05:37:55 7.2 C 6.99 g/m*3 7.2 C 0 km/h
1948 29-04-2009 05:49:55 7.3 C 7.11 g/m*3 7.3 C 0 km/h
1949 29-04-2009 06:01:55 7.1 C 6.94 g/m*3 7.1 C 0 km/h
1950 29-04-2009 06:13:55 7 C 6.97 g/m*3 7 C 0 km/h
Sensor: Nr:Datum:Temp:Abs-Feuchte:Windchill:Wind:
Aussen-T/F 1951 29-04-2009 06:25:55 6.9 C 6.93 g/m*3 6.9 C 0 km/h
1952 29-04-2009 06:37:55 7 C 6.97 g/m*3 7 C 0 km/h
1953 29-04-2009 06:49:55 7 C 6.97 g/m*3 7 C 0 km/h
1954 29-04-2009 07:01:55 7 C 6.97 g/m*3 7 C 0 km/h
1955 29-04-2009 07:13:55 7.1 C 7.02 g/m*3 7.1 C 0 km/h
1956 29-04-2009 07:25:53 7.4 C 7.16 g/m*3 7.4 C 0 km/h
1957 29-04-2009 07:37:52 7.6 C 7.25 g/m*3 7.6 C 0 km/h
1958 29-04-2009 07:49:52 7.8 C 7.26 g/m*3 7.8 C 0 km/h
1959 29-04-2009 08:01:52 8 C 7.19 g/m*3 8 C 0 km/h
1960 29-04-2009 08:13:52 8.1 C 7.07 g/m*3 8.1 C 0 km/h
1961 29-04-2009 08:25:52 8.1 C 6.99 g/m*3 8.1 C 0 km/h
1962 29-04-2009 08:37:51 8.2 C 7.03 g/m*3 8.2 C 0 km/h
1963 29-04-2009 08:49:51 8.5 C 7.17 g/m*3 8.5 C 0 km/h
1964 29-04-2009 09:01:51 8.7 C 7.18 g/m*3 8.7 C 0 km/h
1965 29-04-2009 09:13:51 9.3 C 7.28 g/m*3 9.3 C 0 km/h
1966 29-04-2009 09:25:51 9.7 C 7.28 g/m*3 9.7 C 0 km/h
1967 29-04-2009 09:37:51 10.3 C 7.28 g/m*3 10.3 C 0 km/h
1968 29-04-2009 09:49:51 10.8 C 7.31 g/m*3 10.8 C 0 km/h
1969 29-04-2009 10:01:50 11.5 C 7.33 g/m*3 11.5 C 0 km/h
1970 29-04-2009 10:13:50 12.2 C 7.45 g/m*3 12.2 C 0 km/h
1971 29-04-2009 10:25:51 12.9 C 7.44 g/m*3 12.9 C 0 km/h
1972 29-04-2009 10:37:50 13.2 C 7.23 g/m*3 13.2 C 0 km/h
1973 29-04-2009 10:49:50 13.5 C 7.25 g/m*3 13.5 C 0 km/h
1974 29-04-2009 11:01:50 14.1 C 7.04 g/m*3 14.1 C 0 km/h
1975 29-04-2009 11:13:50 14.7 C 6.92 g/m*3 14.7 C 0 km/h
Sensor: Nr:Datum:Temp:Abs-Feuchte:Windchill:Wind:
Aussen-T/F 1976 29-04-2009 11:25:50 15.5 C 6.87 g/m*3 15.5 C 0 km/h
1977 29-04-2009 11:37:50 15.5 C 6.74 g/m*3 15.5 C 0 km/h
1978 29-04-2009 11:49:50 16.3 C 6.66 g/m*3 16.3 C 0 km/h
1979 29-04-2009 12:01:50 16.6 C 6.5 g/m*3 16.6 C 0 km/h
1980 29-04-2009 12:13:50 16.4 C 5.44 g/m*3 16.4 C 0 km/h
1981 29-04-2009 12:25:49 17.3 C 5.6 g/m*3 17.3 C 0 km/h
1982 29-04-2009 12:37:50 17 C 5.35 g/m*3 17 C 0 km/h
1983 29-04-2009 12:49:49 17.9 C 5.65 g/m*3 17.9 C 0 km/h
1984 29-04-2009 13:01:49 18.5 C 5.22 g/m*3 18.5 C 0 km/h
1985 29-04-2009 13:13:50 18.6 C 4.93 g/m*3 18.6 C 0 km/h
1986 29-04-2009 13:25:49 18.3 C 5 g/m*3 18.3 C 0 km/h
1987 29-04-2009 13:37:49 18.5 C 4.59 g/m*3 18.5 C 0 km/h
1988 29-04-2009 13:49:48 18.1 C 3.86 g/m*3 18.1 C 0 km/h
1989 29-04-2009 14:01:48 17.9 C 4.12 g/m*3 17.9 C 0 km/h
1990 29-04-2009 14:13:48 17.5 C 4.47 g/m*3 17.5 C 0 km/h
1991 29-04-2009 14:25:49 18.5 C 4.75 g/m*3 18.5 C 0 km/h
1992 29-04-2009 14:37:48 18.6 C 4.77 g/m*3 18.6 C 0 km/h
1993 29-04-2009 14:49:48 20.3 C 5.1 g/m*3 20.3 C 0 km/h
1994 29-04-2009 15:01:48 20.2 C 4.37 g/m*3 20.2 C 0 km/h
1995 29-04-2009 15:13:48 18.1 C 4.94 g/m*3 18.1 C 0 km/h
1996 29-04-2009 15:25:48 17.5 C 5.22 g/m*3 17.5 C 0 km/h
1997 29-04-2009 15:37:47 18 C 4.92 g/m*3 18 C 0 km/h
1998 29-04-2009 15:49:48 20 C 5.01 g/m*3 20 C 0 km/h
1999 29-04-2009 16:01:47 21.1 C 4.97 g/m*3 21.1 C 0 km/h
2000 29-04-2009 16:13:47 20.5 C 4.45 g/m*3 20.5 C 0 km/h
Sensor: Nr:Datum:Temp:Abs-Feuchte:Windchill:Wind:
Aussen-T/F 2001 29-04-2009 16:25:47 20.7 C 4.5 g/m*3 20.7 C 0 km/h
2002 29-04-2009 16:37:48 21.2 C 4.63 g/m*3 21.2 C 0 km/h
2003 29-04-2009 16:49:47 21.8 C 4.22 g/m*3 21.8 C 0 km/h
2004 29-04-2009 17:01:47 19.5 C 4.36 g/m*3 19.5 C 0 km/h
2005 29-04-2009 17:13:47 17.6 C 4.65 g/m*3 17.6 C 0 km/h
2006 29-04-2009 17:25:47 17.3 C 5.01 g/m*3 17.3 C 0 km/h
2007 29-04-2009 17:37:47 16.8 C 5 g/m*3 16.8 C 0 km/h
2008 29-04-2009 17:49:46 14.9 C 6.37 g/m*3 14.9 C 0 km/h
2009 29-04-2009 18:01:47 13.7 C 8.64 g/m*3 13.7 C 0 km/h
2010 29-04-2009 18:13:47 12.5 C 8.36 g/m*3 12.5 C 0 km/h
2011 29-04-2009 18:25:46 12 C 8.42 g/m*3 12 C 0 km/h
2012 29-04-2009 18:37:46 11.2 C 8.11 g/m*3 11.2 C 0 km/h
2013 29-04-2009 18:49:46 11.8 C 8.63 g/m*3 11.8 C 0 km/h
2014 29-04-2009 19:01:46 12.7 C 9.02 g/m*3 12.7 C 0 km/h
2015 29-04-2009 19:13:46 12.8 C 8.62 g/m*3 12.8 C 0 km/h
2016 29-04-2009 19:25:45 12.7 C 8.68 g/m*3 12.7 C 0 km/h
2017 29-04-2009 19:37:46 12.5 C 8.58 g/m*3 12.5 C 0 km/h
2018 29-04-2009 19:49:45 12.5 C 8.47 g/m*3 12.5 C 0 km/h
2019 29-04-2009 20:01:45 12.2 C 8.09 g/m*3 12.2 C 0 km/h
2020 29-04-2009 20:13:45 12.3 C 8.25 g/m*3 12.3 C 0 km/h
2021 29-04-2009 20:25:45 12 C 7.99 g/m*3 12 C 0 km/h
2022 29-04-2009 20:37:45 11.7 C 8.05 g/m*3 11.7 C 0 km/h
2023 29-04-2009 20:49:44 11.7 C 8.05 g/m*3 11.7 C 0 km/h
2024 29-04-2009 21:01:45 11.3 C 7.65 g/m*3 11.3 C 0 km/h
2025 29-04-2009 21:13:46 11.1 C 7.55 g/m*3 11.1 C 0 km/h
Sensor: Nr:Datum:Temp:Abs-Feuchte:Windchill:Wind:
Aussen-T/F 2026 29-04-2009 21:25:44 11 C 7.41 g/m*3 11 C 0 km/h
2027 29-04-2009 21:37:44 10.8 C 7.41 g/m*3 10.8 C 0 km/h
2028 29-04-2009 21:49:44 10.7 C 7.27 g/m*3 10.7 C 0 km/h
2029 29-04-2009 22:01:44 10.6 C 7.22 g/m*3 10.6 C 0 km/h
2030 29-04-2009 22:13:44 10.7 C 7.07 g/m*3 10.7 C 0 km/h
2031 29-04-2009 22:25:44 10.7 C 7.07 g/m*3 10.7 C 0 km/h
2032 29-04-2009 22:38:45 10.7 C 7.07 g/m*3 10.7 C 0 km/h
2033 29-04-2009 22:50:45 10.7 C 7.07 g/m*3 10.7 C 0 km/h
2034 29-04-2009 23:02:45 10.7 C 7.17 g/m*3 10.7 C 0 km/h
2035 29-04-2009 23:14:46 10.6 C 7.12 g/m*3 10.6 C 0 km/h
2036 29-04-2009 23:26:46 10.5 C 7.18 g/m*3 10.5 C 0 km/h
2037 29-04-2009 23:38:46 10.3 C 7.18 g/m*3 10.3 C 0 km/h
2038 29-04-2009 23:50:46 10 C 7.14 g/m*3 10 C 0 km/h
2039 30-04-2009 00:02:46 9.7 C 7.19 g/m*3 9.7 C 0 km/h
2040 30-04-2009 00:14:46 9.5 C 7.19 g/m*3 9.5 C 0 km/h
2041 30-04-2009 00:26:46 9.5 C 7.28 g/m*3 9.5 C 0 km/h
2042 30-04-2009 00:38:46 9.6 C 7.33 g/m*3 9.6 C 0 km/h
2043 30-04-2009 00:50:46 9.6 C 7.42 g/m*3 9.6 C 0 km/h
2044 30-04-2009 01:02:46 9.6 C 7.42 g/m*3 9.6 C 0 km/h
2045 30-04-2009 01:14:46 9.5 C 7.37 g/m*3 9.5 C 0 km/h
2046 30-04-2009 01:26:46 9.2 C 7.32 g/m*3 9.2 C 0 km/h
2047 30-04-2009 01:38:46 9.1 C 7.28 g/m*3 9.1 C 0 km/h
2048 30-04-2009 01:50:46 9 C 7.32 g/m*3 9 C 0 km/h
2049 30-04-2009 02:02:46 8.9 C 7.36 g/m*3 8.9 C 0 km/h
2050 30-04-2009 02:14:46 8.7 C 7.35 g/m*3 8.7 C 0 km/h
Sensor: Nr:Datum:Temp:Abs-Feuchte:Windchill:Wind:
Aussen-T/F 2051 30-04-2009 02:26:46 8.8 C 7.4 g/m*3 8.8 C 0 km/h
2052 30-04-2009 02:38:46 8.9 C 7.45 g/m*3 8.9 C 0 km/h
2053 30-04-2009 02:50:46 8.9 C 7.45 g/m*3 8.9 C 0 km/h
2054 30-04-2009 03:02:47 8.9 C 7.45 g/m*3 8.9 C 0 km/h
2055 30-04-2009 03:14:47 8.6 C 7.3 g/m*3 8.6 C 0 km/h
2056 30-04-2009 03:26:47 8.4 C 7.21 g/m*3 8.4 C 0 km/h
2057 30-04-2009 03:38:47 8.2 C 7.12 g/m*3 8.2 C 0 km/h
2058 30-04-2009 03:50:47 8 C 7.11 g/m*3 8 C 0 km/h
2059 30-04-2009 04:02:47 7.8 C 7.18 g/m*3 7.8 C 0 km/h
2060 30-04-2009 04:14:47 7.8 C 7.18 g/m*3 7.8 C 0 km/h
2061 30-04-2009 04:26:47 7.6 C 7.09 g/m*3 7.6 C 0 km/h
2062 30-04-2009 04:38:47 7.4 C 7.08 g/m*3 7.4 C 0 km/h
2063 30-04-2009 04:50:47 7.4 C 7.08 g/m*3 7.4 C 0 km/h
2064 30-04-2009 05:02:47 7.6 C 7.25 g/m*3 7.6 C 0 km/h
2065 30-04-2009 05:14:47 7.8 C 7.43 g/m*3 7.8 C 0 km/h
2066 30-04-2009 05:26:47 7.9 C 7.47 g/m*3 7.9 C 0 km/h
2067 30-04-2009 05:38:47 8 C 7.36 g/m*3 8 C 0 km/h
2068 30-04-2009 05:50:47 8.1 C 7.41 g/m*3 8.1 C 0 km/h
2069 30-04-2009 06:02:47 8.1 C 7.41 g/m*3 8.1 C 0 km/h
2070 30-04-2009 06:14:47 8.1 C 7.32 g/m*3 8.1 C 0 km/h
2071 30-04-2009 06:26:47 8.2 C 7.37 g/m*3 8.2 C 0 km/h
2072 30-04-2009 06:38:47 8.2 C 7.37 g/m*3 8.2 C 0 km/h
2073 30-04-2009 06:50:44 8.3 C 7.33 g/m*3 8.3 C 0 km/h
2074 30-04-2009 07:02:45 8.3 C 7.33 g/m*3 8.3 C 0 km/h
2075 30-04-2009 07:14:44 8.4 C 7.38 g/m*3 8.4 C 0 km/h
Sensor: Nr:Datum:Temp:Abs-Feuchte:Windchill:Wind:
Aussen-T/F 2076 30-04-2009 07:26:44 8.4 C 7.38 g/m*3 8.4 C 0 km/h
2077 30-04-2009 07:38:44 8.6 C 7.48 g/m*3 8.6 C 0 km/h
2078 30-04-2009 07:50:44 8.7 C 7.52 g/m*3 8.7 C 0 km/h
2079 30-04-2009 08:02:44 9 C 7.49 g/m*3 9 C 0 km/h
2080 30-04-2009 08:14:43 9.1 C 7.45 g/m*3 9.1 C 0 km/h
2081 30-04-2009 08:26:43 9.3 C 7.55 g/m*3 9.3 C 0 km/h
2082 30-04-2009 08:38:43 9.6 C 7.6 g/m*3 9.6 C 0 km/h
2083 30-04-2009 08:50:44 9.8 C 7.52 g/m*3 9.8 C 0 km/h
2084 30-04-2009 09:02:43 9.8 C 7.42 g/m*3 9.8 C 0 km/h
2085 30-04-2009 09:14:43 10.1 C 7.47 g/m*3 10.1 C 0 km/h
2086 30-04-2009 09:26:43 10.3 C 7.47 g/m*3 10.3 C 0 km/h
2087 30-04-2009 09:38:44 10.6 C 7.52 g/m*3 10.6 C 0 km/h
2088 30-04-2009 09:50:43 10.8 C 7.41 g/m*3 10.8 C 0 km/h
2089 30-04-2009 10:02:43 11 C 7.41 g/m*3 11 C 0 km/h
2090 30-04-2009 10:14:42 11.2 C 7.5 g/m*3 11.2 C 0 km/h
2091 30-04-2009 10:26:42 11.4 C 7.49 g/m*3 11.4 C 0 km/h
2092 30-04-2009 10:38:43 11.7 C 7.53 g/m*3 11.7 C 0 km/h
2093 30-04-2009 10:50:42 12 C 7.46 g/m*3 12 C 0 km/h
2094 30-04-2009 11:02:42 12.2 C 7.45 g/m*3 12.2 C 0 km/h
2095 30-04-2009 11:14:42 12.4 C 7.65 g/m*3 12.4 C 0 km/h
2096 30-04-2009 11:26:42 12.6 C 7.63 g/m*3 12.6 C 0 km/h
2097 30-04-2009 11:38:42 12.8 C 7.73 g/m*3 12.8 C 0 km/h
2098 30-04-2009 11:50:41 13.2 C 7.69 g/m*3 13.2 C 0 km/h
2099 30-04-2009 12:02:42 13.4 C 7.56 g/m*3 13.4 C 0 km/h
2100 30-04-2009 12:14:42 13.8 C 7.63 g/m*3 13.8 C 0 km/h
Sensor: Nr:Datum:Temp:Abs-Feuchte:Windchill:Wind:
Aussen-T/F 2101 30-04-2009 12:26:42 13.8 C 7.39 g/m*3 13.8 C 0 km/h
2102 30-04-2009 12:38:41 14.2 C 7.45 g/m*3 14.2 C 0 km/h
2103 30-04-2009 12:50:42 15 C 7.44 g/m*3 15 C 0 km/h
2104 30-04-2009 13:02:41 15.3 C 7.31 g/m*3 15.3 C 0 km/h
2105 30-04-2009 13:14:41 16.1 C 7.13 g/m*3 16.1 C 0 km/h
2106 30-04-2009 13:26:41 16.1 C 6.72 g/m*3 16.1 C 0 km/h
2107 30-04-2009 13:38:41 16.9 C 6.9 g/m*3 16.9 C 0 km/h
2108 30-04-2009 13:50:41 18.1 C 6.49 g/m*3 18.1 C 0 km/h
2109 30-04-2009 14:02:40 18.1 C 6.33 g/m*3 18.1 C 0 km/h
2110 30-04-2009 14:14:40 18 C 6.3 g/m*3 18 C 0 km/h
2111 30-04-2009 14:26:40 19.1 C 6.23 g/m*3 19.1 C 0 km/h
2112 30-04-2009 14:38:40 19 C 6.36 g/m*3 19 C 0 km/h
2113 30-04-2009 14:50:40 17.8 C 6.53 g/m*3 17.8 C 0 km/h
2114 30-04-2009 15:02:40 17.9 C 6.57 g/m*3 17.9 C 0 km/h
2115 30-04-2009 15:14:40 18 C 6.45 g/m*3 18 C 0 km/h
2116 30-04-2009 15:26:40 18.4 C 6.45 g/m*3 18.4 C 0 km/h
2117 30-04-2009 15:38:40 18 C 6.6 g/m*3 18 C 0 km/h
2118 30-04-2009 15:50:39 17.6 C 6.75 g/m*3 17.6 C 0 km/h
2119 30-04-2009 16:02:40 17.6 C 6.6 g/m*3 17.6 C 0 km/h
2120 30-04-2009 16:14:39 17.8 C 6.37 g/m*3 17.8 C 0 km/h
2121 30-04-2009 16:26:39 17.9 C 6.57 g/m*3 17.9 C 0 km/h
2122 30-04-2009 16:38:39 18.1 C 6.64 g/m*3 18.1 C 0 km/h
2123 30-04-2009 16:50:39 18.3 C 6.57 g/m*3 18.3 C 0 km/h
2124 30-04-2009 17:02:39 18.9 C 6.64 g/m*3 18.9 C 0 km/h
2125 30-04-2009 17:14:38 18.9 C 6.64 g/m*3 18.9 C 0 km/h
Sensor: Nr:Datum:Temp:Abs-Feuchte:Windchill:Wind:
Aussen-T/F 2126 30-04-2009 17:26:38 18.3 C 6.41 g/m*3 18.3 C 0 km/h
2127 30-04-2009 17:38:39 18.1 C 6.49 g/m*3 18.1 C 0 km/h
2128 30-04-2009 17:50:38 18 C 6.45 g/m*3 18 C 0 km/h
2129 30-04-2009 18:02:38 17.9 C 6.72 g/m*3 17.9 C 0 km/h
2130 30-04-2009 18:14:39 18.1 C 6.49 g/m*3 18.1 C 0 km/h
2131 30-04-2009 18:26:39 17.9 C 6.57 g/m*3 17.9 C 0 km/h
2132 30-04-2009 18:38:38 17.7 C 6.79 g/m*3 17.7 C 0 km/h
2133 30-04-2009 18:50:38 17.9 C 6.87 g/m*3 17.9 C 0 km/h
2134 30-04-2009 19:02:37 18.7 C 6.72 g/m*3 18.7 C 0 km/h
2135 30-04-2009 19:14:38 19.3 C 6.63 g/m*3 19.3 C 0 km/h
2136 30-04-2009 19:26:39 19.5 C 6.71 g/m*3 19.5 C 0 km/h
2137 30-04-2009 19:38:37 19.1 C 6.88 g/m*3 19.1 C 0 km/h
2138 30-04-2009 19:50:37 18.5 C 6.8 g/m*3 18.5 C 0 km/h
2139 30-04-2009 20:02:37 18.2 C 7.15 g/m*3 18.2 C 0 km/h
2140 30-04-2009 20:14:37 17.6 C 7.5 g/m*3 17.6 C 0 km/h
2141 30-04-2009 20:26:37 16.5 C 7.44 g/m*3 16.5 C 0 km/h
2142 30-04-2009 20:38:37 15.7 C 7.63 g/m*3 15.7 C 0 km/h
2143 30-04-2009 20:50:37 14.9 C 7.52 g/m*3 14.9 C 0 km/h
2144 30-04-2009 21:02:36 14.1 C 7.28 g/m*3 14.1 C 0 km/h
2145 30-04-2009 21:14:37 13.8 C 7.51 g/m*3 13.8 C 0 km/h
2146 30-04-2009 21:26:37 13.9 C 7.55 g/m*3 13.9 C 0 km/h
2147 30-04-2009 21:38:36 13.9 C 7.67 g/m*3 13.9 C 0 km/h
2148 30-04-2009 21:50:36 13.8 C 7.74 g/m*3 13.8 C 0 km/h
2149 30-04-2009 22:02:36 13.7 C 7.82 g/m*3 13.7 C 0 km/h
2150 30-04-2009 22:14:36 13.6 C 7.77 g/m*3 13.6 C 0 km/h
Sensor: Nr:Datum:Temp:Abs-Feuchte:Windchill:Wind:
Aussen-T/F 2151 30-04-2009 22:26:36 13.5 C 7.95 g/m*3 13.5 C 0 km/h
2152 30-04-2009 22:39:30 13.3 C 7.97 g/m*3 13.3 C 0 km/h
2153 30-04-2009 22:51:30 13 C 7.94 g/m*3 13 C 0 km/h
2154 30-04-2009 23:03:30 12.8 C 7.95 g/m*3 12.8 C 0 km/h
2155 30-04-2009 23:15:30 12.6 C 7.85 g/m*3 12.6 C 0 km/h
2156 30-04-2009 23:27:30 12.4 C 7.87 g/m*3 12.4 C 0 km/h
2157 30-04-2009 23:39:30 12.3 C 7.93 g/m*3 12.3 C 0 km/h
2158 30-04-2009 23:51:30 12.1 C 7.83 g/m*3 12.1 C 0 km/h
2159 01-05-2009 00:03:30 11.9 C 7.94 g/m*3 11.9 C 0 km/h
2160 01-05-2009 00:15:31 11.7 C 7.95 g/m*3 11.7 C 0 km/h
2161 01-05-2009 00:27:31 11.5 C 7.85 g/m*3 11.5 C 0 km/h
2162 01-05-2009 00:39:31 11.3 C 7.85 g/m*3 11.3 C 0 km/h
2163 01-05-2009 00:51:31 11.2 C 7.8 g/m*3 11.2 C 0 km/h
2164 01-05-2009 01:03:31 11 C 7.71 g/m*3 11 C 0 km/h
2165 01-05-2009 01:15:31 10.9 C 7.76 g/m*3 10.9 C 0 km/h
2166 01-05-2009 01:27:31 10.7 C 7.66 g/m*3 10.7 C 0 km/h
2167 01-05-2009 01:39:31 10.5 C 7.66 g/m*3 10.5 C 0 km/h
2168 01-05-2009 01:51:31 10.4 C 7.61 g/m*3 10.4 C 0 km/h
2169 01-05-2009 02:03:31 10.2 C 7.61 g/m*3 10.2 C 0 km/h
2170 01-05-2009 02:15:31 10 C 7.52 g/m*3 10 C 0 km/h
2171 01-05-2009 02:27:31 9.9 C 7.66 g/m*3 9.9 C 0 km/h
2172 01-05-2009 02:39:31 9.8 C 7.7 g/m*3 9.8 C 0 km/h
2173 01-05-2009 02:51:31 9.7 C 7.65 g/m*3 9.7 C 0 km/h
2174 01-05-2009 03:03:31 9.5 C 7.65 g/m*3 9.5 C 0 km/h
2175 01-05-2009 03:15:31 9.3 C 7.55 g/m*3 9.3 C 0 km/h
Sensor: Nr:Datum:Temp:Abs-Feuchte:Windchill:Wind:
Aussen-T/F 2176 01-05-2009 03:27:31 9.3 C 7.64 g/m*3 9.3 C 0 km/h
2177 01-05-2009 03:39:31 9.2 C 7.59 g/m*3 9.2 C 0 km/h
2178 01-05-2009 03:51:31 9 C 7.49 g/m*3 9 C 0 km/h
2179 01-05-2009 04:03:32 8.8 C 7.49 g/m*3 8.8 C 0 km/h
2180 01-05-2009 04:15:32 8.7 C 7.44 g/m*3 8.7 C 0 km/h
2181 01-05-2009 04:27:32 8.6 C 7.39 g/m*3 8.6 C 0 km/h
2182 01-05-2009 04:39:32 8.4 C 7.3 g/m*3 8.4 C 0 km/h
2183 01-05-2009 04:51:32 8.3 C 7.33 g/m*3 8.3 C 0 km/h
2184 01-05-2009 05:03:32 8.1 C 7.24 g/m*3 8.1 C 0 km/h
2185 01-05-2009 05:15:32 8.1 C 7.32 g/m*3 8.1 C 0 km/h
2186 01-05-2009 05:27:32 8 C 7.36 g/m*3 8 C 0 km/h
2187 01-05-2009 05:39:32 8.2 C 7.45 g/m*3 8.2 C 0 km/h
2188 01-05-2009 05:51:32 8.3 C 7.59 g/m*3 8.3 C 0 km/h
2189 01-05-2009 06:03:32 8.2 C 7.54 g/m*3 8.2 C 0 km/h
2190 01-05-2009 06:15:32 8.2 C 7.54 g/m*3 8.2 C 0 km/h
2191 01-05-2009 06:27:32 8 C 7.36 g/m*3 8 C 0 km/h
2192 01-05-2009 06:39:32 8 C 7.44 g/m*3 8 C 0 km/h
2193 01-05-2009 06:51:32 8 C 7.44 g/m*3 8 C 0 km/h
2194 01-05-2009 07:03:32 8 C 7.44 g/m*3 8 C 0 km/h
2195 01-05-2009 07:15:32 8 C 7.52 g/m*3 8 C 0 km/h
2196 01-05-2009 07:27:32 8.2 C 7.62 g/m*3 8.2 C 0 km/h
2197 01-05-2009 07:39:32 8.3 C 7.67 g/m*3 8.3 C 0 km/h
2198 01-05-2009 07:51:36 8.5 C 7.77 g/m*3 8.5 C 0 km/h
2199 01-05-2009 08:03:36 8.6 C 7.73 g/m*3 8.6 C 0 km/h
2200 01-05-2009 08:15:36 9 C 7.85 g/m*3 9 C 0 km/h
Sensor: Nr:Datum:Temp:Abs-Feuchte:Windchill:Wind:
Aussen-T/F 2201 01-05-2009 08:27:36 9 C 7.76 g/m*3 9 C 0 km/h
2202 01-05-2009 08:39:36 9.3 C 8 g/m*3 9.3 C 0 km/h
2203 01-05-2009 08:51:36 9.7 C 8.11 g/m*3 9.7 C 0 km/h
2204 01-05-2009 09:03:36 9.7 C 8.02 g/m*3 9.7 C 0 km/h
2205 01-05-2009 09:15:35 9.9 C 8.12 g/m*3 9.9 C 0 km/h
2206 01-05-2009 09:27:35 10.9 C 8.45 g/m*3 10.9 C 0 km/h
2207 01-05-2009 09:39:36 11.7 C 8.47 g/m*3 11.7 C 0 km/h
2208 01-05-2009 09:51:35 11.6 C 8 g/m*3 11.6 C 0 km/h
2209 01-05-2009 10:03:35 11.5 C 7.95 g/m*3 11.5 C 0 km/h
2210 01-05-2009 10:15:35 11.6 C 8.11 g/m*3 11.6 C 0 km/h
2211 01-05-2009 10:27:35 12.2 C 8.2 g/m*3 12.2 C 0 km/h
2212 01-05-2009 10:39:35 13.2 C 8.5 g/m*3 13.2 C 0 km/h
2213 01-05-2009 10:51:34 14 C 8.44 g/m*3 14 C 0 km/h
2214 01-05-2009 11:03:35 14.9 C 8.79 g/m*3 14.9 C 0 km/h
2215 01-05-2009 11:15:35 15.9 C 8.67 g/m*3 15.9 C 0 km/h
2216 01-05-2009 11:27:35 16.6 C 8.76 g/m*3 16.6 C 0 km/h
2217 01-05-2009 11:39:34 17.2 C 8.79 g/m*3 17.2 C 0 km/h
2218 01-05-2009 11:51:35 18 C 8.75 g/m*3 18 C 0 km/h
2219 01-05-2009 12:03:34 18.4 C 8.34 g/m*3 18.4 C 0 km/h
2220 01-05-2009 12:15:34 19.2 C 8.57 g/m*3 19.2 C 0 km/h
2221 01-05-2009 12:27:34 19.5 C 7.89 g/m*3 19.5 C 0 km/h
2222 01-05-2009 12:39:33 19.3 C 7.46 g/m*3 19.3 C 0 km/h
2223 01-05-2009 12:51:34 20.1 C 7.65 g/m*3 20.1 C 0 km/h
2224 01-05-2009 13:03:33 21.6 C 7.21 g/m*3 21.6 C 0 km/h
2225 01-05-2009 13:15:33 21.5 C 6.79 g/m*3 21.5 C 0 km/h
Sensor: Nr:Datum:Temp:Abs-Feuchte:Windchill:Wind:
Aussen-T/F 2226 01-05-2009 13:27:33 22.7 C 6.87 g/m*3 22.7 C 0 km/h
2227 01-05-2009 13:39:34 23.6 C 6.81 g/m*3 23.6 C 0 km/h
2228 01-05-2009 13:51:33 23.3 C 6.27 g/m*3 23.3 C 0 km/h
2229 01-05-2009 14:03:33 23.4 C 6.31 g/m*3 23.4 C 0 km/h
2230 01-05-2009 14:15:33 23.7 C 6.2 g/m*3 23.7 C 0 km/h
2231 01-05-2009 14:27:33 23.3 C 6.27 g/m*3 23.3 C 0 km/h
2232 01-05-2009 14:39:33 24.9 C 6.41 g/m*3 24.9 C 0 km/h
2233 01-05-2009 14:51:32 24.2 C 5.94 g/m*3 24.2 C 0 km/h
2234 01-05-2009 15:03:33 25.8 C 6.02 g/m*3 25.8 C 0 km/h
2235 01-05-2009 15:15:32 24.8 C 5.92 g/m*3 24.8 C 0 km/h
2236 01-05-2009 15:27:32 25 C 5.75 g/m*3 25 C 0 km/h
2237 01-05-2009 15:39:32 26.5 C 6.26 g/m*3 26.5 C 0 km/h
2238 01-05-2009 15:51:31 25.3 C 5.85 g/m*3 25.3 C 0 km/h
2239 01-05-2009 16:03:32 26.4 C 5.23 g/m*3 26.4 C 0 km/h
2240 01-05-2009 16:15:32 27.1 C 5.43 g/m*3 27.1 C 0 km/h
2241 01-05-2009 16:27:32 27.7 C 5.62 g/m*3 27.7 C 0 km/h
2242 01-05-2009 16:39:31 26.4 C 5.23 g/m*3 26.4 C 0 km/h
2243 01-05-2009 16:51:32 26.4 C 5.23 g/m*3 26.4 C 0 km/h
2244 01-05-2009 17:03:31 26.9 C 5.37 g/m*3 26.9 C 0 km/h
2245 01-05-2009 17:15:31 25.6 C 4.76 g/m*3 25.6 C 0 km/h
2246 01-05-2009 17:27:32 26.8 C 5.09 g/m*3 26.8 C 0 km/h
2247 01-05-2009 17:39:31 26 C 4.87 g/m*3 26 C 0 km/h
2248 01-05-2009 17:51:31 25.5 C 5.21 g/m*3 25.5 C 0 km/h
2249 01-05-2009 18:03:30 26.6 C 5.29 g/m*3 26.6 C 0 km/h
2250 01-05-2009 18:15:30 26.9 C 5.37 g/m*3 26.9 C 0 km/h
Sensor: Nr:Datum:Temp:Abs-Feuchte:Windchill:Wind:
Aussen-T/F 2251 01-05-2009 18:27:30 26.3 C 5.2 g/m*3 26.3 C 0 km/h
2252 01-05-2009 18:39:31 25.4 C 5.18 g/m*3 25.4 C 0 km/h
2253 01-05-2009 18:51:30 25.8 C 5.54 g/m*3 25.8 C 0 km/h
2254 01-05-2009 19:03:30 25 C 5.29 g/m*3 25 C 0 km/h
2255 01-05-2009 19:15:30 25.4 C 5.41 g/m*3 25.4 C 0 km/h
2256 01-05-2009 19:27:30 24.9 C 5.49 g/m*3 24.9 C 0 km/h
2257 01-05-2009 19:39:30 24.8 C 5.69 g/m*3 24.8 C 0 km/h
2258 01-05-2009 19:51:29 23.9 C 5.84 g/m*3 23.9 C 0 km/h
2259 01-05-2009 20:03:30 22.9 C 6.34 g/m*3 22.9 C 0 km/h
2260 01-05-2009 20:15:29 22.6 C 7.23 g/m*3 22.6 C 0 km/h
2261 01-05-2009 20:27:29 21.5 C 7.35 g/m*3 21.5 C 0 km/h
2262 01-05-2009 20:39:29 20.7 C 7.56 g/m*3 20.7 C 0 km/h
2263 01-05-2009 20:51:30 19.7 C 7.13 g/m*3 19.7 C 0 km/h
2264 01-05-2009 21:03:29 19 C 7.01 g/m*3 19 C 0 km/h
2265 01-05-2009 21:15:28 18.5 C 7.12 g/m*3 18.5 C 0 km/h
2266 01-05-2009 21:27:28 18.2 C 7.15 g/m*3 18.2 C 0 km/h
2267 01-05-2009 21:39:29 17.8 C 7.29 g/m*3 17.8 C 0 km/h
2268 01-05-2009 21:51:28 17.6 C 7.2 g/m*3 17.6 C 0 km/h
2269 01-05-2009 22:03:28 17.4 C 7.11 g/m*3 17.4 C 0 km/h
2270 01-05-2009 22:15:29 17 C 7.38 g/m*3 17 C 0 km/h
2271 01-05-2009 22:27:29 16.6 C 7.49 g/m*3 16.6 C 0 km/h
2272 01-05-2009 22:40:28 16.8 C 7.43 g/m*3 16.8 C 0 km/h
2273 01-05-2009 22:52:28 16.2 C 7.17 g/m*3 16.2 C 0 km/h
2274 01-05-2009 23:04:29 15.8 C 7.4 g/m*3 15.8 C 0 km/h
2275 01-05-2009 23:16:29 15.5 C 7.4 g/m*3 15.5 C 0 km/h
Sensor: Nr:Datum:Temp:Abs-Feuchte:Windchill:Wind:
Aussen-T/F 2276 01-05-2009 23:28:29 15.1 C 7.48 g/m*3 15.1 C 0 km/h
2277 01-05-2009 23:40:29 14.9 C 7.65 g/m*3 14.9 C 0 km/h
2278 01-05-2009 23:52:29 14.6 C 7.76 g/m*3 14.6 C 0 km/h
2279 02-05-2009 00:04:29 14.4 C 7.91 g/m*3 14.4 C 0 km/h
2280 02-05-2009 00:16:29 14.2 C 7.94 g/m*3 14.2 C 0 km/h
2281 02-05-2009 00:28:29 14.2 C 7.94 g/m*3 14.2 C 0 km/h
2282 02-05-2009 00:40:29 13.9 C 8.15 g/m*3 13.9 C 0 km/h
2283 02-05-2009 00:52:29 13.7 C 8.17 g/m*3 13.7 C 0 km/h
2284 02-05-2009 01:04:29 13.3 C 8.09 g/m*3 13.3 C 0 km/h
2285 02-05-2009 01:16:29 13.1 C 8.1 g/m*3 13.1 C 0 km/h
2286 02-05-2009 01:28:29 12.9 C 8.23 g/m*3 12.9 C 0 km/h
2287 02-05-2009 01:40:29 12.7 C 8.24 g/m*3 12.7 C 0 km/h
2288 02-05-2009 01:52:29 12.5 C 8.14 g/m*3 12.5 C 0 km/h
2289 02-05-2009 02:04:29 12.4 C 8.19 g/m*3 12.4 C 0 km/h
2290 02-05-2009 02:16:29 12.2 C 8.09 g/m*3 12.2 C 0 km/h
2291 02-05-2009 02:28:29 12.1 C 8.15 g/m*3 12.1 C 0 km/h
2292 02-05-2009 02:40:29 12 C 8.1 g/m*3 12 C 0 km/h
2293 02-05-2009 02:52:30 11.9 C 8.15 g/m*3 11.9 C 0 km/h
2294 02-05-2009 03:04:30 11.8 C 8.1 g/m*3 11.8 C 0 km/h
2295 02-05-2009 03:16:30 11.8 C 8.21 g/m*3 11.8 C 0 km/h
2296 02-05-2009 03:28:30 11.3 C 8.06 g/m*3 11.3 C 0 km/h
2297 02-05-2009 03:40:30 11.2 C 8.01 g/m*3 11.2 C 0 km/h
2298 02-05-2009 03:52:30 11 C 8.01 g/m*3 11 C 0 km/h
2299 02-05-2009 04:04:30 10.9 C 8.16 g/m*3 10.9 C 0 km/h
2300 02-05-2009 04:16:30 10.7 C 8.05 g/m*3 10.7 C 0 km/h
Sensor: Nr:Datum:Temp:Abs-Feuchte:Windchill:Wind:
Aussen-T/F 2301 02-05-2009 04:28:30 10.6 C 8 g/m*3 10.6 C 0 km/h
2302 02-05-2009 04:40:30 10.6 C 8.1 g/m*3 10.6 C 0 km/h
2303 02-05-2009 04:52:30 10.5 C 8.05 g/m*3 10.5 C 0 km/h
2304 02-05-2009 05:04:30 10.4 C 8 g/m*3 10.4 C 0 km/h
2305 02-05-2009 05:16:30 10.3 C 7.95 g/m*3 10.3 C 0 km/h
2306 02-05-2009 05:28:30 10.2 C 7.99 g/m*3 10.2 C 0 km/h
2307 02-05-2009 05:40:30 10.2 C 7.99 g/m*3 10.2 C 0 km/h
2308 02-05-2009 05:52:30 10 C 7.89 g/m*3 10 C 0 km/h
2309 02-05-2009 06:04:30 10 C 7.89 g/m*3 10 C 0 km/h
2310 02-05-2009 06:16:30 10 C 7.99 g/m*3 10 C 0 km/h
2311 02-05-2009 06:28:30 10 C 7.99 g/m*3 10 C 0 km/h
2312 02-05-2009 06:40:31 10 C 7.99 g/m*3 10 C 0 km/h
2313 02-05-2009 06:52:31 10.3 C 8.14 g/m*3 10.3 C 0 km/h
2314 02-05-2009 07:04:31 10.6 C 8.2 g/m*3 10.6 C 0 km/h
2315 02-05-2009 07:16:31 11.2 C 8.51 g/m*3 11.2 C 0 km/h
2316 02-05-2009 07:28:31 11.5 C 8.47 g/m*3 11.5 C 0 km/h
2317 02-05-2009 07:40:31 12.2 C 8.63 g/m*3 12.2 C 0 km/h
2318 02-05-2009 07:52:31 12.7 C 8.46 g/m*3 12.7 C 0 km/h
2319 02-05-2009 08:04:28 13.3 C 8.55 g/m*3 13.3 C 0 km/h
2320 02-05-2009 08:16:28 13.5 C 8.19 g/m*3 13.5 C 0 km/h
2321 02-05-2009 08:28:28 13.5 C 8.07 g/m*3 13.5 C 0 km/h
2322 02-05-2009 08:40:27 13.6 C 8 g/m*3 13.6 C 0 km/h
2323 02-05-2009 08:52:27 13.7 C 7.93 g/m*3 13.7 C 0 km/h
2324 02-05-2009 09:04:27 14.1 C 7.89 g/m*3 14.1 C 0 km/h
2325 02-05-2009 09:16:27 14.4 C 7.66 g/m*3 14.4 C 0 km/h
Sensor: Nr:Datum:Temp:Abs-Feuchte:Windchill:Wind:
Aussen-T/F 2326 02-05-2009 09:28:27 14.8 C 7.6 g/m*3 14.8 C 0 km/h
2327 02-05-2009 09:40:27 15.2 C 7.66 g/m*3 15.2 C 0 km/h
2328 02-05-2009 09:52:27 15.6 C 7.85 g/m*3 15.6 C 0 km/h
2329 02-05-2009 10:04:26 16.1 C 7.54 g/m*3 16.1 C 0 km/h
2330 02-05-2009 10:16:27 16.1 C 7.68 g/m*3 16.1 C 0 km/h
2331 02-05-2009 10:28:27 16.8 C 7.72 g/m*3 16.8 C 0 km/h
2332 02-05-2009 10:40:26 17.5 C 7.6 g/m*3 17.5 C 0 km/h
2333 02-05-2009 10:52:26 18.3 C 7.66 g/m*3 18.3 C 0 km/h
2334 02-05-2009 11:04:26 18.1 C 7.42 g/m*3 18.1 C 0 km/h
2335 02-05-2009 11:16:26 17.3 C 7.51 g/m*3 17.3 C 0 km/h
2336 02-05-2009 11:28:26 18.1 C 7.57 g/m*3 18.1 C 0 km/h
2337 02-05-2009 11:40:26 17.3 C 7.37 g/m*3 17.3 C 0 km/h
2338 02-05-2009 11:52:26 18.5 C 7.91 g/m*3 18.5 C 0 km/h
2339 02-05-2009 12:04:26 18.8 C 7.41 g/m*3 18.8 C 0 km/h
2340 02-05-2009 12:16:25 18.9 C 7.78 g/m*3 18.9 C 0 km/h
2341 02-05-2009 12:28:25 20 C 7.6 g/m*3 20 C 0 km/h
2342 02-05-2009 12:40:25 20 C 7.6 g/m*3 20 C 0 km/h
2343 02-05-2009 12:52:25 21.5 C 7.73 g/m*3 21.5 C 0 km/h
2344 02-05-2009 13:04:25 21.9 C 7.72 g/m*3 21.9 C 0 km/h
2345 02-05-2009 13:16:25 22.3 C 7.11 g/m*3 22.3 C 0 km/h
2346 02-05-2009 13:28:25 23 C 6.78 g/m*3 23 C 0 km/h
2347 02-05-2009 13:40:25 22.3 C 6.91 g/m*3 22.3 C 0 km/h
2348 02-05-2009 13:52:25 22.8 C 6.5 g/m*3 22.8 C 0 km/h
2349 02-05-2009 14:04:24 22.3 C 6.12 g/m*3 22.3 C 0 km/h
2350 02-05-2009 14:16:25 22.8 C 6.5 g/m*3 22.8 C 0 km/h
Sensor: Nr:Datum:Temp:Abs-Feuchte:Windchill:Wind:
Aussen-T/F 2351 02-05-2009 14:28:25 22.7 C 6.47 g/m*3 22.7 C 0 km/h
2352 02-05-2009 14:40:24 23.1 C 6.61 g/m*3 23.1 C 0 km/h
2353 02-05-2009 14:52:24 23.9 C 6.06 g/m*3 23.9 C 0 km/h
2354 02-05-2009 15:04:24 24 C 5.87 g/m*3 24 C 0 km/h
2355 02-05-2009 15:16:24 23.8 C 5.81 g/m*3 23.8 C 0 km/h
2356 02-05-2009 15:28:24 24.7 C 5.66 g/m*3 24.7 C 0 km/h
2357 02-05-2009 15:40:24 25.8 C 5.78 g/m*3 25.8 C 0 km/h
2358 02-05-2009 15:52:24 24.3 C 5.31 g/m*3 24.3 C 0 km/h
2359 02-05-2009 16:04:24 26.1 C 5.39 g/m*3 26.1 C 0 km/h
2360 02-05-2009 16:16:23 26.7 C 5.06 g/m*3 26.7 C 0 km/h
2361 02-05-2009 16:28:23 26.7 C 5.06 g/m*3 26.7 C 0 km/h
2362 02-05-2009 16:40:23 25.9 C 4.84 g/m*3 25.9 C 0 km/h
2363 02-05-2009 16:52:23 25.5 C 4.73 g/m*3 25.5 C 0 km/h
2364 02-05-2009 17:04:23 26.1 C 4.9 g/m*3 26.1 C 0 km/h
2365 02-05-2009 17:16:22 27.3 C 5.23 g/m*3 27.3 C 0 km/h
2366 02-05-2009 17:28:22 27.6 C 5.32 g/m*3 27.6 C 0 km/h
2367 02-05-2009 17:40:23 26.8 C 5.09 g/m*3 26.8 C 0 km/h
2368 02-05-2009 17:52:22 26.6 C 5.03 g/m*3 26.6 C 0 km/h
2369 02-05-2009 18:04:22 26.3 C 4.95 g/m*3 26.3 C 0 km/h
2370 02-05-2009 18:16:23 27 C 5.15 g/m*3 27 C 0 km/h
2371 02-05-2009 18:28:23 27.1 C 5.18 g/m*3 27.1 C 0 km/h
2372 02-05-2009 18:40:22 25.9 C 4.84 g/m*3 25.9 C 0 km/h
2373 02-05-2009 18:52:22 26.9 C 5.12 g/m*3 26.9 C 0 km/h
2374 02-05-2009 19:04:22 26 C 4.87 g/m*3 26 C 0 km/h
2375 02-05-2009 19:16:22 24.1 C 4.38 g/m*3 24.1 C 0 km/h
Sensor: Nr:Datum:Temp:Abs-Feuchte:Windchill:Wind:
Aussen-T/F 2376 02-05-2009 19:28:22 24.5 C 4.7 g/m*3 24.5 C 0 km/h
2377 02-05-2009 19:40:21 23.9 C 4.54 g/m*3 23.9 C 0 km/h
2378 02-05-2009 19:52:22 23.2 C 4.99 g/m*3 23.2 C 0 km/h
2379 02-05-2009 20:04:21 22.9 C 5.11 g/m*3 22.9 C 0 km/h
2380 02-05-2009 20:16:21 22.5 C 5.59 g/m*3 22.5 C 0 km/h
2381 02-05-2009 20:28:21 21.8 C 5.76 g/m*3 21.8 C 0 km/h
2382 02-05-2009 20:40:21 21 C 5.5 g/m*3 21 C 0 km/h
2383 02-05-2009 20:52:21 20.3 C 5.45 g/m*3 20.3 C 0 km/h
2384 02-05-2009 21:04:21 19.6 C 5.57 g/m*3 19.6 C 0 km/h
2385 02-05-2009 21:16:20 18.7 C 5.6 g/m*3 18.7 C 0 km/h
2386 02-05-2009 21:28:20 17.9 C 5.5 g/m*3 17.9 C 0 km/h
2387 02-05-2009 21:40:20 17.6 C 5.55 g/m*3 17.6 C 0 km/h
2388 02-05-2009 21:52:20 17.2 C 5.71 g/m*3 17.2 C 0 km/h
2389 02-05-2009 22:04:20 16.9 C 5.75 g/m*3 16.9 C 0 km/h
2390 02-05-2009 22:16:20 16.7 C 5.83 g/m*3 16.7 C 0 km/h
2391 02-05-2009 22:28:20 16.8 C 6 g/m*3 16.8 C 0 km/h
2392 02-05-2009 22:41:22 16.5 C 6.18 g/m*3 16.5 C 0 km/h
2393 02-05-2009 22:53:22 16.4 C 6.28 g/m*3 16.4 C 0 km/h
2394 02-05-2009 23:05:22 16.1 C 6.44 g/m*3 16.1 C 0 km/h
2395 02-05-2009 23:17:22 16 C 6.54 g/m*3 16 C 0 km/h
2396 02-05-2009 23:29:22 16 C 6.4 g/m*3 16 C 0 km/h
2397 02-05-2009 23:41:22 15.6 C 6.52 g/m*3 15.6 C 0 km/h
2398 02-05-2009 23:53:22 15.3 C 6.66 g/m*3 15.3 C 0 km/h
2399 03-05-2009 00:05:22 14.9 C 6.75 g/m*3 14.9 C 0 km/h
2400 03-05-2009 00:17:22 14.6 C 6.88 g/m*3 14.6 C 0 km/h
Sensor: Nr:Datum:Temp:Abs-Feuchte:Windchill:Wind:
Aussen-T/F 2401 03-05-2009 00:29:22 14.4 C 6.92 g/m*3 14.4 C 0 km/h
2402 03-05-2009 00:41:22 13.9 C 7.07 g/m*3 13.9 C 0 km/h
2403 03-05-2009 00:53:22 13.2 C 7 g/m*3 13.2 C 0 km/h
2404 03-05-2009 01:05:22 13.2 C 7.12 g/m*3 13.2 C 0 km/h
2405 03-05-2009 01:17:22 13.2 C 7.23 g/m*3 13.2 C 0 km/h
2406 03-05-2009 01:29:22 12.9 C 7.33 g/m*3 12.9 C 0 km/h
2407 03-05-2009 01:41:22 12.6 C 7.3 g/m*3 12.6 C 0 km/h
2408 03-05-2009 01:53:23 12.4 C 7.32 g/m*3 12.4 C 0 km/h
2409 03-05-2009 02:05:23 12.2 C 7.34 g/m*3 12.2 C 0 km/h
2410 03-05-2009 02:17:23 12.2 C 7.34 g/m*3 12.2 C 0 km/h
2411 03-05-2009 02:29:23 12 C 7.35 g/m*3 12 C 0 km/h
2412 03-05-2009 02:41:23 11.8 C 7.37 g/m*3 11.8 C 0 km/h
2413 03-05-2009 02:53:23 11.8 C 7.47 g/m*3 11.8 C 0 km/h
2414 03-05-2009 03:05:23 11.4 C 7.39 g/m*3 11.4 C 0 km/h
2415 03-05-2009 03:17:23 11.2 C 7.4 g/m*3 11.2 C 0 km/h
2416 03-05-2009 03:29:23 10.9 C 7.36 g/m*3 10.9 C 0 km/h
2417 03-05-2009 03:41:23 10.8 C 7.41 g/m*3 10.8 C 0 km/h
2418 03-05-2009 03:53:23 10.6 C 7.42 g/m*3 10.6 C 0 km/h
2419 03-05-2009 04:05:23 10.5 C 7.37 g/m*3 10.5 C 0 km/h
2420 03-05-2009 04:17:23 10.2 C 7.33 g/m*3 10.2 C 0 km/h
2421 03-05-2009 04:29:23 9.9 C 7.38 g/m*3 9.9 C 0 km/h
2422 03-05-2009 04:41:23 9.9 C 7.38 g/m*3 9.9 C 0 km/h
2423 03-05-2009 04:53:23 9.8 C 7.33 g/m*3 9.8 C 0 km/h
2424 03-05-2009 05:05:23 9.7 C 7.38 g/m*3 9.7 C 0 km/h
2425 03-05-2009 05:17:23 9.3 C 7.19 g/m*3 9.3 C 0 km/h
Sensor: Nr:Datum:Temp:Abs-Feuchte:Windchill:Wind:
Aussen-T/F 2426 03-05-2009 05:29:23 9.1 C 7.19 g/m*3 9.1 C 0 km/h
2427 03-05-2009 05:41:23 9.1 C 7.19 g/m*3 9.1 C 0 km/h
2428 03-05-2009 05:53:24 9 C 7.23 g/m*3 9 C 0 km/h
2429 03-05-2009 06:05:24 9.1 C 7.28 g/m*3 9.1 C 0 km/h
2430 03-05-2009 06:17:24 9.5 C 7.46 g/m*3 9.5 C 0 km/h
2431 03-05-2009 06:29:24 9.6 C 7.42 g/m*3 9.6 C 0 km/h
2432 03-05-2009 06:41:24 9.5 C 7.28 g/m*3 9.5 C 0 km/h
2433 03-05-2009 06:53:24 9.6 C 7.42 g/m*3 9.6 C 0 km/h
2434 03-05-2009 07:05:24 9.8 C 7.42 g/m*3 9.8 C 0 km/h
2435 03-05-2009 07:17:24 10.1 C 7.38 g/m*3 10.1 C 0 km/h
2436 03-05-2009 07:29:24 9.9 C 7.38 g/m*3 9.9 C 0 km/h
2437 03-05-2009 07:41:24 9.9 C 7.47 g/m*3 9.9 C 0 km/h
2438 03-05-2009 07:53:24 10.3 C 7.47 g/m*3 10.3 C 0 km/h
2439 03-05-2009 08:05:21 10.6 C 7.52 g/m*3 10.6 C 0 km/h
2440 03-05-2009 08:17:20 11.1 C 7.55 g/m*3 11.1 C 0 km/h
2441 03-05-2009 08:29:20 11.5 C 7.54 g/m*3 11.5 C 0 km/h
2442 03-05-2009 08:41:20 11.6 C 7.59 g/m*3 11.6 C 0 km/h
2443 03-05-2009 08:53:21 12 C 7.57 g/m*3 12 C 0 km/h
2444 03-05-2009 09:05:20 12.2 C 7.66 g/m*3 12.2 C 0 km/h
2445 03-05-2009 09:17:20 12.9 C 7.89 g/m*3 12.9 C 0 km/h
2446 03-05-2009 09:29:20 13.1 C 7.76 g/m*3 13.1 C 0 km/h
2447 03-05-2009 09:41:21 13.7 C 7.93 g/m*3 13.7 C 0 km/h
2448 03-05-2009 09:53:20 14.1 C 8.01 g/m*3 14.1 C 0 km/h
2449 03-05-2009 10:05:20 14.6 C 8.01 g/m*3 14.6 C 0 km/h
2450 03-05-2009 10:17:20 14.9 C 8.03 g/m*3 14.9 C 0 km/h
Sensor: Nr:Datum:Temp:Abs-Feuchte:Windchill:Wind:
Aussen-T/F 2451 03-05-2009 10:29:20 15.4 C 8.15 g/m*3 15.4 C 0 km/h
2452 03-05-2009 10:41:20 16.8 C 8.44 g/m*3 16.8 C 0 km/h
2453 03-05-2009 10:53:19 17.3 C 8.1 g/m*3 17.3 C 0 km/h
2454 03-05-2009 11:05:20 17.5 C 8.05 g/m*3 17.5 C 0 km/h
2455 03-05-2009 11:17:19 17.8 C 8.04 g/m*3 17.8 C 0 km/h
2456 03-05-2009 11:29:19 18.4 C 8.02 g/m*3 18.4 C 0 km/h
2457 03-05-2009 11:41:19 18.9 C 7.78 g/m*3 18.9 C 0 km/h
2458 03-05-2009 11:53:18 19 C 7.99 g/m*3 19 C 0 km/h
2459 03-05-2009 12:05:19 19.4 C 7.67 g/m*3 19.4 C 0 km/h
2460 03-05-2009 12:17:19 19.9 C 7.56 g/m*3 19.9 C 0 km/h
2461 03-05-2009 12:29:19 20.2 C 7.52 g/m*3 20.2 C 0 km/h
2462 03-05-2009 12:41:18 20.7 C 7.56 g/m*3 20.7 C 0 km/h
2463 03-05-2009 12:53:19 21.4 C 7.5 g/m*3 21.4 C 0 km/h
2464 03-05-2009 13:05:18 22.5 C 7.59 g/m*3 22.5 C 0 km/h
2465 03-05-2009 13:17:18 23.3 C 7.32 g/m*3 23.3 C 0 km/h
2466 03-05-2009 13:29:18 21.7 C 7.44 g/m*3 21.7 C 0 km/h
2467 03-05-2009 13:41:18 22.2 C 7.66 g/m*3 22.2 C 0 km/h
2468 03-05-2009 13:53:18 21.1 C 7.74 g/m*3 21.1 C 0 km/h
2469 03-05-2009 14:05:18 20.6 C 8.23 g/m*3 20.6 C 0 km/h
2470 03-05-2009 14:17:17 19.8 C 8.03 g/m*3 19.8 C 0 km/h
2471 03-05-2009 14:29:17 16.8 C 9.44 g/m*3 16.8 C 0 km/h
2472 03-05-2009 14:41:18 17.3 C 9.72 g/m*3 17.3 C 0 km/h
2473 03-05-2009 14:53:17 18.3 C 8.29 g/m*3 18.3 C 0 km/h
2474 03-05-2009 15:05:17 19 C 8.15 g/m*3 19 C 0 km/h
2475 03-05-2009 15:17:17 18.8 C 7.57 g/m*3 18.8 C 0 km/h
Sensor: Nr:Datum:Temp:Abs-Feuchte:Windchill:Wind:
Aussen-T/F 2476 03-05-2009 15:29:17 20.6 C 7.87 g/m*3 20.6 C 0 km/h
2477 03-05-2009 15:41:17 20.9 C 7.47 g/m*3 20.9 C 0 km/h
2478 03-05-2009 15:53:17 20.4 C 7.25 g/m*3 20.4 C 0 km/h
2479 03-05-2009 16:05:02 21.5 C 7.35 g/m*3 21.5 C 0 km/h
2480 03-05-2009 16:17:02 19.9 C 6.53 g/m*3 19.9 C 0 km/h
2481 03-05-2009 16:29:02 17.1 C 5.68 g/m*3 17.1 C 0 km/h
2482 03-05-2009 16:41:02 16.9 C 5.9 g/m*3 16.9 C 0 km/h
2483 03-05-2009 16:53:02 16.1 C 5.76 g/m*3 16.1 C 0 km/h
2484 03-05-2009 17:05:01 16.2 C 5.79 g/m*3 16.2 C 0 km/h
2485 03-05-2009 17:17:02 16.1 C 5.76 g/m*3 16.1 C 0 km/h
2486 03-05-2009 17:29:02 16.4 C 6.28 g/m*3 16.4 C 0 km/h
2487 03-05-2009 17:41:01 16.4 C 6.28 g/m*3 16.4 C 0 km/h
2488 03-05-2009 17:53:01 16.3 C 5.83 g/m*3 16.3 C 0 km/h
2489 03-05-2009 18:05:01 16.6 C 5.93 g/m*3 16.6 C 0 km/h
2490 03-05-2009 18:17:01 16.6 C 5.51 g/m*3 16.6 C 0 km/h
2491 03-05-2009 18:29:01 17.1 C 5.24 g/m*3 17.1 C 0 km/h
2492 03-05-2009 18:41:01 16.5 C 5.34 g/m*3 16.5 C 0 km/h
2493 03-05-2009 18:53:01 16.5 C 5.34 g/m*3 16.5 C 0 km/h
2494 03-05-2009 19:05:01 17.3 C 5.45 g/m*3 17.3 C 0 km/h
2495 03-05-2009 19:17:00 16.4 C 5.44 g/m*3 16.4 C 0 km/h
2496 03-05-2009 19:29:00 16.1 C 5.62 g/m*3 16.1 C 0 km/h
2497 03-05-2009 19:41:00 16.8 C 5.72 g/m*3 16.8 C 0 km/h
2498 03-05-2009 19:53:00 16.8 C 5.72 g/m*3 16.8 C 0 km/h
2499 03-05-2009 20:05:00 16.1 C 5.35 g/m*3 16.1 C 0 km/h
2500 03-05-2009 20:17:59 15.4 C 5.39 g/m*3 15.4 C 0 km/h
Sensor: Nr:Datum:Temp:Abs-Feuchte:Windchill:Wind:
Aussen-T/F 2501 03-05-2009 20:29:59 14.8 C 5.7 g/m*3 14.8 C 0 km/h
2502 03-05-2009 20:41:00 14.5 C 5.72 g/m*3 14.5 C 0 km/h
2503 03-05-2009 20:53:59 14.5 C 5.85 g/m*3 14.5 C 0 km/h
2504 03-05-2009 21:05:59 14.4 C 5.93 g/m*3 14.4 C 0 km/h
2505 03-05-2009 21:17:59 14.2 C 5.74 g/m*3 14.2 C 0 km/h
2506 03-05-2009 21:29:59 14 C 5.79 g/m*3 14 C 0 km/h
2507 03-05-2009 21:41:59 13.6 C 5.77 g/m*3 13.6 C 0 km/h
2508 03-05-2009 21:53:58 13.5 C 5.61 g/m*3 13.5 C 0 km/h
2509 03-05-2009 22:05:59 13.1 C 5.36 g/m*3 13.1 C 0 km/h
2510 03-05-2009 22:17:59 12.9 C 5.3 g/m*3 12.9 C 0 km/h
2511 03-05-2009 22:29:59 12.7 C 5.12 g/m*3 12.7 C 0 km/h
2512 03-05-2009 22:41:58 12.5 C 5.06 g/m*3 12.5 C 0 km/h
2513 03-05-2009 22:53:59 12.3 C 5.1 g/m*3 12.3 C 0 km/h
2514 03-05-2009 23:05:58 12.2 C 5.07 g/m*3 12.2 C 0 km/h
2515 03-05-2009 23:17:58 12.1 C 5.15 g/m*3 12.1 C 0 km/h
2516 03-05-2009 23:29:58 11.8 C 5.16 g/m*3 11.8 C 0 km/h
2517 03-05-2009 23:41:58 11.7 C 5.23 g/m*3 11.7 C 0 km/h
2518 03-05-2009 23:53:58 11.8 C 5.37 g/m*3 11.8 C 0 km/h
2519 04-05-2009 00:06:59 11.8 C 5.47 g/m*3 11.8 C 0 km/h
2520 04-05-2009 00:18:59 11.5 C 5.47 g/m*3 11.5 C 0 km/h
2521 04-05-2009 00:30:59 11.5 C 5.47 g/m*3 11.5 C 0 km/h
2522 04-05-2009 00:42:59 11.2 C 5.37 g/m*3 11.2 C 0 km/h
2523 04-05-2009 00:54:59 11 C 5.1 g/m*3 11 C 0 km/h
2524 04-05-2009 01:06:59 10.7 C 5.11 g/m*3 10.7 C 0 km/h
2525 04-05-2009 01:18:59 10.6 C 5.17 g/m*3 10.6 C 0 km/h
Sensor: Nr:Datum:Temp:Abs-Feuchte:Windchill:Wind:
Aussen-T/F 2526 04-05-2009 01:30:59 10.5 C 4.95 g/m*3 10.5 C 0 km/h
2527 04-05-2009 01:42:59 10.4 C 4.72 g/m*3 10.4 C 0 km/h
2528 04-05-2009 01:54:59 10.2 C 4.66 g/m*3 10.2 C 0 km/h
2529 04-05-2009 02:06:59 10 C 4.51 g/m*3 10 C 0 km/h
2530 04-05-2009 02:18:59 9.8 C 4.55 g/m*3 9.8 C 0 km/h
2531 04-05-2009 02:30:59 9.7 C 4.61 g/m*3 9.7 C 0 km/h
2532 04-05-2009 02:42:59 9.3 C 4.49 g/m*3 9.3 C 0 km/h
2533 04-05-2009 03:05:59 8.9 C 4.56 g/m*3 8.9 C 0 km/h
2534 04-05-2009 03:17:59 8.6 C 4.55 g/m*3 8.6 C 0 km/h
2535 04-05-2009 03:30:00 8.5 C 4.61 g/m*3 8.5 C 0 km/h
2536 04-05-2009 03:42:00 8.3 C 4.64 g/m*3 8.3 C 0 km/h
2537 04-05-2009 03:54:00 8.2 C 4.69 g/m*3 8.2 C 0 km/h
2538 04-05-2009 04:06:00 8.2 C 4.69 g/m*3 8.2 C 0 km/h
2539 04-05-2009 04:18:00 7.9 C 4.68 g/m*3 7.9 C 0 km/h
2540 04-05-2009 04:30:00 7.8 C 4.82 g/m*3 7.8 C 0 km/h
2541 04-05-2009 04:42:00 7.5 C 4.8 g/m*3 7.5 C 0 km/h
2542 04-05-2009 04:54:00 7.2 C 4.79 g/m*3 7.2 C 0 km/h
2543 04-05-2009 05:06:00 7 C 4.88 g/m*3 7 C 0 km/h
2544 04-05-2009 05:18:00 6.9 C 4.93 g/m*3 6.9 C 0 km/h
2545 04-05-2009 05:30:00 6.8 C 5.05 g/m*3 6.8 C 0 km/h
2546 04-05-2009 05:42:00 7 C 4.96 g/m*3 7 C 0 km/h
2547 04-05-2009 05:54:00 7.3 C 5.06 g/m*3 7.3 C 0 km/h
2548 04-05-2009 06:06:00 7.4 C 5.01 g/m*3 7.4 C 0 km/h
2549 04-05-2009 06:18:00 7.1 C 4.99 g/m*3 7.1 C 0 km/h
2550 04-05-2009 06:30:00 6.9 C 5.16 g/m*3 6.9 C 0 km/h
Sensor: Nr:Datum:Temp:Abs-Feuchte:Windchill:Wind:
Aussen-T/F 2551 04-05-2009 06:42:00 6.7 C 5.17 g/m*3 6.7 C 0 km/h
2552 04-05-2009 06:54:00 6.5 C 5.17 g/m*3 6.5 C 0 km/h
2553 04-05-2009 07:06:00 6.4 C 5.22 g/m*3 6.4 C 0 km/h
2554 04-05-2009 07:18:00 7.1 C 5.46 g/m*3 7.1 C 0 km/h
2555 04-05-2009 07:30:00 7.1 C 5.38 g/m*3 7.1 C 0 km/h
2556 04-05-2009 07:30:58 7 C 5.27 g/m*3 7 C 0 km/h
2557 04-05-2009 07:42:58 7.1 C 5.3 g/m*3 7.1 C 0 km/h
2558 04-05-2009 07:54:58 8.1 C 5.41 g/m*3 8.1 C 0 km/h
2559 04-05-2009 08:06:57 7.9 C 5.42 g/m*3 7.9 C 0 km/h
2560 04-05-2009 08:18:58 7.8 C 5.47 g/m*3 7.8 C 0 km/h
2561 04-05-2009 08:30:58 7.9 C 5.5 g/m*3 7.9 C 0 km/h
2562 04-05-2009 08:42:58 8 C 5.37 g/m*3 8 C 0 km/h
2563 04-05-2009 08:54:57 8.1 C 5.41 g/m*3 8.1 C 0 km/h
2564 04-05-2009 09:06:57 8.3 C 5.31 g/m*3 8.3 C 0 km/h
2565 04-05-2009 09:18:58 8.6 C 5.07 g/m*3 8.6 C 0 km/h
2566 04-05-2009 09:30:57 9 C 5.2 g/m*3 9 C 0 km/h
2567 04-05-2009 09:42:57 9.6 C 5.04 g/m*3 9.6 C 0 km/h
2568 04-05-2009 09:54:57 9.3 C 4.76 g/m*3 9.3 C 0 km/h
2569 04-05-2009 10:06:57 9.7 C 4.98 g/m*3 9.7 C 0 km/h
2570 04-05-2009 10:18:57 10.8 C 4.65 g/m*3 10.8 C 0 km/h
2571 04-05-2009 10:30:56 10.9 C 4.48 g/m*3 10.9 C 0 km/h
2572 04-05-2009 10:42:56 10.8 C 4.55 g/m*3 10.8 C 0 km/h
2573 04-05-2009 10:54:56 10.3 C 4.12 g/m*3 10.3 C 0 km/h
2574 04-05-2009 11:06:56 11.3 C 4.49 g/m*3 11.3 C 0 km/h
2575 04-05-2009 11:18:56 11.9 C 4.45 g/m*3 11.9 C 0 km/h
Sensor: Nr:Datum:Temp:Abs-Feuchte:Windchill:Wind:
Aussen-T/F 2576 04-05-2009 11:30:56 13.4 C 4.42 g/m*3 13.4 C 0 km/h
2577 04-05-2009 11:42:56 11.7 C 3.97 g/m*3 11.7 C 0 km/h
2578 04-05-2009 11:54:56 12.4 C 3.93 g/m*3 12.4 C 0 km/h
2579 04-05-2009 12:06:56 12.6 C 3.98 g/m*3 12.6 C 0 km/h
2580 04-05-2009 12:18:55 13.2 C 4.02 g/m*3 13.2 C 0 km/h
2581 04-05-2009 12:30:55 13.8 C 4.05 g/m*3 13.8 C 0 km/h
2582 04-05-2009 12:42:55 14 C 3.62 g/m*3 14 C 0 km/h
2583 04-05-2009 12:54:55 14 C 3.74 g/m*3 14 C 0 km/h
2584 04-05-2009 13:06:55 14.6 C 3.5 g/m*3 14.6 C 0 km/h
2585 04-05-2009 13:18:54 15.4 C 3.28 g/m*3 15.4 C 0 km/h
2586 04-05-2009 13:30:55 15.6 C 3.46 g/m*3 15.6 C 0 km/h
2587 04-05-2009 13:42:55 15.4 C 3.28 g/m*3 15.4 C 0 km/h
2588 04-05-2009 13:54:54 16.2 C 2.9 g/m*3 16.2 C 0 km/h
2589 04-05-2009 14:06:54 15.5 C 2.64 g/m*3 15.5 C 0 km/h
2590 04-05-2009 14:18:55 15.9 C 3.25 g/m*3 15.9 C 0 km/h
2591 04-05-2009 14:30:54 15.6 C 2.66 g/m*3 15.6 C 0 km/h
2592 04-05-2009 14:42:54 16.8 C 3 g/m*3 16.8 C 0 km/h
2593 04-05-2009 14:54:54 16.8 C 2.86 g/m*3 16.8 C 0 km/h
2594 04-05-2009 15:06:54 15 C 2.56 g/m*3 15 C 0 km/h
2595 04-05-2009 15:18:54 14.6 C 3.25 g/m*3 14.6 C 0 km/h
2596 04-05-2009 15:30:54 16.2 C 3.31 g/m*3 16.2 C 0 km/h
2597 04-05-2009 15:42:54 17.1 C 2.91 g/m*3 17.1 C 0 km/h
2598 04-05-2009 15:54:54 15.2 C 2.86 g/m*3 15.2 C 0 km/h
2599 04-05-2009 16:06:54 15.8 C 2.96 g/m*3 15.8 C 0 km/h
2600 04-05-2009 16:18:53 16.8 C 3.15 g/m*3 16.8 C 0 km/h
Sensor: Nr:Datum:Temp:Abs-Feuchte:Windchill:Wind:
Aussen-T/F 2601 04-05-2009 16:30:53 16.6 C 2.83 g/m*3 16.6 C 0 km/h
2602 04-05-2009 16:42:53 15.8 C 2.96 g/m*3 15.8 C 0 km/h
2603 04-05-2009 16:54:53 16.2 C 3.17 g/m*3 16.2 C 0 km/h
2604 04-05-2009 17:06:53 15 C 3.08 g/m*3 15 C 0 km/h
2605 04-05-2009 17:18:52 17 C 2.89 g/m*3 17 C 0 km/h
2606 04-05-2009 17:30:53 16 C 2.72 g/m*3 16 C 0 km/h
2607 04-05-2009 17:42:53 15.4 C 3.02 g/m*3 15.4 C 0 km/h
2608 04-05-2009 17:54:53 16 C 3.13 g/m*3 16 C 0 km/h
2609 04-05-2009 18:06:52 16.4 C 3.07 g/m*3 16.4 C 0 km/h
2610 04-05-2009 18:18:52 17.3 C 2.95 g/m*3 17.3 C 0 km/h
2611 04-05-2009 18:30:51 17.5 C 2.98 g/m*3 17.5 C 0 km/h
2612 04-05-2009 18:42:51 18.7 C 3.2 g/m*3 18.7 C 0 km/h
2613 04-05-2009 18:54:52 18 C 3.07 g/m*3 18 C 0 km/h
2614 04-05-2009 19:06:51 18.1 C 3.09 g/m*3 18.1 C 0 km/h
2615 04-05-2009 19:18:51 18.9 C 3.24 g/m*3 18.9 C 0 km/h
2616 04-05-2009 19:30:52 17.9 C 3.05 g/m*3 17.9 C 0 km/h
2617 04-05-2009 19:42:52 17.7 C 3.02 g/m*3 17.7 C 0 km/h
2618 04-05-2009 19:54:51 16.1 C 3.56 g/m*3 16.1 C 0 km/h
2619 04-05-2009 20:06:51 14.8 C 3.8 g/m*3 14.8 C 0 km/h
2620 04-05-2009 20:18:51 13.8 C 3.93 g/m*3 13.8 C 0 km/h
2621 04-05-2009 20:30:51 12.8 C 3.92 g/m*3 12.8 C 0 km/h
2622 04-05-2009 20:42:52 12.6 C 3.98 g/m*3 12.6 C 0 km/h
2623 04-05-2009 20:54:50 12.7 C 4.01 g/m*3 12.7 C 0 km/h
2624 04-05-2009 21:06:51 12.8 C 4.03 g/m*3 12.8 C 0 km/h
2625 04-05-2009 21:18:50 12.8 C 4.03 g/m*3 12.8 C 0 km/h
Sensor: Nr:Datum:Temp:Abs-Feuchte:Windchill:Wind:
Aussen-T/F 2626 04-05-2009 21:30:50 12.8 C 4.14 g/m*3 12.8 C 0 km/h
2627 04-05-2009 21:42:50 12.7 C 4.34 g/m*3 12.7 C 0 km/h
2628 04-05-2009 21:54:50 12.3 C 4.34 g/m*3 12.3 C 0 km/h
2629 04-05-2009 22:07:51 12.1 C 4.61 g/m*3 12.1 C 0 km/h
2630 04-05-2009 22:19:51 11.9 C 4.77 g/m*3 11.9 C 0 km/h
2631 04-05-2009 22:31:51 11.7 C 4.71 g/m*3 11.7 C 0 km/h
2632 04-05-2009 22:43:51 11.8 C 4.74 g/m*3 11.8 C 0 km/h
2633 04-05-2009 22:55:52 11.8 C 4.63 g/m*3 11.8 C 0 km/h
2634 04-05-2009 23:07:52 11.7 C 4.81 g/m*3 11.7 C 0 km/h
2635 04-05-2009 23:19:52 11.5 C 4.85 g/m*3 11.5 C 0 km/h
2636 04-05-2009 23:31:52 11.4 C 4.72 g/m*3 11.4 C 0 km/h
2637 04-05-2009 23:43:52 11.1 C 4.73 g/m*3 11.1 C 0 km/h
2638 04-05-2009 23:55:52 10.8 C 4.74 g/m*3 10.8 C 0 km/h
2639 05-05-2009 00:07:52 10.5 C 4.66 g/m*3 10.5 C 0 km/h
2640 05-05-2009 00:19:52 10 C 4.6 g/m*3 10 C 0 km/h
2641 05-05-2009 00:31:52 9.6 C 4.67 g/m*3 9.6 C 0 km/h
2642 05-05-2009 00:43:52 9.3 C 4.67 g/m*3 9.3 C 0 km/h
2643 05-05-2009 00:55:52 9.1 C 4.79 g/m*3 9.1 C 0 km/h
2644 05-05-2009 01:07:52 8.9 C 4.73 g/m*3 8.9 C 0 km/h
2645 05-05-2009 01:19:52 8.7 C 4.93 g/m*3 8.7 C 0 km/h
2646 05-05-2009 01:31:52 8.4 C 5.01 g/m*3 8.4 C 0 km/h
2647 05-05-2009 01:43:52 8.1 C 4.99 g/m*3 8.1 C 0 km/h
2648 05-05-2009 01:55:52 8 C 4.96 g/m*3 8 C 0 km/h
2649 05-05-2009 02:07:52 8.2 C 5.19 g/m*3 8.2 C 0 km/h
2650 05-05-2009 02:19:52 8.2 C 5.28 g/m*3 8.2 C 0 km/h
Sensor: Nr:Datum:Temp:Abs-Feuchte:Windchill:Wind:
Aussen-T/F 2651 05-05-2009 02:31:52 8.2 C 5.28 g/m*3 8.2 C 0 km/h
2652 05-05-2009 02:43:52 8.2 C 5.28 g/m*3 8.2 C 0 km/h
2653 05-05-2009 02:55:53 8.2 C 5.28 g/m*3 8.2 C 0 km/h
2654 05-05-2009 03:07:53 7.9 C 5.42 g/m*3 7.9 C 0 km/h
2655 05-05-2009 03:19:53 7.9 C 5.42 g/m*3 7.9 C 0 km/h
2656 05-05-2009 03:31:53 7.8 C 5.39 g/m*3 7.8 C 0 km/h
2657 05-05-2009 03:43:53 7.9 C 5.26 g/m*3 7.9 C 0 km/h
2658 05-05-2009 03:55:53 7.9 C 5.17 g/m*3 7.9 C 0 km/h
2659 05-05-2009 04:07:53 8 C 4.96 g/m*3 8 C 0 km/h
2660 05-05-2009 04:19:53 7.9 C 5.09 g/m*3 7.9 C 0 km/h
2661 05-05-2009 04:31:53 7.8 C 5.22 g/m*3 7.8 C 0 km/h
2662 05-05-2009 04:43:53 7.9 C 5.17 g/m*3 7.9 C 0 km/h
2663 05-05-2009 04:55:53 7.9 C 5.17 g/m*3 7.9 C 0 km/h
2664 05-05-2009 05:07:53 7.9 C 5.34 g/m*3 7.9 C 0 km/h
2665 05-05-2009 05:19:53 7.8 C 5.39 g/m*3 7.8 C 0 km/h
2666 05-05-2009 05:31:53 7.8 C 5.47 g/m*3 7.8 C 0 km/h
2667 05-05-2009 05:43:53 7.7 C 5.43 g/m*3 7.7 C 0 km/h
2668 05-05-2009 05:55:53 7.9 C 5.42 g/m*3 7.9 C 0 km/h
2669 05-05-2009 06:07:53 8 C 5.29 g/m*3 8 C 0 km/h
2670 05-05-2009 06:19:53 8 C 5.29 g/m*3 8 C 0 km/h
2671 05-05-2009 06:31:53 8.1 C 5.33 g/m*3 8.1 C 0 km/h
2672 05-05-2009 06:43:53 8.2 C 5.36 g/m*3 8.2 C 0 km/h
2673 05-05-2009 06:55:54 8.3 C 5.39 g/m*3 8.3 C 0 km/h
2674 05-05-2009 07:07:54 8.5 C 5.46 g/m*3 8.5 C 0 km/h
2675 05-05-2009 07:19:54 8.6 C 5.41 g/m*3 8.6 C 0 km/h
Sensor: Nr:Datum:Temp:Abs-Feuchte:Windchill:Wind:
Aussen-T/F 2676 05-05-2009 07:31:54 8.9 C 5.43 g/m*3 8.9 C 0 km/h
2677 05-05-2009 07:43:54 9.2 C 5.36 g/m*3 9.2 C 0 km/h
2678 05-05-2009 07:55:54 9.4 C 5.43 g/m*3 9.4 C 0 km/h
2679 05-05-2009 08:07:54 9.5 C 5.28 g/m*3 9.5 C 0 km/h
2680 05-05-2009 08:19:54 9.6 C 5.13 g/m*3 9.6 C 0 km/h
2681 05-05-2009 08:31:54 9.8 C 5.1 g/m*3 9.8 C 0 km/h
2682 05-05-2009 08:43:54 9.9 C 5.14 g/m*3 9.9 C 0 km/h
2683 05-05-2009 08:55:50 10.4 C 5.3 g/m*3 10.4 C 0 km/h
2684 05-05-2009 09:07:50 10.5 C 5.14 g/m*3 10.5 C 0 km/h
2685 05-05-2009 09:19:50 10.4 C 5.3 g/m*3 10.4 C 0 km/h
2686 05-05-2009 09:31:50 10.6 C 5.56 g/m*3 10.6 C 0 km/h
2687 05-05-2009 09:43:50 10.8 C 5.54 g/m*3 10.8 C 0 km/h
2688 05-05-2009 09:55:49 11 C 5.51 g/m*3 11 C 0 km/h
2689 05-05-2009 10:07:50 11.2 C 5.57 g/m*3 11.2 C 0 km/h
2690 05-05-2009 10:19:50 11.3 C 5.51 g/m*3 11.3 C 0 km/h
2691 05-05-2009 10:31:49 11.4 C 5.44 g/m*3 11.4 C 0 km/h
2692 05-05-2009 10:43:49 12 C 5.44 g/m*3 12 C 0 km/h
2693 05-05-2009 10:55:50 12 C 5.44 g/m*3 12 C 0 km/h
2694 05-05-2009 11:07:49 12.4 C 5.57 g/m*3 12.4 C 0 km/h
2695 05-05-2009 11:19:49 12.6 C 5.64 g/m*3 12.6 C 0 km/h
2696 05-05-2009 11:31:48 12.7 C 5.9 g/m*3 12.7 C 0 km/h
2697 05-05-2009 11:43:48 12.7 C 6.01 g/m*3 12.7 C 0 km/h
2698 05-05-2009 11:55:49 12.8 C 6.27 g/m*3 12.8 C 0 km/h
2699 05-05-2009 12:07:48 12.7 C 6.12 g/m*3 12.7 C 0 km/h
2700 05-05-2009 12:19:48 12.9 C 6.42 g/m*3 12.9 C 0 km/h
Sensor: Nr:Datum:Temp:Abs-Feuchte:Windchill:Wind:
Aussen-T/F 2701 05-05-2009 12:31:49 12.5 C 6.49 g/m*3 12.5 C 0 km/h
2702 05-05-2009 12:43:49 12.4 C 6.66 g/m*3 12.4 C 0 km/h
2703 05-05-2009 12:55:48 11.8 C 6.84 g/m*3 11.8 C 0 km/h
2704 05-05-2009 13:07:48 11.8 C 6.95 g/m*3 11.8 C 0 km/h
2705 05-05-2009 13:19:48 11.8 C 6.74 g/m*3 11.8 C 0 km/h
2706 05-05-2009 13:31:48 12 C 6.5 g/m*3 12 C 0 km/h
2707 05-05-2009 13:43:48 12.1 C 6.54 g/m*3 12.1 C 0 km/h
2708 05-05-2009 13:55:47 12.6 C 6.64 g/m*3 12.6 C 0 km/h
2709 05-05-2009 14:07:48 12.8 C 6.61 g/m*3 12.8 C 0 km/h
2710 05-05-2009 14:19:47 12.5 C 6.6 g/m*3 12.5 C 0 km/h
2711 05-05-2009 14:31:47 12.3 C 6.62 g/m*3 12.3 C 0 km/h
2712 05-05-2009 14:43:47 12.4 C 6.77 g/m*3 12.4 C 0 km/h
2713 05-05-2009 14:55:47 13.1 C 6.73 g/m*3 13.1 C 0 km/h
2714 05-05-2009 15:07:47 13.4 C 6.74 g/m*3 13.4 C 0 km/h
2715 05-05-2009 15:19:47 13.4 C 6.74 g/m*3 13.4 C 0 km/h
2716 05-05-2009 15:31:46 13.1 C 6.85 g/m*3 13.1 C 0 km/h
2717 05-05-2009 15:43:46 12.2 C 7.34 g/m*3 12.2 C 0 km/h
2718 05-05-2009 15:55:47 11.6 C 7.8 g/m*3 11.6 C 0 km/h
2719 05-05-2009 16:07:46 11.2 C 7.91 g/m*3 11.2 C 0 km/h
2720 05-05-2009 16:19:46 11.2 C 8.11 g/m*3 11.2 C 0 km/h
2721 05-05-2009 16:31:46 11.5 C 8.37 g/m*3 11.5 C 0 km/h
2722 05-05-2009 16:43:46 11.7 C 8.26 g/m*3 11.7 C 0 km/h
2723 05-05-2009 16:55:46 11.8 C 8.31 g/m*3 11.8 C 0 km/h
2724 05-05-2009 17:07:45 11.6 C 8.21 g/m*3 11.6 C 0 km/h
2725 05-05-2009 17:19:46 11.7 C 8.37 g/m*3 11.7 C 0 km/h
Sensor: Nr:Datum:Temp:Abs-Feuchte:Windchill:Wind:
Aussen-T/F 2726 05-05-2009 17:31:46 11.8 C 8.31 g/m*3 11.8 C 0 km/h
2727 05-05-2009 17:43:46 12 C 8.42 g/m*3 12 C 0 km/h
2728 05-05-2009 17:55:45 11.8 C 8.42 g/m*3 11.8 C 0 km/h
2729 05-05-2009 18:07:44 11.6 C 8.52 g/m*3 11.6 C 0 km/h
2730 05-05-2009 18:19:45 11.5 C 8.57 g/m*3 11.5 C 0 km/h
2731 05-05-2009 18:31:45 11.3 C 8.57 g/m*3 11.3 C 0 km/h
2732 05-05-2009 18:43:45 11.2 C 8.72 g/m*3 11.2 C 0 km/h
2733 05-05-2009 18:55:45 11.2 C 8.72 g/m*3 11.2 C 0 km/h
2734 05-05-2009 19:07:45 11.2 C 8.82 g/m*3 11.2 C 0 km/h
2735 05-05-2009 19:19:44 11.2 C 8.92 g/m*3 11.2 C 0 km/h
2736 05-05-2009 19:31:44 11.2 C 8.92 g/m*3 11.2 C 0 km/h
2737 05-05-2009 19:43:44 11.1 C 8.96 g/m*3 11.1 C 0 km/h
2738 05-05-2009 19:55:44 11.1 C 8.96 g/m*3 11.1 C 0 km/h
2739 05-05-2009 20:07:44 11.1 C 9.07 g/m*3 11.1 C 0 km/h
2740 05-05-2009 20:19:43 11 C 9.01 g/m*3 11 C 0 km/h
2741 05-05-2009 20:31:44 11.1 C 9.07 g/m*3 11.1 C 0 km/h
2742 05-05-2009 20:43:44 11.1 C 9.17 g/m*3 11.1 C 0 km/h
2743 05-05-2009 20:55:43 11 C 9.11 g/m*3 11 C 0 km/h
2744 05-05-2009 21:07:43 11.1 C 9.17 g/m*3 11.1 C 0 km/h
2745 05-05-2009 21:19:43 11.1 C 9.27 g/m*3 11.1 C 0 km/h
2746 05-05-2009 21:31:43 11.2 C 9.33 g/m*3 11.2 C 0 km/h
2747 05-05-2009 21:43:43 11.2 C 9.33 g/m*3 11.2 C 0 km/h
2748 05-05-2009 21:55:43 11.2 C 9.33 g/m*3 11.2 C 0 km/h
2749 05-05-2009 22:07:42 11.2 C 9.33 g/m*3 11.2 C 0 km/h
2750 05-05-2009 22:19:43 11.2 C 9.33 g/m*3 11.2 C 0 km/h
Sensor: Nr:Datum:Temp:Abs-Feuchte:Windchill:Wind:
Aussen-T/F 2751 05-05-2009 22:31:43 11.3 C 9.38 g/m*3 11.3 C 0 km/h
2752 05-05-2009 22:43:43 11.4 C 9.44 g/m*3 11.4 C 0 km/h
2753 05-05-2009 22:55:42 11.3 C 9.38 g/m*3 11.3 C 0 km/h
2754 05-05-2009 23:07:43 11.4 C 9.44 g/m*3 11.4 C 0 km/h
2755 05-05-2009 23:19:42 11.4 C 9.44 g/m*3 11.4 C 0 km/h
2756 05-05-2009 23:32:43 11.4 C 9.44 g/m*3 11.4 C 0 km/h
2757 05-05-2009 23:44:43 11.3 C 9.38 g/m*3 11.3 C 0 km/h
2758 05-05-2009 23:56:43 11.4 C 9.44 g/m*3 11.4 C 0 km/h
2759 06-05-2009 00:08:43 11.8 C 9.58 g/m*3 11.8 C 0 km/h
2760 06-05-2009 00:20:43 11.9 C 9.43 g/m*3 11.9 C 0 km/h
2761 06-05-2009 00:32:43 12 C 9.27 g/m*3 12 C 0 km/h
2762 06-05-2009 00:44:43 12 C 9.06 g/m*3 12 C 0 km/h
2763 06-05-2009 00:56:43 12.1 C 9.01 g/m*3 12.1 C 0 km/h
2764 06-05-2009 01:08:43 12.2 C 8.96 g/m*3 12.2 C 0 km/h
2765 06-05-2009 01:20:43 12.2 C 8.85 g/m*3 12.2 C 0 km/h
2766 06-05-2009 01:32:44 12.1 C 8.79 g/m*3 12.1 C 0 km/h
2767 06-05-2009 01:44:44 12.1 C 8.79 g/m*3 12.1 C 0 km/h
2768 06-05-2009 01:56:44 12.1 C 8.79 g/m*3 12.1 C 0 km/h
2769 06-05-2009 02:08:44 12.3 C 8.8 g/m*3 12.3 C 0 km/h
2770 06-05-2009 02:20:44 12.4 C 8.74 g/m*3 12.4 C 0 km/h
2771 06-05-2009 02:32:44 12.4 C 8.74 g/m*3 12.4 C 0 km/h
2772 06-05-2009 02:44:44 12.4 C 8.63 g/m*3 12.4 C 0 km/h
2773 06-05-2009 02:56:44 12.4 C 8.63 g/m*3 12.4 C 0 km/h
2774 06-05-2009 03:08:44 12.2 C 8.63 g/m*3 12.2 C 0 km/h
2775 06-05-2009 03:20:44 12.2 C 8.52 g/m*3 12.2 C 0 km/h
Sensor: Nr:Datum:Temp:Abs-Feuchte:Windchill:Wind:
Aussen-T/F 2776 06-05-2009 03:32:44 12.4 C 8.3 g/m*3 12.4 C 0 km/h
2777 06-05-2009 03:44:44 12.4 C 8.3 g/m*3 12.4 C 0 km/h
2778 06-05-2009 03:56:44 12.4 C 8.3 g/m*3 12.4 C 0 km/h
2779 06-05-2009 04:08:44 12.4 C 8.09 g/m*3 12.4 C 0 km/h
2780 06-05-2009 04:20:44 12.4 C 7.98 g/m*3 12.4 C 0 km/h
2781 06-05-2009 04:32:44 12.2 C 7.99 g/m*3 12.2 C 0 km/h
2782 06-05-2009 04:44:44 12 C 7.99 g/m*3 12 C 0 km/h
2783 06-05-2009 04:56:44 12 C 7.99 g/m*3 12 C 0 km/h
2784 06-05-2009 05:08:44 12 C 7.78 g/m*3 12 C 0 km/h
2785 06-05-2009 05:20:44 12 C 7.57 g/m*3 12 C 0 km/h
2786 06-05-2009 05:32:45 11.9 C 7.41 g/m*3 11.9 C 0 km/h
2787 06-05-2009 05:44:45 11.8 C 7.26 g/m*3 11.8 C 0 km/h
2788 06-05-2009 05:56:45 11.8 C 7.05 g/m*3 11.8 C 0 km/h
2789 06-05-2009 06:08:45 11.8 C 6.95 g/m*3 11.8 C 0 km/h
2790 06-05-2009 06:20:45 11.8 C 7.05 g/m*3 11.8 C 0 km/h
2791 06-05-2009 06:32:45 11.8 C 7.05 g/m*3 11.8 C 0 km/h
2792 06-05-2009 06:44:45 11.8 C 7.16 g/m*3 11.8 C 0 km/h
2793 06-05-2009 06:56:45 11.8 C 7.16 g/m*3 11.8 C 0 km/h
2794 06-05-2009 07:08:45 11.8 C 6.95 g/m*3 11.8 C 0 km/h
2795 06-05-2009 07:20:45 11.9 C 6.99 g/m*3 11.9 C 0 km/h
2796 06-05-2009 07:32:45 12 C 6.71 g/m*3 12 C 0 km/h
2797 06-05-2009 07:44:45 12.2 C 6.91 g/m*3 12.2 C 0 km/h
2798 06-05-2009 07:56:45 12.3 C 6.84 g/m*3 12.3 C 0 km/h
2799 06-05-2009 08:08:43 12.3 C 6.73 g/m*3 12.3 C 0 km/h
2800 06-05-2009 08:20:43 12.3 C 6.73 g/m*3 12.3 C 0 km/h
Sensor: Nr:Datum:Temp:Abs-Feuchte:Windchill:Wind:
Aussen-T/F 2801 06-05-2009 08:32:43 12.2 C 6.69 g/m*3 12.2 C 0 km/h
2802 06-05-2009 08:44:43 12.2 C 6.69 g/m*3 12.2 C 0 km/h
2803 06-05-2009 08:56:43 12.4 C 6.88 g/m*3 12.4 C 0 km/h
2804 06-05-2009 09:08:42 12.3 C 6.41 g/m*3 12.3 C 0 km/h
2805 06-05-2009 09:20:43 12.5 C 6.38 g/m*3 12.5 C 0 km/h
2806 06-05-2009 09:32:42 13.1 C 6.73 g/m*3 13.1 C 0 km/h
2807 06-05-2009 09:44:42 13.2 C 6.54 g/m*3 13.2 C 0 km/h
2808 06-05-2009 09:56:43 13.7 C 6.16 g/m*3 13.7 C 0 km/h
2809 06-05-2009 10:08:42 14.1 C 6.31 g/m*3 14.1 C 0 km/h
2810 06-05-2009 10:20:42 14 C 6.03 g/m*3 14 C 0 km/h
2811 06-05-2009 10:32:42 14.4 C 6.18 g/m*3 14.4 C 0 km/h
2812 06-05-2009 10:44:41 14.1 C 5.95 g/m*3 14.1 C 0 km/h
2813 06-05-2009 10:56:41 14.4 C 5.93 g/m*3 14.4 C 0 km/h
2814 06-05-2009 11:08:42 14.7 C 5.92 g/m*3 14.7 C 0 km/h
2815 06-05-2009 11:20:41 14.7 C 5.79 g/m*3 14.7 C 0 km/h
2816 06-05-2009 11:32:41 15.2 C 5.84 g/m*3 15.2 C 0 km/h
2817 06-05-2009 11:44:41 15.4 C 5.78 g/m*3 15.4 C 0 km/h
2818 06-05-2009 11:56:41 15.5 C 5.82 g/m*3 15.5 C 0 km/h
2819 06-05-2009 12:08:41 15.8 C 5.79 g/m*3 15.8 C 0 km/h
2820 06-05-2009 12:20:40 16.2 C 5.79 g/m*3 16.2 C 0 km/h
2821 06-05-2009 12:32:41 16.2 C 5.65 g/m*3 16.2 C 0 km/h
2822 06-05-2009 12:44:40 16.2 C 5.93 g/m*3 16.2 C 0 km/h
2823 06-05-2009 12:56:40 15.4 C 5.91 g/m*3 15.4 C 0 km/h
2824 06-05-2009 13:08:40 15.4 C 5.91 g/m*3 15.4 C 0 km/h
2825 06-05-2009 13:20:41 15.3 C 6.14 g/m*3 15.3 C 0 km/h
Sensor: Nr:Datum:Temp:Abs-Feuchte:Windchill:Wind:
Aussen-T/F 2826 06-05-2009 13:32:40 15.4 C 6.18 g/m*3 15.4 C 0 km/h
2827 06-05-2009 13:44:40 15.6 C 6.25 g/m*3 15.6 C 0 km/h
2828 06-05-2009 13:56:40 15.9 C 6.23 g/m*3 15.9 C 0 km/h
2829 06-05-2009 14:08:40 16 C 6.4 g/m*3 16 C 0 km/h
2830 06-05-2009 14:20:40 16 C 6.13 g/m*3 16 C 0 km/h
2831 06-05-2009 14:32:39 15.8 C 6.33 g/m*3 15.8 C 0 km/h
2832 06-05-2009 14:44:40 15.6 C 6.38 g/m*3 15.6 C 0 km/h
2833 06-05-2009 14:56:40 15.5 C 6.48 g/m*3 15.5 C 0 km/h
2834 06-05-2009 15:08:39 15.4 C 6.57 g/m*3 15.4 C 0 km/h
2835 06-05-2009 15:20:39 15.5 C 6.61 g/m*3 15.5 C 0 km/h
2836 06-05-2009 15:32:39 15.4 C 6.57 g/m*3 15.4 C 0 km/h
2837 06-05-2009 15:44:39 15.6 C 6.78 g/m*3 15.6 C 0 km/h
2838 06-05-2009 15:56:39 15.7 C 6.69 g/m*3 15.7 C 0 km/h
2839 06-05-2009 16:02:38 15.7 C 6.82 g/m*3 15.7 C 0 km/h
2840 06-05-2009 16:17:39 15.6 C 6.78 g/m*3 15.6 C 0 km/h
2841 06-05-2009 16:32:38 15.6 C 6.78 g/m*3 15.6 C 0 km/h
2842 06-05-2009 16:47:38 15.7 C 6.96 g/m*3 15.7 C 0 km/h
2843 06-05-2009 17:02:38 15.9 C 7.04 g/m*3 15.9 C 0 km/h
2844 06-05-2009 17:17:38 15.8 C 7 g/m*3 15.8 C 0 km/h
2845 06-05-2009 17:32:38 15.7 C 7.09 g/m*3 15.7 C 0 km/h
2846 06-05-2009 17:47:38 15.8 C 7.13 g/m*3 15.8 C 0 km/h
2847 06-05-2009 18:02:38 16 C 6.81 g/m*3 16 C 0 km/h
2848 06-05-2009 18:17:37 16 C 6.81 g/m*3 16 C 0 km/h
2849 06-05-2009 18:32:37 15.8 C 7 g/m*3 15.8 C 0 km/h
2850 06-05-2009 18:47:37 15.7 C 7.09 g/m*3 15.7 C 0 km/h
Sensor: Nr:Datum:Temp:Abs-Feuchte:Windchill:Wind:
Aussen-T/F 2851 06-05-2009 19:02:37 15.7 C 7.09 g/m*3 15.7 C 0 km/h
2852 06-05-2009 19:17:36 15.6 C 7.31 g/m*3 15.6 C 0 km/h
2853 06-05-2009 19:32:36 15.5 C 7.27 g/m*3 15.5 C 0 km/h
2854 06-05-2009 19:47:36 15.3 C 7.18 g/m*3 15.3 C 0 km/h
2855 06-05-2009 20:02:36 15.2 C 7.14 g/m*3 15.2 C 0 km/h
2856 06-05-2009 20:17:36 15.1 C 7.22 g/m*3 15.1 C 0 km/h
2857 06-05-2009 20:32:36 15 C 7.31 g/m*3 15 C 0 km/h
2858 06-05-2009 20:47:36 14.8 C 7.35 g/m*3 14.8 C 0 km/h
2859 06-05-2009 21:02:36 14.7 C 7.3 g/m*3 14.7 C 0 km/h
2860 06-05-2009 21:17:01 14.6 C 7.26 g/m*3 14.6 C 0 km/h
2861 06-05-2009 21:33:36 14.5 C 7.21 g/m*3 14.5 C 0 km/h
2862 06-05-2009 21:48:36 14.4 C 7.17 g/m*3 14.4 C 0 km/h
2863 06-05-2009 22:03:36 14.2 C 7.2 g/m*3 14.2 C 0 km/h
2864 06-05-2009 22:18:36 14.3 C 7.25 g/m*3 14.3 C 0 km/h
2865 06-05-2009 22:33:36 14.1 C 7.16 g/m*3 14.1 C 0 km/h
2866 06-05-2009 22:48:36 14.1 C 7.16 g/m*3 14.1 C 0 km/h
2867 06-05-2009 23:03:36 14 C 7.12 g/m*3 14 C 0 km/h
2868 06-05-2009 23:18:36 13.9 C 7.19 g/m*3 13.9 C 0 km/h
2869 06-05-2009 23:33:36 13.7 C 7.1 g/m*3 13.7 C 0 km/h
2870 06-05-2009 23:48:37 13.6 C 7.06 g/m*3 13.6 C 0 km/h
2871 07-05-2009 00:03:37 13.5 C 7.13 g/m*3 13.5 C 0 km/h
2872 07-05-2009 00:18:37 13.4 C 7.09 g/m*3 13.4 C 0 km/h
2873 07-05-2009 00:33:37 13.1 C 7.19 g/m*3 13.1 C 0 km/h
2874 07-05-2009 00:48:37 12.8 C 7.28 g/m*3 12.8 C 0 km/h
2875 07-05-2009 01:03:37 12.4 C 7.21 g/m*3 12.4 C 0 km/h
Sensor: Nr:Datum:Temp:Abs-Feuchte:Windchill:Wind:
Aussen-T/F 2876 07-05-2009 01:18:37 12.1 C 7.29 g/m*3 12.1 C 0 km/h
2877 07-05-2009 01:33:37 11.8 C 7.37 g/m*3 11.8 C 0 km/h
2878 07-05-2009 01:48:37 11.6 C 7.38 g/m*3 11.6 C 0 km/h
2879 07-05-2009 02:03:37 11.3 C 7.34 g/m*3 11.3 C 0 km/h
2880 07-05-2009 02:18:37 11 C 7.31 g/m*3 11 C 0 km/h
2881 07-05-2009 02:33:37 11 C 7.41 g/m*3 11 C 0 km/h
2882 07-05-2009 02:48:37 10.9 C 7.46 g/m*3 10.9 C 0 km/h
2883 07-05-2009 03:03:37 10.8 C 7.41 g/m*3 10.8 C 0 km/h
2884 07-05-2009 03:18:37 10.7 C 7.37 g/m*3 10.7 C 0 km/h
2885 07-05-2009 03:33:37 10.5 C 7.37 g/m*3 10.5 C 0 km/h
2886 07-05-2009 03:48:37 10.3 C 7.28 g/m*3 10.3 C 0 km/h
2887 07-05-2009 04:03:37 10.2 C 7.23 g/m*3 10.2 C 0 km/h
2888 07-05-2009 04:18:37 10.2 C 7.33 g/m*3 10.2 C 0 km/h
2889 07-05-2009 04:33:38 9.7 C 7.19 g/m*3 9.7 C 0 km/h
2890 07-05-2009 04:48:38 9.3 C 7.1 g/m*3 9.3 C 0 km/h
2891 07-05-2009 05:03:38 8.9 C 7.01 g/m*3 8.9 C 0 km/h
2892 07-05-2009 05:18:38 8.7 C 7.01 g/m*3 8.7 C 0 km/h
2893 07-05-2009 05:33:38 8.5 C 7 g/m*3 8.5 C 0 km/h
2894 07-05-2009 05:48:38 8.4 C 7.04 g/m*3 8.4 C 0 km/h
2895 07-05-2009 06:03:38 8.3 C 7.08 g/m*3 8.3 C 0 km/h
2896 07-05-2009 06:18:38 8.2 C 7.03 g/m*3 8.2 C 0 km/h
2897 07-05-2009 06:33:38 8.2 C 7.03 g/m*3 8.2 C 0 km/h
2898 07-05-2009 06:48:38 8.3 C 7.16 g/m*3 8.3 C 0 km/h
2899 07-05-2009 07:03:36 8.5 C 7.26 g/m*3 8.5 C 0 km/h
2900 07-05-2009 07:18:36 8.6 C 7.39 g/m*3 8.6 C 0 km/h
Sensor: Nr:Datum:Temp:Abs-Feuchte:Windchill:Wind:
Aussen-T/F 2901 07-05-2009 07:33:35 9.2 C 7.59 g/m*3 9.2 C 0 km/h
2902 07-05-2009 07:48:36 9.9 C 7.84 g/m*3 9.9 C 0 km/h
2903 07-05-2009 08:03:35 10.1 C 7.47 g/m*3 10.1 C 0 km/h
2904 07-05-2009 08:18:35 10.2 C 7.52 g/m*3 10.2 C 0 km/h
2905 07-05-2009 08:33:35 10.7 C 7.66 g/m*3 10.7 C 0 km/h
2906 07-05-2009 08:56:02 11.4 C 7.6 g/m*3 11.4 C 0 km/h
2907 07-05-2009 09:11:02 11.9 C 7.63 g/m*3 11.9 C 0 km/h
2908 07-05-2009 09:26:02 12.5 C 7.48 g/m*3 12.5 C 0 km/h
2909 07-05-2009 09:41:02 13 C 7.37 g/m*3 13 C 0 km/h
2910 07-05-2009 09:56:02 13.5 C 7.49 g/m*3 13.5 C 0 km/h
2911 07-05-2009 10:11:02 13.8 C 7.51 g/m*3 13.8 C 0 km/h
2912 07-05-2009 10:26:02 14.6 C 7.38 g/m*3 14.6 C 0 km/h
2913 07-05-2009 10:41:02 15 C 7.05 g/m*3 15 C 0 km/h
2914 07-05-2009 10:56:02 15.4 C 7.36 g/m*3 15.4 C 0 km/h
2915 07-05-2009 11:11:03 16.1 C 6.99 g/m*3 16.1 C 0 km/h
2916 07-05-2009 11:26:03 16.4 C 6.98 g/m*3 16.4 C 0 km/h
2917 07-05-2009 11:41:03 16.7 C 7.11 g/m*3 16.7 C 0 km/h
2918 07-05-2009 11:56:03 17 C 6.66 g/m*3 17 C 0 km/h
2919 07-05-2009 12:11:03 17.6 C 6.45 g/m*3 17.6 C 0 km/h
2920 07-05-2009 12:26:03 17.7 C 6.49 g/m*3 17.7 C 0 km/h
2921 07-05-2009 12:41:03 17.2 C 6.3 g/m*3 17.2 C 0 km/h
2922 07-05-2009 12:56:03 18.5 C 6.65 g/m*3 18.5 C 0 km/h
2923 07-05-2009 13:11:03 19.3 C 6.47 g/m*3 19.3 C 0 km/h
2924 07-05-2009 13:26:03 19.7 C 6.28 g/m*3 19.7 C 0 km/h
2925 07-05-2009 13:41:03 20.5 C 5.69 g/m*3 20.5 C 0 km/h
Sensor: Nr:Datum:Temp:Abs-Feuchte:Windchill:Wind:
Aussen-T/F 2926 07-05-2009 13:56:03 20.5 C 5.69 g/m*3 20.5 C 0 km/h
2927 07-05-2009 14:11:03 20.5 C 5.52 g/m*3 20.5 C 0 km/h
2928 07-05-2009 14:26:03 20.3 C 5.45 g/m*3 20.3 C 0 km/h
2929 07-05-2009 14:41:03 20.9 C 5.83 g/m*3 20.9 C 0 km/h
2930 07-05-2009 14:56:03 21.5 C 5.85 g/m*3 21.5 C 0 km/h
2931 07-05-2009 15:11:03 21.9 C 5.79 g/m*3 21.9 C 0 km/h
2932 07-05-2009 15:26:03 22.7 C 5.66 g/m*3 22.7 C 0 km/h
2933 07-05-2009 15:41:03 23.1 C 5.17 g/m*3 23.1 C 0 km/h
2934 07-05-2009 15:56:04 24.1 C 5.47 g/m*3 24.1 C 0 km/h
2935 07-05-2009 16:11:04 23.6 C 5.1 g/m*3 23.6 C 0 km/h
2936 07-05-2009 16:26:04 24.5 C 5.6 g/m*3 24.5 C 0 km/h
2937 07-05-2009 16:41:04 24.5 C 5.6 g/m*3 24.5 C 0 km/h
2938 07-05-2009 16:56:04 24.1 C 5.47 g/m*3 24.1 C 0 km/h
2939 07-05-2009 17:11:04 25.1 C 5.56 g/m*3 25.1 C 0 km/h
2940 07-05-2009 17:26:04 25.4 C 5.41 g/m*3 25.4 C 0 km/h
2941 07-05-2009 17:41:04 24.9 C 5.72 g/m*3 24.9 C 0 km/h
2942 07-05-2009 17:56:04 26.4 C 5.73 g/m*3 26.4 C 0 km/h
2943 07-05-2009 18:11:04 26 C 5.11 g/m*3 26 C 0 km/h
2944 07-05-2009 18:26:04 25.5 C 4.97 g/m*3 25.5 C 0 km/h
2945 07-05-2009 18:41:04 25.1 C 5.09 g/m*3 25.1 C 0 km/h
2946 07-05-2009 18:56:04 25 C 5.29 g/m*3 25 C 0 km/h
2947 07-05-2009 19:11:04 25.7 C 5.99 g/m*3 25.7 C 0 km/h
2948 07-05-2009 19:26:04 26.4 C 5.73 g/m*3 26.4 C 0 km/h
2949 07-05-2009 19:41:04 25.9 C 5.57 g/m*3 25.9 C 0 km/h
2950 07-05-2009 19:56:04 25.5 C 5.92 g/m*3 25.5 C 0 km/h
Sensor: Nr:Datum:Temp:Abs-Feuchte:Windchill:Wind:
Aussen-T/F 2951 07-05-2009 20:11:04 25.1 C 6.48 g/m*3 25.1 C 0 km/h
2952 07-05-2009 20:26:04 24.1 C 6.56 g/m*3 24.1 C 0 km/h
2953 07-05-2009 20:41:04 22.4 C 6.55 g/m*3 22.4 C 0 km/h
2954 07-05-2009 20:56:04 20.8 C 6.88 g/m*3 20.8 C 0 km/h
2955 07-05-2009 21:11:05 19.9 C 7.39 g/m*3 19.9 C 0 km/h
2956 07-05-2009 21:26:05 19.3 C 7.3 g/m*3 19.3 C 0 km/h
2957 07-05-2009 21:41:05 18.9 C 7.29 g/m*3 18.9 C 0 km/h
2958 07-05-2009 21:56:05 18.6 C 7.32 g/m*3 18.6 C 0 km/h
2959 07-05-2009 22:11:05 18.1 C 7.26 g/m*3 18.1 C 0 km/h
2960 07-05-2009 22:26:05 17.7 C 7.39 g/m*3 17.7 C 0 km/h
2961 07-05-2009 22:41:05 17.2 C 7.47 g/m*3 17.2 C 0 km/h
2962 07-05-2009 22:56:05 16.8 C 7.43 g/m*3 16.8 C 0 km/h
2963 07-05-2009 23:11:05 16.6 C 7.49 g/m*3 16.6 C 0 km/h
2964 07-05-2009 23:26:05 16.4 C 7.68 g/m*3 16.4 C 0 km/h
2965 07-05-2009 23:41:05 16 C 7.49 g/m*3 16 C 0 km/h
2966 07-05-2009 23:56:05 15.7 C 7.63 g/m*3 15.7 C 0 km/h
2967 08-05-2009 00:11:05 15.4 C 7.75 g/m*3 15.4 C 0 km/h
2968 08-05-2009 00:26:05 14.8 C 7.85 g/m*3 14.8 C 0 km/h
2969 08-05-2009 00:41:05 14.6 C 7.88 g/m*3 14.6 C 0 km/h
2970 08-05-2009 00:56:05 14.4 C 7.79 g/m*3 14.4 C 0 km/h
2971 08-05-2009 01:11:05 14.2 C 7.94 g/m*3 14.2 C 0 km/h
2972 08-05-2009 01:26:05 13.9 C 8.15 g/m*3 13.9 C 0 km/h
2973 08-05-2009 01:41:05 14 C 7.96 g/m*3 14 C 0 km/h
2974 08-05-2009 01:56:05 13.6 C 8 g/m*3 13.6 C 0 km/h
2975 08-05-2009 02:11:06 13.2 C 7.92 g/m*3 13.2 C 0 km/h
Sensor: Nr:Datum:Temp:Abs-Feuchte:Windchill:Wind:
Aussen-T/F 2976 08-05-2009 02:26:06 13.1 C 7.99 g/m*3 13.1 C 0 km/h
2977 08-05-2009 02:41:06 12.8 C 8.06 g/m*3 12.8 C 0 km/h
2978 08-05-2009 02:56:06 12.7 C 8.01 g/m*3 12.7 C 0 km/h
2979 08-05-2009 03:11:06 12.5 C 8.03 g/m*3 12.5 C 0 km/h
2980 08-05-2009 03:26:06 12.4 C 8.09 g/m*3 12.4 C 0 km/h
2981 08-05-2009 03:41:06 12.2 C 8.09 g/m*3 12.2 C 0 km/h
2982 08-05-2009 03:56:06 12.4 C 8.09 g/m*3 12.4 C 0 km/h
2983 08-05-2009 04:11:06 12.1 C 8.04 g/m*3 12.1 C 0 km/h
2984 08-05-2009 04:26:06 12.1 C 8.04 g/m*3 12.1 C 0 km/h
2985 08-05-2009 04:41:06 12.4 C 8.19 g/m*3 12.4 C 0 km/h
2986 08-05-2009 04:56:06 12.2 C 8.2 g/m*3 12.2 C 0 km/h
2987 08-05-2009 05:11:06 11.5 C 8.57 g/m*3 11.5 C 0 km/h
2988 08-05-2009 05:26:06 11.7 C 9.2 g/m*3 11.7 C 0 km/h
2989 08-05-2009 05:41:06 12 C 9.48 g/m*3 12 C 0 km/h
2990 08-05-2009 05:56:06 12.6 C 10.07 g/m*3 12.6 C 0 km/h
2991 08-05-2009 06:11:06 13.3 C 10.4 g/m*3 13.3 C 0 km/h
2992 08-05-2009 06:26:06 13.5 C 10.18 g/m*3 13.5 C 0 km/h
2993 08-05-2009 06:41:06 13.3 C 9.94 g/m*3 13.3 C 0 km/h
2994 08-05-2009 06:56:06 13.2 C 9.99 g/m*3 13.2 C 0 km/h
2995 08-05-2009 07:11:06 13 C 9.98 g/m*3 13 C 0 km/h
2996 08-05-2009 07:26:07 13.1 C 10.16 g/m*3 13.1 C 0 km/h
2997 08-05-2009 07:41:07 12.6 C 10.07 g/m*3 12.6 C 0 km/h
2998 08-05-2009 07:56:07 13.4 C 10.58 g/m*3 13.4 C 0 km/h
2999 08-05-2009 08:11:07 13.9 C 10.91 g/m*3 13.9 C 0 km/h
3000 08-05-2009 08:26:07 14.4 C 11.13 g/m*3 14.4 C 0 km/h
Sensor: Nr:Datum:Temp:Abs-Feuchte:Windchill:Wind:
Aussen-T/F 3001 08-05-2009 08:41:07 15 C 11.28 g/m*3 15 C 0 km/h
3002 08-05-2009 08:56:07 15.5 C 11.24 g/m*3 15.5 C 0 km/h
3003 08-05-2009 09:11:07 16.2 C 11.17 g/m*3 16.2 C 0 km/h
3004 08-05-2009 09:26:07 16.6 C 11.3 g/m*3 16.6 C 0 km/h
3005 08-05-2009 09:41:07 15.2 C 10.12 g/m*3 15.2 C 0 km/h
3006 08-05-2009 09:56:07 15.1 C 10.45 g/m*3 15.1 C 0 km/h
3007 08-05-2009 10:11:07 16 C 10.63 g/m*3 16 C 0 km/h
3008 08-05-2009 10:26:07 16.3 C 10.41 g/m*3 16.3 C 0 km/h
3009 08-05-2009 10:41:07 17 C 10.56 g/m*3 17 C 0 km/h
3010 08-05-2009 10:56:07 18.1 C 10.35 g/m*3 18.1 C 0 km/h
3011 08-05-2009 11:11:07 18.4 C 10.38 g/m*3 18.4 C 0 km/h
3012 08-05-2009 11:26:07 18.9 C 10.04 g/m*3 18.9 C 0 km/h
3013 08-05-2009 11:41:07 19.4 C 9.51 g/m*3 19.4 C 0 km/h
3014 08-05-2009 11:56:07 19.5 C 9.4 g/m*3 19.5 C 0 km/h
3015 08-05-2009 12:11:07 19.9 C 9.45 g/m*3 19.9 C 0 km/h
3016 08-05-2009 12:26:08 20.5 C 9.25 g/m*3 20.5 C 0 km/h
3017 08-05-2009 12:41:08 20 C 9.16 g/m*3 20 C 0 km/h
3018 08-05-2009 12:56:08 20.1 C 9.04 g/m*3 20.1 C 0 km/h
3019 08-05-2009 13:11:08 20 C 8.99 g/m*3 20 C 0 km/h
3020 08-05-2009 13:26:08 20.2 C 8.92 g/m*3 20.2 C 0 km/h
3021 08-05-2009 13:41:08 19.9 C 9.11 g/m*3 19.9 C 0 km/h
3022 08-05-2009 13:56:08 21 C 8.98 g/m*3 21 C 0 km/h
3023 08-05-2009 14:11:08 21 C 8.79 g/m*3 21 C 0 km/h
3024 08-05-2009 14:26:08 21.2 C 8.52 g/m*3 21.2 C 0 km/h
3025 08-05-2009 14:41:08 22.3 C 8.49 g/m*3 22.3 C 0 km/h
Sensor: Nr:Datum:Temp:Abs-Feuchte:Windchill:Wind:
Aussen-T/F 3026 08-05-2009 14:56:08 22 C 8.15 g/m*3 22 C 0 km/h
3027 08-05-2009 15:11:08 21.9 C 8.1 g/m*3 21.9 C 0 km/h
3028 08-05-2009 15:26:08 22 C 7.96 g/m*3 22 C 0 km/h
3029 08-05-2009 15:41:08 21.9 C 7.72 g/m*3 21.9 C 0 km/h
3030 08-05-2009 15:56:08 21.1 C 7 g/m*3 21.1 C 0 km/h
3031 08-05-2009 16:11:08 21.8 C 7.1 g/m*3 21.8 C 0 km/h
3032 08-05-2009 16:26:08 21.3 C 6.71 g/m*3 21.3 C 0 km/h
3033 08-05-2009 16:41:08 22.4 C 6.36 g/m*3 22.4 C 0 km/h
3034 08-05-2009 16:56:08 22.2 C 6.48 g/m*3 22.2 C 0 km/h
3035 08-05-2009 17:11:08 21.5 C 6.03 g/m*3 21.5 C 0 km/h
3036 08-05-2009 17:26:08 20.9 C 6.37 g/m*3 20.9 C 0 km/h
3037 08-05-2009 17:41:09 20.8 C 6.52 g/m*3 20.8 C 0 km/h
3038 08-05-2009 17:56:09 21.1 C 6.45 g/m*3 21.1 C 0 km/h
3039 08-05-2009 18:11:09 21.7 C 6.29 g/m*3 21.7 C 0 km/h
3040 08-05-2009 18:26:09 21.4 C 6.37 g/m*3 21.4 C 0 km/h
3041 08-05-2009 18:41:09 20.7 C 6.3 g/m*3 20.7 C 0 km/h
3042 08-05-2009 18:56:09 19.6 C 6.42 g/m*3 19.6 C 0 km/h
3043 08-05-2009 19:11:09 20.2 C 6.47 g/m*3 20.2 C 0 km/h
3044 08-05-2009 19:26:09 20 C 6.39 g/m*3 20 C 0 km/h
3045 08-05-2009 19:41:09 19.1 C 6.23 g/m*3 19.1 C 0 km/h
3046 08-05-2009 19:56:09 18.3 C 5.79 g/m*3 18.3 C 0 km/h
3047 08-05-2009 20:11:09 17.8 C 5.01 g/m*3 17.8 C 0 km/h
3048 08-05-2009 20:26:09 17.7 C 5.28 g/m*3 17.7 C 0 km/h
3049 08-05-2009 20:41:09 17.3 C 5.6 g/m*3 17.3 C 0 km/h
3050 08-05-2009 20:56:09 16.9 C 5.75 g/m*3 16.9 C 0 km/h
Sensor: Nr:Datum:Temp:Abs-Feuchte:Windchill:Wind:
Aussen-T/F 3051 08-05-2009 21:11:09 16.3 C 5.83 g/m*3 16.3 C 0 km/h
3052 08-05-2009 21:26:09 15.8 C 6.19 g/m*3 15.8 C 0 km/h
3053 08-05-2009 21:41:09 15.4 C 6.44 g/m*3 15.4 C 0 km/h
3054 08-05-2009 21:56:09 14.7 C 6.55 g/m*3 14.7 C 0 km/h
3055 08-05-2009 22:11:09 14.3 C 6.76 g/m*3 14.3 C 0 km/h
3056 08-05-2009 22:26:10 14.1 C 6.67 g/m*3 14.1 C 0 km/h
3057 08-05-2009 22:41:10 14.2 C 6.47 g/m*3 14.2 C 0 km/h
3058 08-05-2009 22:56:10 13.9 C 6.23 g/m*3 13.9 C 0 km/h
3059 08-05-2009 23:11:10 13.5 C 6.55 g/m*3 13.5 C 0 km/h
3060 08-05-2009 23:26:10 13 C 6.24 g/m*3 13 C 0 km/h
3061 08-05-2009 23:41:10 12.7 C 6.23 g/m*3 12.7 C 0 km/h
3062 08-05-2009 23:56:10 12.4 C 6.12 g/m*3 12.4 C 0 km/h
3063 09-05-2009 00:11:10 12.1 C 6.11 g/m*3 12.1 C 0 km/h
3064 09-05-2009 00:26:10 11.7 C 6.38 g/m*3 11.7 C 0 km/h
3065 09-05-2009 00:41:10 11.4 C 6.57 g/m*3 11.4 C 0 km/h
3066 09-05-2009 00:56:10 11 C 6.71 g/m*3 11 C 0 km/h
3067 09-05-2009 01:11:10 10.8 C 6.72 g/m*3 10.8 C 0 km/h
3068 09-05-2009 01:26:10 10.5 C 6.6 g/m*3 10.5 C 0 km/h
3069 09-05-2009 01:41:10 10.2 C 6.66 g/m*3 10.2 C 0 km/h
3070 09-05-2009 01:56:10 9.9 C 6.82 g/m*3 9.9 C 0 km/h
3071 09-05-2009 02:11:10 9.7 C 6.82 g/m*3 9.7 C 0 km/h
3072 09-05-2009 02:26:10 9.5 C 6.83 g/m*3 9.5 C 0 km/h
3073 09-05-2009 02:41:10 9.3 C 6.74 g/m*3 9.3 C 0 km/h
3074 09-05-2009 02:56:10 9.1 C 6.65 g/m*3 9.1 C 0 km/h
3075 09-05-2009 03:11:11 8.9 C 6.75 g/m*3 8.9 C 0 km/h
Sensor: Nr:Datum:Temp:Abs-Feuchte:Windchill:Wind:
Aussen-T/F 3076 09-05-2009 03:26:11 8.6 C 6.7 g/m*3 8.6 C 0 km/h
3077 09-05-2009 03:41:11 8.4 C 6.7 g/m*3 8.4 C 0 km/h
3078 09-05-2009 03:56:11 8.1 C 6.57 g/m*3 8.1 C 0 km/h
3079 09-05-2009 04:11:11 8 C 6.53 g/m*3 8 C 0 km/h
3080 09-05-2009 04:26:11 7.9 C 6.65 g/m*3 7.9 C 0 km/h
3081 09-05-2009 04:41:11 7.8 C 6.61 g/m*3 7.8 C 0 km/h
3082 09-05-2009 04:56:11 7.5 C 6.64 g/m*3 7.5 C 0 km/h
3083 09-05-2009 05:11:11 7.4 C 6.6 g/m*3 7.4 C 0 km/h
3084 09-05-2009 05:26:11 7.5 C 6.64 g/m*3 7.5 C 0 km/h
3085 09-05-2009 05:41:11 7.4 C 6.68 g/m*3 7.4 C 0 km/h
3086 09-05-2009 05:56:11 7.2 C 6.59 g/m*3 7.2 C 0 km/h
3087 09-05-2009 06:11:11 7.1 C 6.55 g/m*3 7.1 C 0 km/h
3088 09-05-2009 06:26:11 7.2 C 6.59 g/m*3 7.2 C 0 km/h
3089 09-05-2009 06:41:11 7.3 C 6.64 g/m*3 7.3 C 0 km/h
3090 09-05-2009 06:56:11 7.7 C 6.81 g/m*3 7.7 C 0 km/h
3091 09-05-2009 07:11:11 7.8 C 6.77 g/m*3 7.8 C 0 km/h
3092 09-05-2009 07:26:11 8 C 6.78 g/m*3 8 C 0 km/h
3093 09-05-2009 07:41:11 7.8 C 6.77 g/m*3 7.8 C 0 km/h
3094 09-05-2009 07:56:12 8.3 C 6.91 g/m*3 8.3 C 0 km/h
3095 09-05-2009 08:11:12 9 C 6.96 g/m*3 9 C 0 km/h
3096 09-05-2009 08:26:12 9.5 C 6.92 g/m*3 9.5 C 0 km/h
3097 09-05-2009 08:41:12 10.2 C 6.95 g/m*3 10.2 C 0 km/h
3098 09-05-2009 08:56:12 10.7 C 6.97 g/m*3 10.7 C 0 km/h
3099 09-05-2009 09:11:12 11.4 C 7.19 g/m*3 11.4 C 0 km/h
3100 09-05-2009 09:26:12 12.1 C 7.18 g/m*3 12.1 C 0 km/h
Sensor: Nr:Datum:Temp:Abs-Feuchte:Windchill:Wind:
Aussen-T/F 3101 09-05-2009 09:41:12 11.9 C 7.1 g/m*3 11.9 C 0 km/h
3102 09-05-2009 09:56:12 12.6 C 7.3 g/m*3 12.6 C 0 km/h
3103 09-05-2009 10:11:12 13.5 C 7.25 g/m*3 13.5 C 0 km/h
3104 09-05-2009 10:26:12 14.3 C 7.25 g/m*3 14.3 C 0 km/h
3105 09-05-2009 10:41:12 15 C 7.31 g/m*3 15 C 0 km/h
3106 09-05-2009 10:56:12 16.1 C 7.26 g/m*3 16.1 C 0 km/h
3107 09-05-2009 11:11:12 16.4 C 6.98 g/m*3 16.4 C 0 km/h
3108 09-05-2009 11:26:12 17.3 C 6.78 g/m*3 17.3 C 0 km/h
3109 09-05-2009 11:41:12 18 C 6.6 g/m*3 18 C 0 km/h
3110 09-05-2009 11:56:12 18.6 C 6.53 g/m*3 18.6 C 0 km/h
3111 09-05-2009 12:11:12 18.4 C 6.76 g/m*3 18.4 C 0 km/h
3112 09-05-2009 12:26:12 18.7 C 6.72 g/m*3 18.7 C 0 km/h
3113 09-05-2009 12:41:12 19.5 C 7.05 g/m*3 19.5 C 0 km/h
3114 09-05-2009 12:56:13 19.3 C 6.47 g/m*3 19.3 C 0 km/h
3115 09-05-2009 13:11:13 19.5 C 6.71 g/m*3 19.5 C 0 km/h
3116 09-05-2009 13:26:13 20.1 C 6.43 g/m*3 20.1 C 0 km/h
3117 09-05-2009 13:41:13 20.4 C 6.55 g/m*3 20.4 C 0 km/h
3118 09-05-2009 13:56:13 21.1 C 6.45 g/m*3 21.1 C 0 km/h
3119 09-05-2009 14:11:13 20.1 C 6.43 g/m*3 20.1 C 0 km/h
3120 09-05-2009 14:26:13 19.8 C 7 g/m*3 19.8 C 0 km/h
3121 09-05-2009 14:41:13 20.6 C 6.62 g/m*3 20.6 C 0 km/h
3122 09-05-2009 14:56:13 21.1 C 6.63 g/m*3 21.1 C 0 km/h
3123 09-05-2009 15:11:13 20.8 C 6.7 g/m*3 20.8 C 0 km/h
3124 09-05-2009 15:26:13 20.4 C 6.9 g/m*3 20.4 C 0 km/h
3125 09-05-2009 15:41:13 20.1 C 6.95 g/m*3 20.1 C 0 km/h
Sensor: Nr:Datum:Temp:Abs-Feuchte:Windchill:Wind:
Aussen-T/F 3126 09-05-2009 15:56:13 20.8 C 7.06 g/m*3 20.8 C 0 km/h
3127 09-05-2009 16:11:13 22.6 C 7.23 g/m*3 22.6 C 0 km/h
3128 09-05-2009 16:26:13 22.7 C 7.07 g/m*3 22.7 C 0 km/h
3129 09-05-2009 16:41:13 22.7 C 7.07 g/m*3 22.7 C 0 km/h
3130 09-05-2009 16:56:13 22.6 C 7.63 g/m*3 22.6 C 0 km/h
3131 09-05-2009 17:11:13 23.4 C 7.36 g/m*3 23.4 C 0 km/h
3132 09-05-2009 17:26:13 23.5 C 6.98 g/m*3 23.5 C 0 km/h
3133 09-05-2009 17:41:13 23.2 C 7.28 g/m*3 23.2 C 0 km/h
3134 09-05-2009 17:56:14 22.4 C 7.35 g/m*3 22.4 C 0 km/h
3135 09-05-2009 18:11:14 21.2 C 7.78 g/m*3 21.2 C 0 km/h
3136 09-05-2009 18:26:14 21.3 C 8.2 g/m*3 21.3 C 0 km/h
3137 09-05-2009 18:41:14 21.8 C 7.87 g/m*3 21.8 C 0 km/h
3138 09-05-2009 18:56:14 20.9 C 8.2 g/m*3 20.9 C 0 km/h
3139 09-05-2009 19:11:14 20.1 C 8.69 g/m*3 20.1 C 0 km/h
3140 09-05-2009 19:26:14 17.8 C 10.47 g/m*3 17.8 C 0 km/h
3141 09-05-2009 19:41:14 17 C 10.56 g/m*3 17 C 0 km/h
3142 09-05-2009 19:56:14 17 C 10.56 g/m*3 17 C 0 km/h
3143 09-05-2009 20:11:14 16.8 C 10.72 g/m*3 16.8 C 0 km/h
3144 09-05-2009 20:26:14 15.6 C 10.91 g/m*3 15.6 C 0 km/h
3145 09-05-2009 20:41:14 15.3 C 11.1 g/m*3 15.3 C 0 km/h
3146 09-05-2009 20:56:14 14.9 C 11.22 g/m*3 14.9 C 0 km/h
3147 09-05-2009 21:11:14 13.9 C 10.67 g/m*3 13.9 C 0 km/h
3148 09-05-2009 21:26:14 13.4 C 10.46 g/m*3 13.4 C 0 km/h
3149 09-05-2009 21:41:14 13.4 C 10.69 g/m*3 13.4 C 0 km/h
3150 09-05-2009 21:56:14 13.4 C 10.81 g/m*3 13.4 C 0 km/h
Sensor: Nr:Datum:Temp:Abs-Feuchte:Windchill:Wind:
Aussen-T/F 3151 09-05-2009 22:11:14 13.5 C 10.88 g/m*3 13.5 C 0 km/h
3152 09-05-2009 22:26:14 13.5 C 10.88 g/m*3 13.5 C 0 km/h
3153 09-05-2009 22:41:14 13 C 10.55 g/m*3 13 C 0 km/h
3154 09-05-2009 22:56:15 13.3 C 10.86 g/m*3 13.3 C 0 km/h
3155 09-05-2009 23:11:15 13.2 C 10.79 g/m*3 13.2 C 0 km/h
3156 09-05-2009 23:26:15 13.1 C 10.73 g/m*3 13.1 C 0 km/h
3157 09-05-2009 23:41:15 13.1 C 10.73 g/m*3 13.1 C 0 km/h
3158 09-05-2009 23:56:15 13.2 C 10.79 g/m*3 13.2 C 0 km/h
3159 10-05-2009 00:11:15 13.1 C 10.73 g/m*3 13.1 C 0 km/h
3160 10-05-2009 00:26:15 13 C 10.66 g/m*3 13 C 0 km/h
3161 10-05-2009 00:41:15 13 C 10.66 g/m*3 13 C 0 km/h
3162 10-05-2009 00:56:15 13 C 10.66 g/m*3 13 C 0 km/h
3163 10-05-2009 01:11:15 13 C 10.66 g/m*3 13 C 0 km/h
3164 10-05-2009 01:26:15 12.9 C 10.71 g/m*3 12.9 C 0 km/h
3165 10-05-2009 01:41:15 12.9 C 10.71 g/m*3 12.9 C 0 km/h
3166 10-05-2009 01:56:15 12.9 C 10.71 g/m*3 12.9 C 0 km/h
3167 10-05-2009 02:11:15 12.8 C 10.64 g/m*3 12.8 C 0 km/h
3168 10-05-2009 02:26:15 12.6 C 10.51 g/m*3 12.6 C 0 km/h
3169 10-05-2009 02:41:15 12.6 C 10.51 g/m*3 12.6 C 0 km/h
3170 10-05-2009 02:56:15 12.5 C 10.44 g/m*3 12.5 C 0 km/h
3171 10-05-2009 03:11:15 12.5 C 10.44 g/m*3 12.5 C 0 km/h
3172 10-05-2009 03:26:15 12.5 C 10.44 g/m*3 12.5 C 0 km/h
3173 10-05-2009 03:41:15 12.3 C 10.32 g/m*3 12.3 C 0 km/h
3174 10-05-2009 03:56:16 12.2 C 10.25 g/m*3 12.2 C 0 km/h
3175 10-05-2009 04:11:16 12.2 C 10.25 g/m*3 12.2 C 0 km/h
Sensor: Nr:Datum:Temp:Abs-Feuchte:Windchill:Wind:
Aussen-T/F 3176 10-05-2009 04:26:16 12.3 C 10.32 g/m*3 12.3 C 0 km/h
3177 10-05-2009 04:41:16 12.2 C 10.25 g/m*3 12.2 C 0 km/h
3178 10-05-2009 04:56:16 12.2 C 10.25 g/m*3 12.2 C 0 km/h
3179 10-05-2009 05:11:16 12.2 C 10.25 g/m*3 12.2 C 0 km/h
3180 10-05-2009 05:26:16 12 C 10.12 g/m*3 12 C 0 km/h
3181 10-05-2009 05:41:16 11.8 C 10 g/m*3 11.8 C 0 km/h
3182 10-05-2009 05:56:16 12 C 10.12 g/m*3 12 C 0 km/h
3183 10-05-2009 06:11:16 12 C 10.12 g/m*3 12 C 0 km/h
3184 10-05-2009 06:26:16 12.2 C 10.25 g/m*3 12.2 C 0 km/h
3185 10-05-2009 06:41:16 12.4 C 10.38 g/m*3 12.4 C 0 km/h
3186 10-05-2009 06:56:16 12.7 C 10.58 g/m*3 12.7 C 0 km/h
3187 10-05-2009 07:11:16 12.9 C 10.71 g/m*3 12.9 C 0 km/h
3188 10-05-2009 07:26:16 13.1 C 10.84 g/m*3 13.1 C 0 km/h
3189 10-05-2009 07:41:16 13.1 C 10.84 g/m*3 13.1 C 0 km/h
3190 10-05-2009 07:56:16 13.1 C 10.84 g/m*3 13.1 C 0 km/h
3191 10-05-2009 08:11:16 13.3 C 10.98 g/m*3 13.3 C 0 km/h
3192 10-05-2009 08:26:16 13.3 C 10.86 g/m*3 13.3 C 0 km/h
3193 10-05-2009 08:41:16 13.4 C 10.81 g/m*3 13.4 C 0 km/h
3194 10-05-2009 08:56:17 13.8 C 10.84 g/m*3 13.8 C 0 km/h
3195 10-05-2009 09:11:17 14.4 C 10.38 g/m*3 14.4 C 0 km/h
3196 10-05-2009 09:26:17 14.5 C 9.83 g/m*3 14.5 C 0 km/h
3197 10-05-2009 09:41:17 15.4 C 9.99 g/m*3 15.4 C 0 km/h
3198 10-05-2009 09:56:17 15.5 C 9.78 g/m*3 15.5 C 0 km/h
3199 10-05-2009 10:11:17 15.5 C 9.78 g/m*3 15.5 C 0 km/h
3200 10-05-2009 10:26:17 15.8 C 9.83 g/m*3 15.8 C 0 km/h
Sensor: Nr:Datum:Temp:Abs-Feuchte:Windchill:Wind:
Aussen-T/F 3201 10-05-2009 10:41:17 16.3 C 9.99 g/m*3 16.3 C 0 km/h
3202 10-05-2009 10:56:17 16.8 C 9.58 g/m*3 16.8 C 0 km/h
3203 10-05-2009 11:11:17 17.5 C 9.69 g/m*3 17.5 C 0 km/h
3204 10-05-2009 11:26:17 17.7 C 8.75 g/m*3 17.7 C 0 km/h
3205 10-05-2009 11:41:17 18.5 C 7.28 g/m*3 18.5 C 0 km/h
3206 10-05-2009 11:56:17 18.9 C 6.32 g/m*3 18.9 C 0 km/h
3207 10-05-2009 12:11:17 19.3 C 5.97 g/m*3 19.3 C 0 km/h
3208 10-05-2009 12:26:17 19.9 C 6.01 g/m*3 19.9 C 0 km/h
3209 10-05-2009 12:41:17 20.8 C 5.79 g/m*3 20.8 C 0 km/h
3210 10-05-2009 12:56:17 21.6 C 5.5 g/m*3 21.6 C 0 km/h
3211 10-05-2009 13:11:17 22.2 C 4.91 g/m*3 22.2 C 0 km/h
3212 10-05-2009 13:26:17 22.6 C 5.22 g/m*3 22.6 C 0 km/h
3213 10-05-2009 13:41:17 22.5 C 5.19 g/m*3 22.5 C 0 km/h
3214 10-05-2009 13:56:18 21.8 C 5.76 g/m*3 21.8 C 0 km/h
3215 10-05-2009 14:11:18 22.4 C 5.76 g/m*3 22.4 C 0 km/h
3216 10-05-2009 14:26:18 23.4 C 5.89 g/m*3 23.4 C 0 km/h
3217 10-05-2009 14:41:18 23.5 C 5.5 g/m*3 23.5 C 0 km/h
3218 10-05-2009 14:56:18 23.9 C 5.62 g/m*3 23.9 C 0 km/h
3219 10-05-2009 15:11:18 24.9 C 5.72 g/m*3 24.9 C 0 km/h
3220 10-05-2009 15:26:18 25.3 C 5.15 g/m*3 25.3 C 0 km/h
3221 10-05-2009 15:41:18 25.4 C 5.41 g/m*3 25.4 C 0 km/h
3222 10-05-2009 15:56:18 26.3 C 5.2 g/m*3 26.3 C 0 km/h
3223 10-05-2009 16:11:18 25.8 C 4.82 g/m*3 25.8 C 0 km/h
3224 10-05-2009 16:26:18 26.8 C 5.09 g/m*3 26.8 C 0 km/h
3225 10-05-2009 16:41:18 27.9 C 5.41 g/m*3 27.9 C 0 km/h
Sensor: Nr:Datum:Temp:Abs-Feuchte:Windchill:Wind:
Aussen-T/F 3226 10-05-2009 16:56:18 28.1 C 5.47 g/m*3 28.1 C 0 km/h
3227 10-05-2009 17:11:18 28.3 C 5.53 g/m*3 28.3 C 0 km/h
3228 10-05-2009 17:26:18 27.7 C 5.35 g/m*3 27.7 C 0 km/h
3229 10-05-2009 17:41:18 27.4 C 5.26 g/m*3 27.4 C 0 km/h
3230 10-05-2009 17:56:18 27.5 C 5.29 g/m*3 27.5 C 0 km/h